<?xml version="1.0" encoding="UTF-8" standalone="no" ?>
<gpx xmlns="http://www.topografix.com/GPX/1/1" xmlns:xsi="http://www.w3.org/2001/XMLSchema-instance" xsi:schemaLocation="http://www.topografix.com/GPX/1/1 http://www.topografix.com/GPX/1/1/gpx.xsd" version="1.1" creator="VisuGPX - https://www.visugpx.com">
  <metadata>
    <name>83-D+-Claviers</name>
    <desc><![CDATA[83-D+-Claviers : les 3 Chapelles]]></desc>
  </metadata>
  <trk>
    <name><![CDATA[2019-02-17-D+-claviers 3 chapelles]]></name>
    <trkseg>
      <trkpt lat="43.60195" lon="6.56527">
        <ele>396.3</ele>
        <time>2019-02-17T08:23:57Z</time>
      </trkpt>
      <trkpt lat="43.60195" lon="6.56527">
        <ele>396.3</ele>
        <time>2019-02-17T08:23:58Z</time>
      </trkpt>
      <trkpt lat="43.60201" lon="6.56537">
        <ele>398</ele>
        <time>2019-02-17T08:31:57Z</time>
      </trkpt>
      <trkpt lat="43.60204" lon="6.56549">
        <ele>399.3</ele>
        <time>2019-02-17T08:32:10Z</time>
      </trkpt>
      <trkpt lat="43.60212" lon="6.56554">
        <ele>398.9</ele>
        <time>2019-02-17T08:32:32Z</time>
      </trkpt>
      <trkpt lat="43.60219" lon="6.56562">
        <ele>398.8</ele>
        <time>2019-02-17T08:33:30Z</time>
      </trkpt>
      <trkpt lat="43.60217" lon="6.56576">
        <ele>399.1</ele>
        <time>2019-02-17T08:33:46Z</time>
      </trkpt>
      <trkpt lat="43.6022" lon="6.56589">
        <ele>398.8</ele>
        <time>2019-02-17T08:34:22Z</time>
      </trkpt>
      <trkpt lat="43.60214" lon="6.566">
        <ele>399.5</ele>
        <time>2019-02-17T08:34:46Z</time>
      </trkpt>
      <trkpt lat="43.60209" lon="6.56611">
        <ele>400.9</ele>
        <time>2019-02-17T08:34:55Z</time>
      </trkpt>
      <trkpt lat="43.60206" lon="6.56624">
        <ele>402.1</ele>
        <time>2019-02-17T08:35:05Z</time>
      </trkpt>
      <trkpt lat="43.60202" lon="6.56636">
        <ele>402.9</ele>
        <time>2019-02-17T08:35:13Z</time>
      </trkpt>
      <trkpt lat="43.602" lon="6.5665">
        <ele>404.4</ele>
        <time>2019-02-17T08:35:23Z</time>
      </trkpt>
      <trkpt lat="43.602" lon="6.56663">
        <ele>405.5</ele>
        <time>2019-02-17T08:35:31Z</time>
      </trkpt>
      <trkpt lat="43.60196" lon="6.56674">
        <ele>406.3</ele>
        <time>2019-02-17T08:35:39Z</time>
      </trkpt>
      <trkpt lat="43.60191" lon="6.56685">
        <ele>407.6</ele>
        <time>2019-02-17T08:35:48Z</time>
      </trkpt>
      <trkpt lat="43.60186" lon="6.56695">
        <ele>408.8</ele>
        <time>2019-02-17T08:35:55Z</time>
      </trkpt>
      <trkpt lat="43.60183" lon="6.56707">
        <ele>409.7</ele>
        <time>2019-02-17T08:36:02Z</time>
      </trkpt>
      <trkpt lat="43.60182" lon="6.56721">
        <ele>410.6</ele>
        <time>2019-02-17T08:36:09Z</time>
      </trkpt>
      <trkpt lat="43.60184" lon="6.56734">
        <ele>411.4</ele>
        <time>2019-02-17T08:36:17Z</time>
      </trkpt>
      <trkpt lat="43.60187" lon="6.56747">
        <ele>412.4</ele>
        <time>2019-02-17T08:36:25Z</time>
      </trkpt>
      <trkpt lat="43.60188" lon="6.5676">
        <ele>413.3</ele>
        <time>2019-02-17T08:36:34Z</time>
      </trkpt>
      <trkpt lat="43.60189" lon="6.56772">
        <ele>413.5</ele>
        <time>2019-02-17T08:36:41Z</time>
      </trkpt>
      <trkpt lat="43.60186" lon="6.56785">
        <ele>414.6</ele>
        <time>2019-02-17T08:36:51Z</time>
      </trkpt>
      <trkpt lat="43.60184" lon="6.56798">
        <ele>415.2</ele>
        <time>2019-02-17T08:36:59Z</time>
      </trkpt>
      <trkpt lat="43.60182" lon="6.5681">
        <ele>416.2</ele>
        <time>2019-02-17T08:37:07Z</time>
      </trkpt>
      <trkpt lat="43.6018" lon="6.56824">
        <ele>416.6</ele>
        <time>2019-02-17T08:37:15Z</time>
      </trkpt>
      <trkpt lat="43.60179" lon="6.56838">
        <ele>417.2</ele>
        <time>2019-02-17T08:37:25Z</time>
      </trkpt>
      <trkpt lat="43.6018" lon="6.5685">
        <ele>417.3</ele>
        <time>2019-02-17T08:37:31Z</time>
      </trkpt>
      <trkpt lat="43.6018" lon="6.56866">
        <ele>417.8</ele>
        <time>2019-02-17T08:37:39Z</time>
      </trkpt>
      <trkpt lat="43.60181" lon="6.56879">
        <ele>418.3</ele>
        <time>2019-02-17T08:37:46Z</time>
      </trkpt>
      <trkpt lat="43.60183" lon="6.56892">
        <ele>419.1</ele>
        <time>2019-02-17T08:37:54Z</time>
      </trkpt>
      <trkpt lat="43.60184" lon="6.56906">
        <ele>420</ele>
        <time>2019-02-17T08:38:03Z</time>
      </trkpt>
      <trkpt lat="43.60186" lon="6.56918">
        <ele>421.1</ele>
        <time>2019-02-17T08:38:13Z</time>
      </trkpt>
      <trkpt lat="43.60193" lon="6.56927">
        <ele>423</ele>
        <time>2019-02-17T08:38:35Z</time>
      </trkpt>
      <trkpt lat="43.60202" lon="6.56924">
        <ele>423.1</ele>
        <time>2019-02-17T08:38:44Z</time>
      </trkpt>
      <trkpt lat="43.60211" lon="6.56918">
        <ele>423.1</ele>
        <time>2019-02-17T08:38:54Z</time>
      </trkpt>
      <trkpt lat="43.60221" lon="6.56915">
        <ele>423.7</ele>
        <time>2019-02-17T08:39:01Z</time>
      </trkpt>
      <trkpt lat="43.6023" lon="6.56912">
        <ele>423.8</ele>
        <time>2019-02-17T08:39:11Z</time>
      </trkpt>
      <trkpt lat="43.60239" lon="6.5691">
        <ele>424.2</ele>
        <time>2019-02-17T08:39:20Z</time>
      </trkpt>
      <trkpt lat="43.60246" lon="6.56902">
        <ele>424.6</ele>
        <time>2019-02-17T08:39:29Z</time>
      </trkpt>
      <trkpt lat="43.60252" lon="6.56891">
        <ele>425</ele>
        <time>2019-02-17T08:39:37Z</time>
      </trkpt>
      <trkpt lat="43.60255" lon="6.56877">
        <ele>425.2</ele>
        <time>2019-02-17T08:39:46Z</time>
      </trkpt>
      <trkpt lat="43.6026" lon="6.56867">
        <ele>425.6</ele>
        <time>2019-02-17T08:39:57Z</time>
      </trkpt>
      <trkpt lat="43.60267" lon="6.56856">
        <ele>425.6</ele>
        <time>2019-02-17T08:40:05Z</time>
      </trkpt>
      <trkpt lat="43.60273" lon="6.56844">
        <ele>426.1</ele>
        <time>2019-02-17T08:40:13Z</time>
      </trkpt>
      <trkpt lat="43.60278" lon="6.56832">
        <ele>427</ele>
        <time>2019-02-17T08:40:22Z</time>
      </trkpt>
      <trkpt lat="43.60283" lon="6.56822">
        <ele>428</ele>
        <time>2019-02-17T08:40:31Z</time>
      </trkpt>
      <trkpt lat="43.60287" lon="6.5681">
        <ele>428.4</ele>
        <time>2019-02-17T08:40:39Z</time>
      </trkpt>
      <trkpt lat="43.60292" lon="6.56798">
        <ele>428.9</ele>
        <time>2019-02-17T08:40:47Z</time>
      </trkpt>
      <trkpt lat="43.60298" lon="6.5679">
        <ele>428.9</ele>
        <time>2019-02-17T08:40:55Z</time>
      </trkpt>
      <trkpt lat="43.60305" lon="6.5678">
        <ele>428.9</ele>
        <time>2019-02-17T08:41:03Z</time>
      </trkpt>
      <trkpt lat="43.60311" lon="6.56769">
        <ele>428.6</ele>
        <time>2019-02-17T08:41:11Z</time>
      </trkpt>
      <trkpt lat="43.60317" lon="6.5676">
        <ele>429.2</ele>
        <time>2019-02-17T08:41:19Z</time>
      </trkpt>
      <trkpt lat="43.60322" lon="6.56748">
        <ele>429.5</ele>
        <time>2019-02-17T08:41:27Z</time>
      </trkpt>
      <trkpt lat="43.60329" lon="6.5674">
        <ele>429.8</ele>
        <time>2019-02-17T08:41:33Z</time>
      </trkpt>
      <trkpt lat="43.60335" lon="6.56731">
        <ele>429.8</ele>
        <time>2019-02-17T08:41:42Z</time>
      </trkpt>
      <trkpt lat="43.60345" lon="6.56723">
        <ele>430.4</ele>
        <time>2019-02-17T08:41:50Z</time>
      </trkpt>
      <trkpt lat="43.60354" lon="6.56721">
        <ele>431</ele>
        <time>2019-02-17T08:41:58Z</time>
      </trkpt>
      <trkpt lat="43.60363" lon="6.56723">
        <ele>432.3</ele>
        <time>2019-02-17T08:42:07Z</time>
      </trkpt>
      <trkpt lat="43.60373" lon="6.56727">
        <ele>432.8</ele>
        <time>2019-02-17T08:42:16Z</time>
      </trkpt>
      <trkpt lat="43.60382" lon="6.56729">
        <ele>432.8</ele>
        <time>2019-02-17T08:42:23Z</time>
      </trkpt>
      <trkpt lat="43.60392" lon="6.56732">
        <ele>433.5</ele>
        <time>2019-02-17T08:42:33Z</time>
      </trkpt>
      <trkpt lat="43.60401" lon="6.56732">
        <ele>433.8</ele>
        <time>2019-02-17T08:42:42Z</time>
      </trkpt>
      <trkpt lat="43.6041" lon="6.56727">
        <ele>434.4</ele>
        <time>2019-02-17T08:42:50Z</time>
      </trkpt>
      <trkpt lat="43.60418" lon="6.56721">
        <ele>435.1</ele>
        <time>2019-02-17T08:42:57Z</time>
      </trkpt>
      <trkpt lat="43.60426" lon="6.56712">
        <ele>435.6</ele>
        <time>2019-02-17T08:43:05Z</time>
      </trkpt>
      <trkpt lat="43.60434" lon="6.56706">
        <ele>436.1</ele>
        <time>2019-02-17T08:43:12Z</time>
      </trkpt>
      <trkpt lat="43.60441" lon="6.56697">
        <ele>436.6</ele>
        <time>2019-02-17T08:43:19Z</time>
      </trkpt>
      <trkpt lat="43.60448" lon="6.56689">
        <ele>437.7</ele>
        <time>2019-02-17T08:43:29Z</time>
      </trkpt>
      <trkpt lat="43.60456" lon="6.56682">
        <ele>438.8</ele>
        <time>2019-02-17T08:43:37Z</time>
      </trkpt>
      <trkpt lat="43.60464" lon="6.56674">
        <ele>439.6</ele>
        <time>2019-02-17T08:43:45Z</time>
      </trkpt>
      <trkpt lat="43.60471" lon="6.56666">
        <ele>439.9</ele>
        <time>2019-02-17T08:43:54Z</time>
      </trkpt>
      <trkpt lat="43.60477" lon="6.56656">
        <ele>441</ele>
        <time>2019-02-17T08:44:02Z</time>
      </trkpt>
      <trkpt lat="43.60483" lon="6.56646">
        <ele>441.7</ele>
        <time>2019-02-17T08:44:10Z</time>
      </trkpt>
      <trkpt lat="43.60491" lon="6.56637">
        <ele>442.6</ele>
        <time>2019-02-17T08:44:18Z</time>
      </trkpt>
      <trkpt lat="43.605" lon="6.56632">
        <ele>443.5</ele>
        <time>2019-02-17T08:44:28Z</time>
      </trkpt>
      <trkpt lat="43.60509" lon="6.56637">
        <ele>445.1</ele>
        <time>2019-02-17T08:44:38Z</time>
      </trkpt>
      <trkpt lat="43.60512" lon="6.56649">
        <ele>447.2</ele>
        <time>2019-02-17T08:44:48Z</time>
      </trkpt>
      <trkpt lat="43.60513" lon="6.56662">
        <ele>448.1</ele>
        <time>2019-02-17T08:44:58Z</time>
      </trkpt>
      <trkpt lat="43.6051" lon="6.56675">
        <ele>448.9</ele>
        <time>2019-02-17T08:45:07Z</time>
      </trkpt>
      <trkpt lat="43.60506" lon="6.56686">
        <ele>449.4</ele>
        <time>2019-02-17T08:45:15Z</time>
      </trkpt>
      <trkpt lat="43.60501" lon="6.56698">
        <ele>449.8</ele>
        <time>2019-02-17T08:45:25Z</time>
      </trkpt>
      <trkpt lat="43.60496" lon="6.5671">
        <ele>450.6</ele>
        <time>2019-02-17T08:45:34Z</time>
      </trkpt>
      <trkpt lat="43.60489" lon="6.5672">
        <ele>451</ele>
        <time>2019-02-17T08:45:44Z</time>
      </trkpt>
      <trkpt lat="43.60485" lon="6.56731">
        <ele>451.3</ele>
        <time>2019-02-17T08:45:54Z</time>
      </trkpt>
      <trkpt lat="43.60478" lon="6.56741">
        <ele>451.8</ele>
        <time>2019-02-17T08:46:02Z</time>
      </trkpt>
      <trkpt lat="43.60472" lon="6.5675">
        <ele>452.1</ele>
        <time>2019-02-17T08:46:10Z</time>
      </trkpt>
      <trkpt lat="43.60466" lon="6.56761">
        <ele>452.5</ele>
        <time>2019-02-17T08:46:18Z</time>
      </trkpt>
      <trkpt lat="43.60459" lon="6.56769">
        <ele>453.2</ele>
        <time>2019-02-17T08:46:26Z</time>
      </trkpt>
      <trkpt lat="43.60451" lon="6.56779">
        <ele>453.6</ele>
        <time>2019-02-17T08:46:34Z</time>
      </trkpt>
      <trkpt lat="43.60444" lon="6.56788">
        <ele>453.9</ele>
        <time>2019-02-17T08:46:42Z</time>
      </trkpt>
      <trkpt lat="43.60437" lon="6.56797">
        <ele>454</ele>
        <time>2019-02-17T08:46:50Z</time>
      </trkpt>
      <trkpt lat="43.60428" lon="6.56803">
        <ele>453.9</ele>
        <time>2019-02-17T08:47:25Z</time>
      </trkpt>
      <trkpt lat="43.60421" lon="6.56812">
        <ele>453.9</ele>
        <time>2019-02-17T08:47:33Z</time>
      </trkpt>
      <trkpt lat="43.60416" lon="6.56823">
        <ele>454.5</ele>
        <time>2019-02-17T08:47:40Z</time>
      </trkpt>
      <trkpt lat="43.60408" lon="6.5683">
        <ele>454.7</ele>
        <time>2019-02-17T08:47:47Z</time>
      </trkpt>
      <trkpt lat="43.60401" lon="6.56838">
        <ele>454.8</ele>
        <time>2019-02-17T08:47:55Z</time>
      </trkpt>
      <trkpt lat="43.60393" lon="6.56847">
        <ele>455.4</ele>
        <time>2019-02-17T08:48:03Z</time>
      </trkpt>
      <trkpt lat="43.60385" lon="6.56855">
        <ele>456.3</ele>
        <time>2019-02-17T08:48:11Z</time>
      </trkpt>
      <trkpt lat="43.60381" lon="6.56866">
        <ele>457.2</ele>
        <time>2019-02-17T08:48:55Z</time>
      </trkpt>
      <trkpt lat="43.60377" lon="6.56878">
        <ele>457.3</ele>
        <time>2019-02-17T08:49:09Z</time>
      </trkpt>
      <trkpt lat="43.60373" lon="6.56889">
        <ele>457.8</ele>
        <time>2019-02-17T08:49:19Z</time>
      </trkpt>
      <trkpt lat="43.60369" lon="6.569">
        <ele>458.6</ele>
        <time>2019-02-17T08:49:30Z</time>
      </trkpt>
      <trkpt lat="43.60362" lon="6.5691">
        <ele>459</ele>
        <time>2019-02-17T08:50:41Z</time>
      </trkpt>
      <trkpt lat="43.60359" lon="6.56922">
        <ele>459.6</ele>
        <time>2019-02-17T08:50:51Z</time>
      </trkpt>
      <trkpt lat="43.60359" lon="6.56934">
        <ele>460.7</ele>
        <time>2019-02-17T08:51:01Z</time>
      </trkpt>
      <trkpt lat="43.6036" lon="6.56947">
        <ele>462.4</ele>
        <time>2019-02-17T08:51:12Z</time>
      </trkpt>
      <trkpt lat="43.60361" lon="6.56961">
        <ele>463.7</ele>
        <time>2019-02-17T08:51:23Z</time>
      </trkpt>
      <trkpt lat="43.60363" lon="6.56973">
        <ele>464.7</ele>
        <time>2019-02-17T08:51:33Z</time>
      </trkpt>
      <trkpt lat="43.60364" lon="6.56986">
        <ele>466.4</ele>
        <time>2019-02-17T08:51:45Z</time>
      </trkpt>
      <trkpt lat="43.60366" lon="6.57">
        <ele>467.6</ele>
        <time>2019-02-17T08:51:54Z</time>
      </trkpt>
      <trkpt lat="43.60368" lon="6.57013">
        <ele>469</ele>
        <time>2019-02-17T08:52:04Z</time>
      </trkpt>
      <trkpt lat="43.60371" lon="6.57025">
        <ele>470.2</ele>
        <time>2019-02-17T08:52:15Z</time>
      </trkpt>
      <trkpt lat="43.60377" lon="6.57036">
        <ele>472.1</ele>
        <time>2019-02-17T08:52:26Z</time>
      </trkpt>
      <trkpt lat="43.60385" lon="6.57028">
        <ele>473.8</ele>
        <time>2019-02-17T08:52:37Z</time>
      </trkpt>
      <trkpt lat="43.6039" lon="6.57017">
        <ele>474.8</ele>
        <time>2019-02-17T08:52:46Z</time>
      </trkpt>
      <trkpt lat="43.60394" lon="6.57003">
        <ele>475.7</ele>
        <time>2019-02-17T08:52:55Z</time>
      </trkpt>
      <trkpt lat="43.60396" lon="6.56991">
        <ele>476.4</ele>
        <time>2019-02-17T08:53:05Z</time>
      </trkpt>
      <trkpt lat="43.60401" lon="6.5698">
        <ele>477.2</ele>
        <time>2019-02-17T08:53:15Z</time>
      </trkpt>
      <trkpt lat="43.60407" lon="6.56969">
        <ele>477.7</ele>
        <time>2019-02-17T08:53:23Z</time>
      </trkpt>
      <trkpt lat="43.60414" lon="6.5696">
        <ele>478.5</ele>
        <time>2019-02-17T08:53:33Z</time>
      </trkpt>
      <trkpt lat="43.60422" lon="6.56953">
        <ele>479.4</ele>
        <time>2019-02-17T08:53:43Z</time>
      </trkpt>
      <trkpt lat="43.60432" lon="6.56949">
        <ele>480.6</ele>
        <time>2019-02-17T08:53:53Z</time>
      </trkpt>
      <trkpt lat="43.6044" lon="6.56942">
        <ele>481.5</ele>
        <time>2019-02-17T08:54:01Z</time>
      </trkpt>
      <trkpt lat="43.60448" lon="6.56936">
        <ele>482.5</ele>
        <time>2019-02-17T08:54:09Z</time>
      </trkpt>
      <trkpt lat="43.60457" lon="6.56934">
        <ele>483.6</ele>
        <time>2019-02-17T08:54:20Z</time>
      </trkpt>
      <trkpt lat="43.60466" lon="6.56932">
        <ele>485</ele>
        <time>2019-02-17T08:54:32Z</time>
      </trkpt>
      <trkpt lat="43.60475" lon="6.56929">
        <ele>487</ele>
        <time>2019-02-17T08:54:43Z</time>
      </trkpt>
      <trkpt lat="43.60484" lon="6.56924">
        <ele>488.5</ele>
        <time>2019-02-17T08:54:55Z</time>
      </trkpt>
      <trkpt lat="43.6048" lon="6.56935">
        <ele>492</ele>
        <time>2019-02-17T08:55:23Z</time>
      </trkpt>
      <trkpt lat="43.60472" lon="6.56941">
        <ele>492.4</ele>
        <time>2019-02-17T08:55:32Z</time>
      </trkpt>
      <trkpt lat="43.60464" lon="6.56948">
        <ele>492.6</ele>
        <time>2019-02-17T08:55:41Z</time>
      </trkpt>
      <trkpt lat="43.60455" lon="6.56954">
        <ele>493</ele>
        <time>2019-02-17T08:55:50Z</time>
      </trkpt>
      <trkpt lat="43.60454" lon="6.56966">
        <ele>493</ele>
        <time>2019-02-17T08:57:02Z</time>
      </trkpt>
      <trkpt lat="43.60461" lon="6.56974">
        <ele>494.8</ele>
        <time>2019-02-17T09:00:31Z</time>
      </trkpt>
      <trkpt lat="43.6047" lon="6.56978">
        <ele>496</ele>
        <time>2019-02-17T09:00:40Z</time>
      </trkpt>
      <trkpt lat="43.60479" lon="6.56978">
        <ele>497.5</ele>
        <time>2019-02-17T09:00:54Z</time>
      </trkpt>
      <trkpt lat="43.60488" lon="6.56977">
        <ele>499.8</ele>
        <time>2019-02-17T09:01:04Z</time>
      </trkpt>
      <trkpt lat="43.60497" lon="6.56982">
        <ele>502.3</ele>
        <time>2019-02-17T09:01:19Z</time>
      </trkpt>
      <trkpt lat="43.60506" lon="6.56984">
        <ele>505.5</ele>
        <time>2019-02-17T09:01:32Z</time>
      </trkpt>
      <trkpt lat="43.60515" lon="6.56987">
        <ele>507</ele>
        <time>2019-02-17T09:01:40Z</time>
      </trkpt>
      <trkpt lat="43.60524" lon="6.56988">
        <ele>508.5</ele>
        <time>2019-02-17T09:01:49Z</time>
      </trkpt>
      <trkpt lat="43.60532" lon="6.56993">
        <ele>509.6</ele>
        <time>2019-02-17T09:01:57Z</time>
      </trkpt>
      <trkpt lat="43.60543" lon="6.56989">
        <ele>511.2</ele>
        <time>2019-02-17T09:02:09Z</time>
      </trkpt>
      <trkpt lat="43.60551" lon="6.56984">
        <ele>512.7</ele>
        <time>2019-02-17T09:02:22Z</time>
      </trkpt>
      <trkpt lat="43.60559" lon="6.56977">
        <ele>514.1</ele>
        <time>2019-02-17T09:02:30Z</time>
      </trkpt>
      <trkpt lat="43.60567" lon="6.56971">
        <ele>515.2</ele>
        <time>2019-02-17T09:02:39Z</time>
      </trkpt>
      <trkpt lat="43.60576" lon="6.56962">
        <ele>516.9</ele>
        <time>2019-02-17T09:02:49Z</time>
      </trkpt>
      <trkpt lat="43.60583" lon="6.56954">
        <ele>518.2</ele>
        <time>2019-02-17T09:03:00Z</time>
      </trkpt>
      <trkpt lat="43.60591" lon="6.56946">
        <ele>519.6</ele>
        <time>2019-02-17T09:03:14Z</time>
      </trkpt>
      <trkpt lat="43.60599" lon="6.5694">
        <ele>521.3</ele>
        <time>2019-02-17T09:03:26Z</time>
      </trkpt>
      <trkpt lat="43.60606" lon="6.56931">
        <ele>523.4</ele>
        <time>2019-02-17T09:03:38Z</time>
      </trkpt>
      <trkpt lat="43.60614" lon="6.56925">
        <ele>525</ele>
        <time>2019-02-17T09:03:50Z</time>
      </trkpt>
      <trkpt lat="43.60622" lon="6.56916">
        <ele>526.9</ele>
        <time>2019-02-17T09:04:05Z</time>
      </trkpt>
      <trkpt lat="43.6063" lon="6.5691">
        <ele>529.8</ele>
        <time>2019-02-17T09:04:23Z</time>
      </trkpt>
      <trkpt lat="43.60639" lon="6.56909">
        <ele>531.6</ele>
        <time>2019-02-17T09:04:37Z</time>
      </trkpt>
      <trkpt lat="43.60647" lon="6.56905">
        <ele>534.2</ele>
        <time>2019-02-17T09:04:54Z</time>
      </trkpt>
      <trkpt lat="43.60655" lon="6.56898">
        <ele>536.3</ele>
        <time>2019-02-17T09:05:07Z</time>
      </trkpt>
      <trkpt lat="43.60663" lon="6.56893">
        <ele>538.5</ele>
        <time>2019-02-17T09:05:20Z</time>
      </trkpt>
      <trkpt lat="43.6067" lon="6.56884">
        <ele>540.3</ele>
        <time>2019-02-17T09:05:30Z</time>
      </trkpt>
      <trkpt lat="43.60677" lon="6.56875">
        <ele>543</ele>
        <time>2019-02-17T09:05:45Z</time>
      </trkpt>
      <trkpt lat="43.60683" lon="6.56866">
        <ele>544.1</ele>
        <time>2019-02-17T09:05:55Z</time>
      </trkpt>
      <trkpt lat="43.60689" lon="6.56856">
        <ele>546.3</ele>
        <time>2019-02-17T09:06:08Z</time>
      </trkpt>
      <trkpt lat="43.60696" lon="6.56847">
        <ele>547.7</ele>
        <time>2019-02-17T09:06:19Z</time>
      </trkpt>
      <trkpt lat="43.60704" lon="6.56839">
        <ele>549.7</ele>
        <time>2019-02-17T09:06:33Z</time>
      </trkpt>
      <trkpt lat="43.60711" lon="6.56832">
        <ele>551.2</ele>
        <time>2019-02-17T09:06:45Z</time>
      </trkpt>
      <trkpt lat="43.60719" lon="6.56824">
        <ele>553.5</ele>
        <time>2019-02-17T09:07:03Z</time>
      </trkpt>
      <trkpt lat="43.60725" lon="6.56816">
        <ele>555.9</ele>
        <time>2019-02-17T09:07:18Z</time>
      </trkpt>
      <trkpt lat="43.60734" lon="6.56811">
        <ele>557.2</ele>
        <time>2019-02-17T09:07:28Z</time>
      </trkpt>
      <trkpt lat="43.60744" lon="6.56807">
        <ele>559.2</ele>
        <time>2019-02-17T09:07:41Z</time>
      </trkpt>
      <trkpt lat="43.60753" lon="6.56804">
        <ele>560.6</ele>
        <time>2019-02-17T09:07:55Z</time>
      </trkpt>
      <trkpt lat="43.60762" lon="6.568">
        <ele>562.7</ele>
        <time>2019-02-17T09:08:09Z</time>
      </trkpt>
      <trkpt lat="43.60772" lon="6.56795">
        <ele>564.5</ele>
        <time>2019-02-17T09:08:22Z</time>
      </trkpt>
      <trkpt lat="43.60782" lon="6.56794">
        <ele>565.7</ele>
        <time>2019-02-17T09:08:37Z</time>
      </trkpt>
      <trkpt lat="43.60791" lon="6.56795">
        <ele>568.5</ele>
        <time>2019-02-17T09:08:55Z</time>
      </trkpt>
      <trkpt lat="43.608" lon="6.56793">
        <ele>569.9</ele>
        <time>2019-02-17T09:09:06Z</time>
      </trkpt>
      <trkpt lat="43.60809" lon="6.56789">
        <ele>571.7</ele>
        <time>2019-02-17T09:09:19Z</time>
      </trkpt>
      <trkpt lat="43.60819" lon="6.56789">
        <ele>573.4</ele>
        <time>2019-02-17T09:09:33Z</time>
      </trkpt>
      <trkpt lat="43.60829" lon="6.56788">
        <ele>575.6</ele>
        <time>2019-02-17T09:09:50Z</time>
      </trkpt>
      <trkpt lat="43.60839" lon="6.5679">
        <ele>576.9</ele>
        <time>2019-02-17T09:10:01Z</time>
      </trkpt>
      <trkpt lat="43.60848" lon="6.56782">
        <ele>578.7</ele>
        <time>2019-02-17T09:10:17Z</time>
      </trkpt>
      <trkpt lat="43.60856" lon="6.56776">
        <ele>579.2</ele>
        <time>2019-02-17T09:10:26Z</time>
      </trkpt>
      <trkpt lat="43.60857" lon="6.56789">
        <ele>581.2</ele>
        <time>2019-02-17T09:10:49Z</time>
      </trkpt>
      <trkpt lat="43.60858" lon="6.56801">
        <ele>583.2</ele>
        <time>2019-02-17T09:11:04Z</time>
      </trkpt>
      <trkpt lat="43.60857" lon="6.56814">
        <ele>584.7</ele>
        <time>2019-02-17T09:12:05Z</time>
      </trkpt>
      <trkpt lat="43.60861" lon="6.56827">
        <ele>586.8</ele>
        <time>2019-02-17T09:12:31Z</time>
      </trkpt>
      <trkpt lat="43.6087" lon="6.56826">
        <ele>588.8</ele>
        <time>2019-02-17T09:12:50Z</time>
      </trkpt>
      <trkpt lat="43.60878" lon="6.56819">
        <ele>590.3</ele>
        <time>2019-02-17T09:13:07Z</time>
      </trkpt>
      <trkpt lat="43.60886" lon="6.56814">
        <ele>592.6</ele>
        <time>2019-02-17T09:13:24Z</time>
      </trkpt>
      <trkpt lat="43.60894" lon="6.56808">
        <ele>594.7</ele>
        <time>2019-02-17T09:13:37Z</time>
      </trkpt>
      <trkpt lat="43.60903" lon="6.56804">
        <ele>596.6</ele>
        <time>2019-02-17T09:13:48Z</time>
      </trkpt>
      <trkpt lat="43.60909" lon="6.56794">
        <ele>598.2</ele>
        <time>2019-02-17T09:14:00Z</time>
      </trkpt>
      <trkpt lat="43.60919" lon="6.56788">
        <ele>599.2</ele>
        <time>2019-02-17T09:14:08Z</time>
      </trkpt>
      <trkpt lat="43.60919" lon="6.56802">
        <ele>603.5</ele>
        <time>2019-02-17T09:14:56Z</time>
      </trkpt>
      <trkpt lat="43.60917" lon="6.56814">
        <ele>605.7</ele>
        <time>2019-02-17T09:15:07Z</time>
      </trkpt>
      <trkpt lat="43.60916" lon="6.56827">
        <ele>608.3</ele>
        <time>2019-02-17T09:15:20Z</time>
      </trkpt>
      <trkpt lat="43.60915" lon="6.5684">
        <ele>611.4</ele>
        <time>2019-02-17T09:15:32Z</time>
      </trkpt>
      <trkpt lat="43.60919" lon="6.56853">
        <ele>613.5</ele>
        <time>2019-02-17T09:15:42Z</time>
      </trkpt>
      <trkpt lat="43.60927" lon="6.5686">
        <ele>615.7</ele>
        <time>2019-02-17T09:15:57Z</time>
      </trkpt>
      <trkpt lat="43.60933" lon="6.56849">
        <ele>616.2</ele>
        <time>2019-02-17T09:16:14Z</time>
      </trkpt>
      <trkpt lat="43.60938" lon="6.56838">
        <ele>616.1</ele>
        <time>2019-02-17T09:16:24Z</time>
      </trkpt>
      <trkpt lat="43.60946" lon="6.56829">
        <ele>615.8</ele>
        <time>2019-02-17T09:16:35Z</time>
      </trkpt>
      <trkpt lat="43.60955" lon="6.56829">
        <ele>616.5</ele>
        <time>2019-02-17T09:16:45Z</time>
      </trkpt>
      <trkpt lat="43.60965" lon="6.56829">
        <ele>617.3</ele>
        <time>2019-02-17T09:16:56Z</time>
      </trkpt>
      <trkpt lat="43.60973" lon="6.56824">
        <ele>616.9</ele>
        <time>2019-02-17T09:17:05Z</time>
      </trkpt>
      <trkpt lat="43.60982" lon="6.56819">
        <ele>616</ele>
        <time>2019-02-17T09:17:13Z</time>
      </trkpt>
      <trkpt lat="43.60991" lon="6.56813">
        <ele>615.8</ele>
        <time>2019-02-17T09:17:22Z</time>
      </trkpt>
      <trkpt lat="43.60989" lon="6.568">
        <ele>615.4</ele>
        <time>2019-02-17T09:17:44Z</time>
      </trkpt>
      <trkpt lat="43.60981" lon="6.56792">
        <ele>614.7</ele>
        <time>2019-02-17T09:18:00Z</time>
      </trkpt>
      <trkpt lat="43.60973" lon="6.56786">
        <ele>615.5</ele>
        <time>2019-02-17T09:18:10Z</time>
      </trkpt>
      <trkpt lat="43.60963" lon="6.56784">
        <ele>615.6</ele>
        <time>2019-02-17T09:18:20Z</time>
      </trkpt>
      <trkpt lat="43.60954" lon="6.56778">
        <ele>615.4</ele>
        <time>2019-02-17T09:18:30Z</time>
      </trkpt>
      <trkpt lat="43.60946" lon="6.56786">
        <ele>614.5</ele>
        <time>2019-02-17T09:18:57Z</time>
      </trkpt>
      <trkpt lat="43.60941" lon="6.56796">
        <ele>614.5</ele>
        <time>2019-02-17T09:19:13Z</time>
      </trkpt>
      <trkpt lat="43.60941" lon="6.56809">
        <ele>614.7</ele>
        <time>2019-02-17T09:19:37Z</time>
      </trkpt>
      <trkpt lat="43.60934" lon="6.56817">
        <ele>614.6</ele>
        <time>2019-02-17T09:19:56Z</time>
      </trkpt>
      <trkpt lat="43.60928" lon="6.56827">
        <ele>614.4</ele>
        <time>2019-02-17T09:20:05Z</time>
      </trkpt>
      <trkpt lat="43.60926" lon="6.5684">
        <ele>614.9</ele>
        <time>2019-02-17T09:20:15Z</time>
      </trkpt>
      <trkpt lat="43.60935" lon="6.56838">
        <ele>615.4</ele>
        <time>2019-02-17T09:20:23Z</time>
      </trkpt>
      <trkpt lat="43.60944" lon="6.56836">
        <ele>616.1</ele>
        <time>2019-02-17T09:21:06Z</time>
      </trkpt>
      <trkpt lat="43.60951" lon="6.56827">
        <ele>615.7</ele>
        <time>2019-02-17T09:21:20Z</time>
      </trkpt>
      <trkpt lat="43.60957" lon="6.56818">
        <ele>616.1</ele>
        <time>2019-02-17T09:21:32Z</time>
      </trkpt>
      <trkpt lat="43.60964" lon="6.56806">
        <ele>615.8</ele>
        <time>2019-02-17T09:21:39Z</time>
      </trkpt>
      <trkpt lat="43.60971" lon="6.56797">
        <ele>615.8</ele>
        <time>2019-02-17T09:21:48Z</time>
      </trkpt>
      <trkpt lat="43.60963" lon="6.56804">
        <ele>615.7</ele>
        <time>2019-02-17T09:22:17Z</time>
      </trkpt>
      <trkpt lat="43.60959" lon="6.56816">
        <ele>615.4</ele>
        <time>2019-02-17T09:22:29Z</time>
      </trkpt>
      <trkpt lat="43.6095" lon="6.56819">
        <ele>615.7</ele>
        <time>2019-02-17T09:22:35Z</time>
      </trkpt>
      <trkpt lat="43.60945" lon="6.5683">
        <ele>615.5</ele>
        <time>2019-02-17T09:22:47Z</time>
      </trkpt>
      <trkpt lat="43.60935" lon="6.56832">
        <ele>615.9</ele>
        <time>2019-02-17T09:25:48Z</time>
      </trkpt>
      <trkpt lat="43.6093" lon="6.56842">
        <ele>615.2</ele>
        <time>2019-02-17T09:25:57Z</time>
      </trkpt>
      <trkpt lat="43.60925" lon="6.56854">
        <ele>615.1</ele>
        <time>2019-02-17T09:26:05Z</time>
      </trkpt>
      <trkpt lat="43.60923" lon="6.56866">
        <ele>615.7</ele>
        <time>2019-02-17T09:26:31Z</time>
      </trkpt>
      <trkpt lat="43.60922" lon="6.56879">
        <ele>615.5</ele>
        <time>2019-02-17T09:26:43Z</time>
      </trkpt>
      <trkpt lat="43.6092" lon="6.56892">
        <ele>615.2</ele>
        <time>2019-02-17T09:26:53Z</time>
      </trkpt>
      <trkpt lat="43.60919" lon="6.56905">
        <ele>614.7</ele>
        <time>2019-02-17T09:27:01Z</time>
      </trkpt>
      <trkpt lat="43.60916" lon="6.56916">
        <ele>613.1</ele>
        <time>2019-02-17T09:27:11Z</time>
      </trkpt>
      <trkpt lat="43.60913" lon="6.56928">
        <ele>612.6</ele>
        <time>2019-02-17T09:27:19Z</time>
      </trkpt>
      <trkpt lat="43.60906" lon="6.56938">
        <ele>611.9</ele>
        <time>2019-02-17T09:27:26Z</time>
      </trkpt>
      <trkpt lat="43.60896" lon="6.5694">
        <ele>611.2</ele>
        <time>2019-02-17T09:27:36Z</time>
      </trkpt>
      <trkpt lat="43.60887" lon="6.56944">
        <ele>610.8</ele>
        <time>2019-02-17T09:27:43Z</time>
      </trkpt>
      <trkpt lat="43.6088" lon="6.56952">
        <ele>610.4</ele>
        <time>2019-02-17T09:27:52Z</time>
      </trkpt>
      <trkpt lat="43.60878" lon="6.56965">
        <ele>611.3</ele>
        <time>2019-02-17T09:28:00Z</time>
      </trkpt>
      <trkpt lat="43.60877" lon="6.56978">
        <ele>612.1</ele>
        <time>2019-02-17T09:28:09Z</time>
      </trkpt>
      <trkpt lat="43.60877" lon="6.56991">
        <ele>613.2</ele>
        <time>2019-02-17T09:28:19Z</time>
      </trkpt>
      <trkpt lat="43.60876" lon="6.57004">
        <ele>614.3</ele>
        <time>2019-02-17T09:28:29Z</time>
      </trkpt>
      <trkpt lat="43.60875" lon="6.57017">
        <ele>615.8</ele>
        <time>2019-02-17T09:28:39Z</time>
      </trkpt>
      <trkpt lat="43.60872" lon="6.5703">
        <ele>616.6</ele>
        <time>2019-02-17T09:28:47Z</time>
      </trkpt>
      <trkpt lat="43.60871" lon="6.57043">
        <ele>617.6</ele>
        <time>2019-02-17T09:28:58Z</time>
      </trkpt>
      <trkpt lat="43.60867" lon="6.57056">
        <ele>618.8</ele>
        <time>2019-02-17T09:29:09Z</time>
      </trkpt>
      <trkpt lat="43.60866" lon="6.57068">
        <ele>619.9</ele>
        <time>2019-02-17T09:29:18Z</time>
      </trkpt>
      <trkpt lat="43.60867" lon="6.57081">
        <ele>620.9</ele>
        <time>2019-02-17T09:29:28Z</time>
      </trkpt>
      <trkpt lat="43.60869" lon="6.57094">
        <ele>621.7</ele>
        <time>2019-02-17T09:29:37Z</time>
      </trkpt>
      <trkpt lat="43.60875" lon="6.57106">
        <ele>622.1</ele>
        <time>2019-02-17T09:29:46Z</time>
      </trkpt>
      <trkpt lat="43.60881" lon="6.57114">
        <ele>622.4</ele>
        <time>2019-02-17T09:29:54Z</time>
      </trkpt>
      <trkpt lat="43.60888" lon="6.57124">
        <ele>622.8</ele>
        <time>2019-02-17T09:30:03Z</time>
      </trkpt>
      <trkpt lat="43.60894" lon="6.57133">
        <ele>623</ele>
        <time>2019-02-17T09:30:12Z</time>
      </trkpt>
      <trkpt lat="43.60903" lon="6.5714">
        <ele>623.8</ele>
        <time>2019-02-17T09:30:22Z</time>
      </trkpt>
      <trkpt lat="43.60911" lon="6.57144">
        <ele>624.7</ele>
        <time>2019-02-17T09:30:31Z</time>
      </trkpt>
      <trkpt lat="43.6092" lon="6.57147">
        <ele>625.3</ele>
        <time>2019-02-17T09:30:39Z</time>
      </trkpt>
      <trkpt lat="43.60929" lon="6.57153">
        <ele>626.4</ele>
        <time>2019-02-17T09:30:49Z</time>
      </trkpt>
      <trkpt lat="43.60936" lon="6.57161">
        <ele>627.3</ele>
        <time>2019-02-17T09:30:59Z</time>
      </trkpt>
      <trkpt lat="43.60941" lon="6.57172">
        <ele>628.2</ele>
        <time>2019-02-17T09:31:09Z</time>
      </trkpt>
      <trkpt lat="43.60942" lon="6.57185">
        <ele>628.4</ele>
        <time>2019-02-17T09:31:18Z</time>
      </trkpt>
      <trkpt lat="43.60941" lon="6.57199">
        <ele>629</ele>
        <time>2019-02-17T09:31:28Z</time>
      </trkpt>
      <trkpt lat="43.60938" lon="6.57211">
        <ele>629.5</ele>
        <time>2019-02-17T09:31:36Z</time>
      </trkpt>
      <trkpt lat="43.60934" lon="6.57224">
        <ele>630.8</ele>
        <time>2019-02-17T09:31:46Z</time>
      </trkpt>
      <trkpt lat="43.6093" lon="6.57235">
        <ele>631.4</ele>
        <time>2019-02-17T09:31:55Z</time>
      </trkpt>
      <trkpt lat="43.60927" lon="6.57248">
        <ele>632.7</ele>
        <time>2019-02-17T09:32:05Z</time>
      </trkpt>
      <trkpt lat="43.60922" lon="6.57259">
        <ele>633.5</ele>
        <time>2019-02-17T09:32:14Z</time>
      </trkpt>
      <trkpt lat="43.60922" lon="6.57272">
        <ele>634.3</ele>
        <time>2019-02-17T09:32:23Z</time>
      </trkpt>
      <trkpt lat="43.60919" lon="6.57285">
        <ele>634.9</ele>
        <time>2019-02-17T09:32:32Z</time>
      </trkpt>
      <trkpt lat="43.60916" lon="6.57297">
        <ele>635.2</ele>
        <time>2019-02-17T09:32:40Z</time>
      </trkpt>
      <trkpt lat="43.60914" lon="6.5731">
        <ele>635.7</ele>
        <time>2019-02-17T09:32:48Z</time>
      </trkpt>
      <trkpt lat="43.60912" lon="6.57323">
        <ele>635.5</ele>
        <time>2019-02-17T09:32:56Z</time>
      </trkpt>
      <trkpt lat="43.6091" lon="6.57336">
        <ele>635.3</ele>
        <time>2019-02-17T09:33:04Z</time>
      </trkpt>
      <trkpt lat="43.60907" lon="6.57349">
        <ele>635.5</ele>
        <time>2019-02-17T09:33:12Z</time>
      </trkpt>
      <trkpt lat="43.60905" lon="6.57361">
        <ele>635.9</ele>
        <time>2019-02-17T09:33:20Z</time>
      </trkpt>
      <trkpt lat="43.60903" lon="6.57373">
        <ele>635.6</ele>
        <time>2019-02-17T09:33:29Z</time>
      </trkpt>
      <trkpt lat="43.60902" lon="6.57386">
        <ele>636.1</ele>
        <time>2019-02-17T09:33:37Z</time>
      </trkpt>
      <trkpt lat="43.60902" lon="6.57399">
        <ele>636.6</ele>
        <time>2019-02-17T09:33:46Z</time>
      </trkpt>
      <trkpt lat="43.60904" lon="6.57413">
        <ele>637.2</ele>
        <time>2019-02-17T09:33:54Z</time>
      </trkpt>
      <trkpt lat="43.60907" lon="6.57426">
        <ele>637.6</ele>
        <time>2019-02-17T09:34:02Z</time>
      </trkpt>
      <trkpt lat="43.60909" lon="6.57438">
        <ele>637.4</ele>
        <time>2019-02-17T09:34:10Z</time>
      </trkpt>
      <trkpt lat="43.60912" lon="6.57451">
        <ele>637.3</ele>
        <time>2019-02-17T09:34:18Z</time>
      </trkpt>
      <trkpt lat="43.60913" lon="6.57463">
        <ele>637.4</ele>
        <time>2019-02-17T09:34:27Z</time>
      </trkpt>
      <trkpt lat="43.60912" lon="6.57477">
        <ele>638.3</ele>
        <time>2019-02-17T09:34:36Z</time>
      </trkpt>
      <trkpt lat="43.6091" lon="6.57489">
        <ele>638.8</ele>
        <time>2019-02-17T09:34:45Z</time>
      </trkpt>
      <trkpt lat="43.60907" lon="6.57501">
        <ele>639.5</ele>
        <time>2019-02-17T09:34:54Z</time>
      </trkpt>
      <trkpt lat="43.60902" lon="6.57513">
        <ele>639.9</ele>
        <time>2019-02-17T09:35:03Z</time>
      </trkpt>
      <trkpt lat="43.60897" lon="6.57523">
        <ele>640.3</ele>
        <time>2019-02-17T09:35:11Z</time>
      </trkpt>
      <trkpt lat="43.60893" lon="6.57536">
        <ele>640.7</ele>
        <time>2019-02-17T09:35:20Z</time>
      </trkpt>
      <trkpt lat="43.6089" lon="6.57549">
        <ele>641.3</ele>
        <time>2019-02-17T09:35:29Z</time>
      </trkpt>
      <trkpt lat="43.60889" lon="6.57562">
        <ele>641.4</ele>
        <time>2019-02-17T09:35:38Z</time>
      </trkpt>
      <trkpt lat="43.60889" lon="6.57575">
        <ele>642</ele>
        <time>2019-02-17T09:35:46Z</time>
      </trkpt>
      <trkpt lat="43.60888" lon="6.57588">
        <ele>642.3</ele>
        <time>2019-02-17T09:35:55Z</time>
      </trkpt>
      <trkpt lat="43.60886" lon="6.57602">
        <ele>642.9</ele>
        <time>2019-02-17T09:36:04Z</time>
      </trkpt>
      <trkpt lat="43.60886" lon="6.57614">
        <ele>642.8</ele>
        <time>2019-02-17T09:36:12Z</time>
      </trkpt>
      <trkpt lat="43.60888" lon="6.57628">
        <ele>643</ele>
        <time>2019-02-17T09:36:22Z</time>
      </trkpt>
      <trkpt lat="43.6089" lon="6.5764">
        <ele>643</ele>
        <time>2019-02-17T09:36:30Z</time>
      </trkpt>
      <trkpt lat="43.6089" lon="6.57653">
        <ele>642.5</ele>
        <time>2019-02-17T09:36:39Z</time>
      </trkpt>
      <trkpt lat="43.60887" lon="6.57665">
        <ele>642.7</ele>
        <time>2019-02-17T09:36:48Z</time>
      </trkpt>
      <trkpt lat="43.60883" lon="6.57677">
        <ele>642.5</ele>
        <time>2019-02-17T09:36:55Z</time>
      </trkpt>
      <trkpt lat="43.60877" lon="6.57689">
        <ele>642.9</ele>
        <time>2019-02-17T09:37:03Z</time>
      </trkpt>
      <trkpt lat="43.6087" lon="6.57698">
        <ele>643.4</ele>
        <time>2019-02-17T09:37:12Z</time>
      </trkpt>
      <trkpt lat="43.60863" lon="6.57708">
        <ele>644.2</ele>
        <time>2019-02-17T09:37:20Z</time>
      </trkpt>
      <trkpt lat="43.60856" lon="6.57718">
        <ele>644.7</ele>
        <time>2019-02-17T09:37:28Z</time>
      </trkpt>
      <trkpt lat="43.6085" lon="6.57727">
        <ele>645.2</ele>
        <time>2019-02-17T09:37:36Z</time>
      </trkpt>
      <trkpt lat="43.60841" lon="6.57734">
        <ele>645.5</ele>
        <time>2019-02-17T09:37:45Z</time>
      </trkpt>
      <trkpt lat="43.60835" lon="6.57745">
        <ele>646.1</ele>
        <time>2019-02-17T09:37:54Z</time>
      </trkpt>
      <trkpt lat="43.60831" lon="6.57756">
        <ele>646.7</ele>
        <time>2019-02-17T09:38:02Z</time>
      </trkpt>
      <trkpt lat="43.60827" lon="6.57769">
        <ele>647.9</ele>
        <time>2019-02-17T09:38:12Z</time>
      </trkpt>
      <trkpt lat="43.60824" lon="6.57782">
        <ele>648.3</ele>
        <time>2019-02-17T09:38:20Z</time>
      </trkpt>
      <trkpt lat="43.6082" lon="6.57794">
        <ele>648.8</ele>
        <time>2019-02-17T09:38:28Z</time>
      </trkpt>
      <trkpt lat="43.60818" lon="6.57807">
        <ele>649</ele>
        <time>2019-02-17T09:38:36Z</time>
      </trkpt>
      <trkpt lat="43.60817" lon="6.5782">
        <ele>649.4</ele>
        <time>2019-02-17T09:38:44Z</time>
      </trkpt>
      <trkpt lat="43.60814" lon="6.57833">
        <ele>649.2</ele>
        <time>2019-02-17T09:38:52Z</time>
      </trkpt>
      <trkpt lat="43.60812" lon="6.57846">
        <ele>649.3</ele>
        <time>2019-02-17T09:39:00Z</time>
      </trkpt>
      <trkpt lat="43.6081" lon="6.57858">
        <ele>649.3</ele>
        <time>2019-02-17T09:39:08Z</time>
      </trkpt>
      <trkpt lat="43.60809" lon="6.57871">
        <ele>650.1</ele>
        <time>2019-02-17T09:39:16Z</time>
      </trkpt>
      <trkpt lat="43.60811" lon="6.57885">
        <ele>649.9</ele>
        <time>2019-02-17T09:39:24Z</time>
      </trkpt>
      <trkpt lat="43.60813" lon="6.57897">
        <ele>650.8</ele>
        <time>2019-02-17T09:39:32Z</time>
      </trkpt>
      <trkpt lat="43.60815" lon="6.57909">
        <ele>651.2</ele>
        <time>2019-02-17T09:39:41Z</time>
      </trkpt>
      <trkpt lat="43.60818" lon="6.57922">
        <ele>652.5</ele>
        <time>2019-02-17T09:39:51Z</time>
      </trkpt>
      <trkpt lat="43.60823" lon="6.57933">
        <ele>653</ele>
        <time>2019-02-17T09:39:58Z</time>
      </trkpt>
      <trkpt lat="43.60829" lon="6.57946">
        <ele>653.7</ele>
        <time>2019-02-17T09:40:07Z</time>
      </trkpt>
      <trkpt lat="43.60836" lon="6.57955">
        <ele>653.8</ele>
        <time>2019-02-17T09:40:14Z</time>
      </trkpt>
      <trkpt lat="43.60841" lon="6.57966">
        <ele>653.9</ele>
        <time>2019-02-17T09:40:22Z</time>
      </trkpt>
      <trkpt lat="43.60846" lon="6.57978">
        <ele>654.2</ele>
        <time>2019-02-17T09:40:31Z</time>
      </trkpt>
      <trkpt lat="43.60852" lon="6.57989">
        <ele>654.7</ele>
        <time>2019-02-17T09:40:39Z</time>
      </trkpt>
      <trkpt lat="43.60856" lon="6.58">
        <ele>654.9</ele>
        <time>2019-02-17T09:40:47Z</time>
      </trkpt>
      <trkpt lat="43.60862" lon="6.5801">
        <ele>655</ele>
        <time>2019-02-17T09:40:54Z</time>
      </trkpt>
      <trkpt lat="43.60867" lon="6.58021">
        <ele>655</ele>
        <time>2019-02-17T09:41:02Z</time>
      </trkpt>
      <trkpt lat="43.6087" lon="6.58033">
        <ele>655.3</ele>
        <time>2019-02-17T09:41:10Z</time>
      </trkpt>
      <trkpt lat="43.60872" lon="6.58046">
        <ele>655.5</ele>
        <time>2019-02-17T09:41:19Z</time>
      </trkpt>
      <trkpt lat="43.60874" lon="6.58059">
        <ele>655.7</ele>
        <time>2019-02-17T09:41:28Z</time>
      </trkpt>
      <trkpt lat="43.60875" lon="6.58073">
        <ele>656.4</ele>
        <time>2019-02-17T09:41:37Z</time>
      </trkpt>
      <trkpt lat="43.60875" lon="6.58086">
        <ele>656.5</ele>
        <time>2019-02-17T09:41:45Z</time>
      </trkpt>
      <trkpt lat="43.60874" lon="6.58098">
        <ele>657.4</ele>
        <time>2019-02-17T09:41:56Z</time>
      </trkpt>
      <trkpt lat="43.60873" lon="6.58111">
        <ele>657.6</ele>
        <time>2019-02-17T09:42:07Z</time>
      </trkpt>
      <trkpt lat="43.60873" lon="6.58125">
        <ele>658</ele>
        <time>2019-02-17T09:42:16Z</time>
      </trkpt>
      <trkpt lat="43.6087" lon="6.58137">
        <ele>658.2</ele>
        <time>2019-02-17T09:42:24Z</time>
      </trkpt>
      <trkpt lat="43.60867" lon="6.5815">
        <ele>658.4</ele>
        <time>2019-02-17T09:42:31Z</time>
      </trkpt>
      <trkpt lat="43.60866" lon="6.58164">
        <ele>658.1</ele>
        <time>2019-02-17T09:42:39Z</time>
      </trkpt>
      <trkpt lat="43.60864" lon="6.58177">
        <ele>658</ele>
        <time>2019-02-17T09:42:49Z</time>
      </trkpt>
      <trkpt lat="43.60862" lon="6.58189">
        <ele>657.8</ele>
        <time>2019-02-17T09:42:59Z</time>
      </trkpt>
      <trkpt lat="43.60855" lon="6.582">
        <ele>657.9</ele>
        <time>2019-02-17T09:43:12Z</time>
      </trkpt>
      <trkpt lat="43.60847" lon="6.58208">
        <ele>658</ele>
        <time>2019-02-17T09:43:19Z</time>
      </trkpt>
      <trkpt lat="43.60839" lon="6.58215">
        <ele>658</ele>
        <time>2019-02-17T09:43:25Z</time>
      </trkpt>
      <trkpt lat="43.60832" lon="6.58224">
        <ele>657.6</ele>
        <time>2019-02-17T09:43:32Z</time>
      </trkpt>
      <trkpt lat="43.60825" lon="6.58234">
        <ele>656.8</ele>
        <time>2019-02-17T09:43:40Z</time>
      </trkpt>
      <trkpt lat="43.60818" lon="6.58244">
        <ele>657</ele>
        <time>2019-02-17T09:43:48Z</time>
      </trkpt>
      <trkpt lat="43.6081" lon="6.58251">
        <ele>656.6</ele>
        <time>2019-02-17T09:43:55Z</time>
      </trkpt>
      <trkpt lat="43.60801" lon="6.58258">
        <ele>656</ele>
        <time>2019-02-17T09:44:03Z</time>
      </trkpt>
      <trkpt lat="43.60793" lon="6.58265">
        <ele>655.1</ele>
        <time>2019-02-17T09:44:11Z</time>
      </trkpt>
      <trkpt lat="43.60788" lon="6.58276">
        <ele>654.4</ele>
        <time>2019-02-17T09:44:19Z</time>
      </trkpt>
      <trkpt lat="43.60784" lon="6.58287">
        <ele>653.1</ele>
        <time>2019-02-17T09:44:28Z</time>
      </trkpt>
      <trkpt lat="43.60786" lon="6.583">
        <ele>654.2</ele>
        <time>2019-02-17T09:44:41Z</time>
      </trkpt>
      <trkpt lat="43.60783" lon="6.58312">
        <ele>654.9</ele>
        <time>2019-02-17T09:44:53Z</time>
      </trkpt>
      <trkpt lat="43.60778" lon="6.58323">
        <ele>656.2</ele>
        <time>2019-02-17T09:45:03Z</time>
      </trkpt>
      <trkpt lat="43.60772" lon="6.58333">
        <ele>656.9</ele>
        <time>2019-02-17T09:45:12Z</time>
      </trkpt>
      <trkpt lat="43.60764" lon="6.58342">
        <ele>657.9</ele>
        <time>2019-02-17T09:45:21Z</time>
      </trkpt>
      <trkpt lat="43.60756" lon="6.58349">
        <ele>658</ele>
        <time>2019-02-17T09:45:29Z</time>
      </trkpt>
      <trkpt lat="43.60748" lon="6.58356">
        <ele>658.3</ele>
        <time>2019-02-17T09:45:37Z</time>
      </trkpt>
      <trkpt lat="43.60741" lon="6.58365">
        <ele>659.9</ele>
        <time>2019-02-17T09:45:46Z</time>
      </trkpt>
      <trkpt lat="43.60736" lon="6.58376">
        <ele>661</ele>
        <time>2019-02-17T09:45:55Z</time>
      </trkpt>
      <trkpt lat="43.6073" lon="6.58388">
        <ele>661.8</ele>
        <time>2019-02-17T09:46:04Z</time>
      </trkpt>
      <trkpt lat="43.60728" lon="6.584">
        <ele>662.8</ele>
        <time>2019-02-17T09:46:14Z</time>
      </trkpt>
      <trkpt lat="43.60723" lon="6.58412">
        <ele>664.2</ele>
        <time>2019-02-17T09:46:46Z</time>
      </trkpt>
      <trkpt lat="43.6072" lon="6.58425">
        <ele>664.5</ele>
        <time>2019-02-17T09:46:56Z</time>
      </trkpt>
      <trkpt lat="43.60716" lon="6.58437">
        <ele>664.7</ele>
        <time>2019-02-17T09:47:07Z</time>
      </trkpt>
      <trkpt lat="43.60715" lon="6.5845">
        <ele>664.3</ele>
        <time>2019-02-17T09:47:19Z</time>
      </trkpt>
      <trkpt lat="43.60715" lon="6.58463">
        <ele>663.1</ele>
        <time>2019-02-17T09:47:35Z</time>
      </trkpt>
      <trkpt lat="43.60714" lon="6.58475">
        <ele>662.1</ele>
        <time>2019-02-17T09:47:51Z</time>
      </trkpt>
      <trkpt lat="43.60716" lon="6.58489">
        <ele>661.9</ele>
        <time>2019-02-17T09:47:59Z</time>
      </trkpt>
      <trkpt lat="43.60719" lon="6.58501">
        <ele>661.7</ele>
        <time>2019-02-17T09:48:16Z</time>
      </trkpt>
      <trkpt lat="43.60722" lon="6.58514">
        <ele>661.2</ele>
        <time>2019-02-17T09:48:27Z</time>
      </trkpt>
      <trkpt lat="43.60725" lon="6.58526">
        <ele>660</ele>
        <time>2019-02-17T09:48:35Z</time>
      </trkpt>
      <trkpt lat="43.60728" lon="6.58539">
        <ele>659.3</ele>
        <time>2019-02-17T09:48:45Z</time>
      </trkpt>
      <trkpt lat="43.60731" lon="6.58551">
        <ele>658.4</ele>
        <time>2019-02-17T09:48:58Z</time>
      </trkpt>
      <trkpt lat="43.60735" lon="6.58563">
        <ele>657.4</ele>
        <time>2019-02-17T09:49:07Z</time>
      </trkpt>
      <trkpt lat="43.6074" lon="6.58575">
        <ele>656.3</ele>
        <time>2019-02-17T09:49:18Z</time>
      </trkpt>
      <trkpt lat="43.60746" lon="6.58586">
        <ele>655</ele>
        <time>2019-02-17T09:49:31Z</time>
      </trkpt>
      <trkpt lat="43.60749" lon="6.58598">
        <ele>654.1</ele>
        <time>2019-02-17T09:49:39Z</time>
      </trkpt>
      <trkpt lat="43.60751" lon="6.5861">
        <ele>653</ele>
        <time>2019-02-17T09:49:47Z</time>
      </trkpt>
      <trkpt lat="43.60751" lon="6.58624">
        <ele>651.7</ele>
        <time>2019-02-17T09:49:55Z</time>
      </trkpt>
      <trkpt lat="43.60752" lon="6.58638">
        <ele>650.9</ele>
        <time>2019-02-17T09:50:03Z</time>
      </trkpt>
      <trkpt lat="43.6075" lon="6.58651">
        <ele>650.7</ele>
        <time>2019-02-17T09:50:12Z</time>
      </trkpt>
      <trkpt lat="43.60744" lon="6.58661">
        <ele>649.6</ele>
        <time>2019-02-17T09:50:21Z</time>
      </trkpt>
      <trkpt lat="43.60738" lon="6.58672">
        <ele>648.7</ele>
        <time>2019-02-17T09:50:32Z</time>
      </trkpt>
      <trkpt lat="43.60736" lon="6.58659">
        <ele>647.9</ele>
        <time>2019-02-17T09:51:16Z</time>
      </trkpt>
      <trkpt lat="43.60727" lon="6.58654">
        <ele>647.6</ele>
        <time>2019-02-17T09:51:28Z</time>
      </trkpt>
      <trkpt lat="43.60718" lon="6.58648">
        <ele>646.9</ele>
        <time>2019-02-17T09:51:40Z</time>
      </trkpt>
      <trkpt lat="43.60708" lon="6.58642">
        <ele>645.7</ele>
        <time>2019-02-17T09:51:49Z</time>
      </trkpt>
      <trkpt lat="43.60699" lon="6.58637">
        <ele>644.5</ele>
        <time>2019-02-17T09:51:57Z</time>
      </trkpt>
      <trkpt lat="43.6069" lon="6.58635">
        <ele>643.9</ele>
        <time>2019-02-17T09:52:05Z</time>
      </trkpt>
      <trkpt lat="43.60682" lon="6.58641">
        <ele>642.6</ele>
        <time>2019-02-17T09:52:14Z</time>
      </trkpt>
      <trkpt lat="43.60678" lon="6.58652">
        <ele>641.7</ele>
        <time>2019-02-17T09:52:23Z</time>
      </trkpt>
      <trkpt lat="43.60672" lon="6.58663">
        <ele>640.4</ele>
        <time>2019-02-17T09:52:33Z</time>
      </trkpt>
      <trkpt lat="43.60668" lon="6.58674">
        <ele>638.9</ele>
        <time>2019-02-17T09:52:43Z</time>
      </trkpt>
      <trkpt lat="43.60665" lon="6.58687">
        <ele>637.6</ele>
        <time>2019-02-17T09:52:53Z</time>
      </trkpt>
      <trkpt lat="43.60662" lon="6.58699">
        <ele>636.8</ele>
        <time>2019-02-17T09:53:04Z</time>
      </trkpt>
      <trkpt lat="43.60662" lon="6.58712">
        <ele>635.8</ele>
        <time>2019-02-17T09:53:14Z</time>
      </trkpt>
      <trkpt lat="43.6066" lon="6.58724">
        <ele>635</ele>
        <time>2019-02-17T09:53:24Z</time>
      </trkpt>
      <trkpt lat="43.60659" lon="6.58738">
        <ele>633.7</ele>
        <time>2019-02-17T09:53:34Z</time>
      </trkpt>
      <trkpt lat="43.60657" lon="6.5875">
        <ele>632.1</ele>
        <time>2019-02-17T09:53:44Z</time>
      </trkpt>
      <trkpt lat="43.60657" lon="6.58763">
        <ele>631.2</ele>
        <time>2019-02-17T09:53:53Z</time>
      </trkpt>
      <trkpt lat="43.60657" lon="6.58776">
        <ele>629.8</ele>
        <time>2019-02-17T09:54:02Z</time>
      </trkpt>
      <trkpt lat="43.60659" lon="6.58789">
        <ele>629</ele>
        <time>2019-02-17T09:54:11Z</time>
      </trkpt>
      <trkpt lat="43.60662" lon="6.58801">
        <ele>628.3</ele>
        <time>2019-02-17T09:54:19Z</time>
      </trkpt>
      <trkpt lat="43.60667" lon="6.58811">
        <ele>627.2</ele>
        <time>2019-02-17T09:54:29Z</time>
      </trkpt>
      <trkpt lat="43.60672" lon="6.58822">
        <ele>625.7</ele>
        <time>2019-02-17T09:54:43Z</time>
      </trkpt>
      <trkpt lat="43.60677" lon="6.58833">
        <ele>625.1</ele>
        <time>2019-02-17T09:54:53Z</time>
      </trkpt>
      <trkpt lat="43.60682" lon="6.58844">
        <ele>623.9</ele>
        <time>2019-02-17T09:55:02Z</time>
      </trkpt>
      <trkpt lat="43.60689" lon="6.58853">
        <ele>622.9</ele>
        <time>2019-02-17T09:55:12Z</time>
      </trkpt>
      <trkpt lat="43.60697" lon="6.58858">
        <ele>621.9</ele>
        <time>2019-02-17T09:55:21Z</time>
      </trkpt>
      <trkpt lat="43.60706" lon="6.58861">
        <ele>621</ele>
        <time>2019-02-17T09:55:30Z</time>
      </trkpt>
      <trkpt lat="43.60715" lon="6.58864">
        <ele>620.5</ele>
        <time>2019-02-17T09:55:40Z</time>
      </trkpt>
      <trkpt lat="43.60724" lon="6.58867">
        <ele>619</ele>
        <time>2019-02-17T09:56:37Z</time>
      </trkpt>
      <trkpt lat="43.60733" lon="6.5887">
        <ele>618.8</ele>
        <time>2019-02-17T09:57:00Z</time>
      </trkpt>
      <trkpt lat="43.60742" lon="6.58871">
        <ele>618.5</ele>
        <time>2019-02-17T09:57:30Z</time>
      </trkpt>
      <trkpt lat="43.60737" lon="6.58881">
        <ele>615.9</ele>
        <time>2019-02-17T09:58:02Z</time>
      </trkpt>
      <trkpt lat="43.60729" lon="6.58889">
        <ele>613.3</ele>
        <time>2019-02-17T09:58:20Z</time>
      </trkpt>
      <trkpt lat="43.60723" lon="6.589">
        <ele>610.6</ele>
        <time>2019-02-17T09:58:35Z</time>
      </trkpt>
      <trkpt lat="43.60718" lon="6.58911">
        <ele>608.7</ele>
        <time>2019-02-17T09:58:46Z</time>
      </trkpt>
      <trkpt lat="43.6071" lon="6.58918">
        <ele>607.1</ele>
        <time>2019-02-17T09:58:55Z</time>
      </trkpt>
      <trkpt lat="43.60702" lon="6.58925">
        <ele>605.5</ele>
        <time>2019-02-17T09:59:06Z</time>
      </trkpt>
      <trkpt lat="43.60696" lon="6.58936">
        <ele>602.5</ele>
        <time>2019-02-17T09:59:18Z</time>
      </trkpt>
      <trkpt lat="43.60689" lon="6.58944">
        <ele>599.9</ele>
        <time>2019-02-17T09:59:32Z</time>
      </trkpt>
      <trkpt lat="43.60682" lon="6.58953">
        <ele>597.4</ele>
        <time>2019-02-17T09:59:48Z</time>
      </trkpt>
      <trkpt lat="43.60673" lon="6.58958">
        <ele>594.9</ele>
        <time>2019-02-17T10:00:02Z</time>
      </trkpt>
      <trkpt lat="43.60666" lon="6.58967">
        <ele>592.6</ele>
        <time>2019-02-17T10:00:17Z</time>
      </trkpt>
      <trkpt lat="43.60657" lon="6.58971">
        <ele>590.9</ele>
        <time>2019-02-17T10:00:31Z</time>
      </trkpt>
      <trkpt lat="43.60649" lon="6.58976">
        <ele>588.5</ele>
        <time>2019-02-17T10:00:45Z</time>
      </trkpt>
      <trkpt lat="43.60656" lon="6.58984">
        <ele>587.8</ele>
        <time>2019-02-17T10:01:09Z</time>
      </trkpt>
      <trkpt lat="43.60663" lon="6.58993">
        <ele>586.6</ele>
        <time>2019-02-17T10:01:18Z</time>
      </trkpt>
      <trkpt lat="43.60668" lon="6.59004">
        <ele>585.6</ele>
        <time>2019-02-17T10:01:28Z</time>
      </trkpt>
      <trkpt lat="43.60671" lon="6.59016">
        <ele>583.7</ele>
        <time>2019-02-17T10:01:38Z</time>
      </trkpt>
      <trkpt lat="43.60664" lon="6.59025">
        <ele>581.9</ele>
        <time>2019-02-17T10:01:53Z</time>
      </trkpt>
      <trkpt lat="43.60656" lon="6.59031">
        <ele>580.1</ele>
        <time>2019-02-17T10:02:05Z</time>
      </trkpt>
      <trkpt lat="43.60647" lon="6.59034">
        <ele>578.7</ele>
        <time>2019-02-17T10:02:16Z</time>
      </trkpt>
      <trkpt lat="43.60638" lon="6.59038">
        <ele>577.4</ele>
        <time>2019-02-17T10:02:26Z</time>
      </trkpt>
      <trkpt lat="43.60628" lon="6.59041">
        <ele>576</ele>
        <time>2019-02-17T10:02:35Z</time>
      </trkpt>
      <trkpt lat="43.60619" lon="6.59043">
        <ele>574.9</ele>
        <time>2019-02-17T10:02:45Z</time>
      </trkpt>
      <trkpt lat="43.60609" lon="6.59044">
        <ele>573.6</ele>
        <time>2019-02-17T10:02:55Z</time>
      </trkpt>
      <trkpt lat="43.606" lon="6.59046">
        <ele>572.3</ele>
        <time>2019-02-17T10:03:04Z</time>
      </trkpt>
      <trkpt lat="43.6059" lon="6.59048">
        <ele>571.1</ele>
        <time>2019-02-17T10:03:13Z</time>
      </trkpt>
      <trkpt lat="43.60582" lon="6.59055">
        <ele>569.5</ele>
        <time>2019-02-17T10:03:25Z</time>
      </trkpt>
      <trkpt lat="43.6058" lon="6.59068">
        <ele>568.3</ele>
        <time>2019-02-17T10:03:39Z</time>
      </trkpt>
      <trkpt lat="43.60584" lon="6.5908">
        <ele>567.5</ele>
        <time>2019-02-17T10:03:55Z</time>
      </trkpt>
      <trkpt lat="43.60589" lon="6.5909">
        <ele>566.5</ele>
        <time>2019-02-17T10:04:06Z</time>
      </trkpt>
      <trkpt lat="43.60596" lon="6.59099">
        <ele>565.3</ele>
        <time>2019-02-17T10:04:17Z</time>
      </trkpt>
      <trkpt lat="43.60604" lon="6.59105">
        <ele>564.8</ele>
        <time>2019-02-17T10:04:26Z</time>
      </trkpt>
      <trkpt lat="43.60612" lon="6.59113">
        <ele>563.9</ele>
        <time>2019-02-17T10:04:38Z</time>
      </trkpt>
      <trkpt lat="43.60621" lon="6.59116">
        <ele>562</ele>
        <time>2019-02-17T10:04:50Z</time>
      </trkpt>
      <trkpt lat="43.60631" lon="6.59117">
        <ele>561.1</ele>
        <time>2019-02-17T10:05:01Z</time>
      </trkpt>
      <trkpt lat="43.6064" lon="6.59119">
        <ele>560</ele>
        <time>2019-02-17T10:05:12Z</time>
      </trkpt>
      <trkpt lat="43.60649" lon="6.59123">
        <ele>558.4</ele>
        <time>2019-02-17T10:05:24Z</time>
      </trkpt>
      <trkpt lat="43.60657" lon="6.59126">
        <ele>556.9</ele>
        <time>2019-02-17T10:05:46Z</time>
      </trkpt>
      <trkpt lat="43.60666" lon="6.59132">
        <ele>555.3</ele>
        <time>2019-02-17T10:05:56Z</time>
      </trkpt>
      <trkpt lat="43.60675" lon="6.59134">
        <ele>553.4</ele>
        <time>2019-02-17T10:06:07Z</time>
      </trkpt>
      <trkpt lat="43.60684" lon="6.59137">
        <ele>551.9</ele>
        <time>2019-02-17T10:06:22Z</time>
      </trkpt>
      <trkpt lat="43.60693" lon="6.59138">
        <ele>552.2</ele>
        <time>2019-02-17T10:07:04Z</time>
      </trkpt>
      <trkpt lat="43.60701" lon="6.59132">
        <ele>552.4</ele>
        <time>2019-02-17T10:07:12Z</time>
      </trkpt>
      <trkpt lat="43.60708" lon="6.59123">
        <ele>552.8</ele>
        <time>2019-02-17T10:07:20Z</time>
      </trkpt>
      <trkpt lat="43.60715" lon="6.59114">
        <ele>552.8</ele>
        <time>2019-02-17T10:07:28Z</time>
      </trkpt>
      <trkpt lat="43.60721" lon="6.59104">
        <ele>553.1</ele>
        <time>2019-02-17T10:07:35Z</time>
      </trkpt>
      <trkpt lat="43.60729" lon="6.59095">
        <ele>552.9</ele>
        <time>2019-02-17T10:07:42Z</time>
      </trkpt>
      <trkpt lat="43.60738" lon="6.59091">
        <ele>552.9</ele>
        <time>2019-02-17T10:07:49Z</time>
      </trkpt>
      <trkpt lat="43.60747" lon="6.59086">
        <ele>553.3</ele>
        <time>2019-02-17T10:07:57Z</time>
      </trkpt>
      <trkpt lat="43.60755" lon="6.59081">
        <ele>553</ele>
        <time>2019-02-17T10:08:05Z</time>
      </trkpt>
      <trkpt lat="43.60765" lon="6.59079">
        <ele>553.1</ele>
        <time>2019-02-17T10:08:15Z</time>
      </trkpt>
      <trkpt lat="43.60775" lon="6.59078">
        <ele>553.8</ele>
        <time>2019-02-17T10:08:25Z</time>
      </trkpt>
      <trkpt lat="43.60783" lon="6.5907">
        <ele>554.1</ele>
        <time>2019-02-17T10:08:33Z</time>
      </trkpt>
      <trkpt lat="43.60792" lon="6.59066">
        <ele>554.6</ele>
        <time>2019-02-17T10:08:43Z</time>
      </trkpt>
      <trkpt lat="43.60801" lon="6.5906">
        <ele>555.2</ele>
        <time>2019-02-17T10:08:51Z</time>
      </trkpt>
      <trkpt lat="43.6081" lon="6.59054">
        <ele>555.2</ele>
        <time>2019-02-17T10:09:00Z</time>
      </trkpt>
      <trkpt lat="43.60818" lon="6.5905">
        <ele>555.5</ele>
        <time>2019-02-17T10:09:09Z</time>
      </trkpt>
      <trkpt lat="43.60827" lon="6.59045">
        <ele>555.9</ele>
        <time>2019-02-17T10:09:19Z</time>
      </trkpt>
      <trkpt lat="43.60836" lon="6.5904">
        <ele>556</ele>
        <time>2019-02-17T10:09:28Z</time>
      </trkpt>
      <trkpt lat="43.60844" lon="6.59034">
        <ele>556.7</ele>
        <time>2019-02-17T10:09:37Z</time>
      </trkpt>
      <trkpt lat="43.60853" lon="6.59028">
        <ele>557.1</ele>
        <time>2019-02-17T10:09:45Z</time>
      </trkpt>
      <trkpt lat="43.60862" lon="6.59026">
        <ele>557.6</ele>
        <time>2019-02-17T10:09:54Z</time>
      </trkpt>
      <trkpt lat="43.60871" lon="6.59027">
        <ele>558</ele>
        <time>2019-02-17T10:10:04Z</time>
      </trkpt>
      <trkpt lat="43.60881" lon="6.59027">
        <ele>558.4</ele>
        <time>2019-02-17T10:10:13Z</time>
      </trkpt>
      <trkpt lat="43.60889" lon="6.59021">
        <ele>558.6</ele>
        <time>2019-02-17T10:10:20Z</time>
      </trkpt>
      <trkpt lat="43.60898" lon="6.59017">
        <ele>559.2</ele>
        <time>2019-02-17T10:10:29Z</time>
      </trkpt>
      <trkpt lat="43.60906" lon="6.59011">
        <ele>559.5</ele>
        <time>2019-02-17T10:10:37Z</time>
      </trkpt>
      <trkpt lat="43.60915" lon="6.59005">
        <ele>559.5</ele>
        <time>2019-02-17T10:10:45Z</time>
      </trkpt>
      <trkpt lat="43.60924" lon="6.59002">
        <ele>559.7</ele>
        <time>2019-02-17T10:10:55Z</time>
      </trkpt>
      <trkpt lat="43.60933" lon="6.59003">
        <ele>560.5</ele>
        <time>2019-02-17T10:11:05Z</time>
      </trkpt>
      <trkpt lat="43.60943" lon="6.59006">
        <ele>561.4</ele>
        <time>2019-02-17T10:11:15Z</time>
      </trkpt>
      <trkpt lat="43.60952" lon="6.59007">
        <ele>562.6</ele>
        <time>2019-02-17T10:11:25Z</time>
      </trkpt>
      <trkpt lat="43.60961" lon="6.59003">
        <ele>563.7</ele>
        <time>2019-02-17T10:11:35Z</time>
      </trkpt>
      <trkpt lat="43.6097" lon="6.58996">
        <ele>564.3</ele>
        <time>2019-02-17T10:11:44Z</time>
      </trkpt>
      <trkpt lat="43.60978" lon="6.58987">
        <ele>564.2</ele>
        <time>2019-02-17T10:11:53Z</time>
      </trkpt>
      <trkpt lat="43.60986" lon="6.58983">
        <ele>564.2</ele>
        <time>2019-02-17T10:12:03Z</time>
      </trkpt>
      <trkpt lat="43.60996" lon="6.58979">
        <ele>564.4</ele>
        <time>2019-02-17T10:12:19Z</time>
      </trkpt>
      <trkpt lat="43.61005" lon="6.58978">
        <ele>564.5</ele>
        <time>2019-02-17T10:12:29Z</time>
      </trkpt>
      <trkpt lat="43.61015" lon="6.58979">
        <ele>563.5</ele>
        <time>2019-02-17T10:12:38Z</time>
      </trkpt>
      <trkpt lat="43.61025" lon="6.58982">
        <ele>564.8</ele>
        <time>2019-02-17T10:12:47Z</time>
      </trkpt>
      <trkpt lat="43.61034" lon="6.5898">
        <ele>564.5</ele>
        <time>2019-02-17T10:12:55Z</time>
      </trkpt>
      <trkpt lat="43.61043" lon="6.5898">
        <ele>563.8</ele>
        <time>2019-02-17T10:13:04Z</time>
      </trkpt>
      <trkpt lat="43.61053" lon="6.58983">
        <ele>563.9</ele>
        <time>2019-02-17T10:13:12Z</time>
      </trkpt>
      <trkpt lat="43.61061" lon="6.58986">
        <ele>564.3</ele>
        <time>2019-02-17T10:13:34Z</time>
      </trkpt>
      <trkpt lat="43.61068" lon="6.58996">
        <ele>564.1</ele>
        <time>2019-02-17T10:13:46Z</time>
      </trkpt>
      <trkpt lat="43.61077" lon="6.59001">
        <ele>564</ele>
        <time>2019-02-17T10:13:55Z</time>
      </trkpt>
      <trkpt lat="43.61086" lon="6.59005">
        <ele>564.8</ele>
        <time>2019-02-17T10:14:03Z</time>
      </trkpt>
      <trkpt lat="43.61095" lon="6.59006">
        <ele>565.5</ele>
        <time>2019-02-17T10:14:13Z</time>
      </trkpt>
      <trkpt lat="43.61104" lon="6.59007">
        <ele>566.8</ele>
        <time>2019-02-17T10:14:37Z</time>
      </trkpt>
      <trkpt lat="43.61111" lon="6.58997">
        <ele>567.3</ele>
        <time>2019-02-17T10:14:55Z</time>
      </trkpt>
      <trkpt lat="43.61119" lon="6.58995">
        <ele>568.8</ele>
        <time>2019-02-17T10:15:04Z</time>
      </trkpt>
      <trkpt lat="43.61126" lon="6.58986">
        <ele>569.8</ele>
        <time>2019-02-17T10:15:11Z</time>
      </trkpt>
      <trkpt lat="43.61134" lon="6.5898">
        <ele>571.6</ele>
        <time>2019-02-17T10:15:21Z</time>
      </trkpt>
      <trkpt lat="43.61141" lon="6.5897">
        <ele>573.1</ele>
        <time>2019-02-17T10:15:32Z</time>
      </trkpt>
      <trkpt lat="43.61147" lon="6.58961">
        <ele>574.2</ele>
        <time>2019-02-17T10:15:43Z</time>
      </trkpt>
      <trkpt lat="43.61153" lon="6.58952">
        <ele>575</ele>
        <time>2019-02-17T10:15:53Z</time>
      </trkpt>
      <trkpt lat="43.61157" lon="6.5894">
        <ele>576.1</ele>
        <time>2019-02-17T10:16:04Z</time>
      </trkpt>
      <trkpt lat="43.6116" lon="6.58928">
        <ele>577.4</ele>
        <time>2019-02-17T10:16:14Z</time>
      </trkpt>
      <trkpt lat="43.61165" lon="6.58916">
        <ele>578.9</ele>
        <time>2019-02-17T10:16:24Z</time>
      </trkpt>
      <trkpt lat="43.6117" lon="6.58905">
        <ele>580</ele>
        <time>2019-02-17T10:16:33Z</time>
      </trkpt>
      <trkpt lat="43.61177" lon="6.58895">
        <ele>581.8</ele>
        <time>2019-02-17T10:16:42Z</time>
      </trkpt>
      <trkpt lat="43.61183" lon="6.58886">
        <ele>583.5</ele>
        <time>2019-02-17T10:16:53Z</time>
      </trkpt>
      <trkpt lat="43.61189" lon="6.58876">
        <ele>584.9</ele>
        <time>2019-02-17T10:17:03Z</time>
      </trkpt>
      <trkpt lat="43.61192" lon="6.58864">
        <ele>585.9</ele>
        <time>2019-02-17T10:17:13Z</time>
      </trkpt>
      <trkpt lat="43.61193" lon="6.58851">
        <ele>586.6</ele>
        <time>2019-02-17T10:17:22Z</time>
      </trkpt>
      <trkpt lat="43.61197" lon="6.58839">
        <ele>587.8</ele>
        <time>2019-02-17T10:17:32Z</time>
      </trkpt>
      <trkpt lat="43.61199" lon="6.58826">
        <ele>589.4</ele>
        <time>2019-02-17T10:17:41Z</time>
      </trkpt>
      <trkpt lat="43.61204" lon="6.58815">
        <ele>589.8</ele>
        <time>2019-02-17T10:17:51Z</time>
      </trkpt>
      <trkpt lat="43.61213" lon="6.58809">
        <ele>589.8</ele>
        <time>2019-02-17T10:18:01Z</time>
      </trkpt>
      <trkpt lat="43.61222" lon="6.58806">
        <ele>589.9</ele>
        <time>2019-02-17T10:18:46Z</time>
      </trkpt>
      <trkpt lat="43.61221" lon="6.58793">
        <ele>590</ele>
        <time>2019-02-17T10:21:13Z</time>
      </trkpt>
      <trkpt lat="43.61222" lon="6.58806">
        <ele>590.1</ele>
        <time>2019-02-17T10:22:48Z</time>
      </trkpt>
      <trkpt lat="43.6122" lon="6.58794">
        <ele>589.6</ele>
        <time>2019-02-17T10:23:29Z</time>
      </trkpt>
      <trkpt lat="43.61223" lon="6.58806">
        <ele>589.8</ele>
        <time>2019-02-17T10:24:16Z</time>
      </trkpt>
      <trkpt lat="43.61214" lon="6.58803">
        <ele>589.9</ele>
        <time>2019-02-17T10:25:28Z</time>
      </trkpt>
      <trkpt lat="43.6122" lon="6.58812">
        <ele>590.1</ele>
        <time>2019-02-17T10:26:06Z</time>
      </trkpt>
      <trkpt lat="43.6123" lon="6.58814">
        <ele>590.1</ele>
        <time>2019-02-17T10:26:21Z</time>
      </trkpt>
      <trkpt lat="43.61237" lon="6.58821">
        <ele>591.1</ele>
        <time>2019-02-17T10:26:56Z</time>
      </trkpt>
      <trkpt lat="43.61245" lon="6.58829">
        <ele>591.7</ele>
        <time>2019-02-17T10:27:06Z</time>
      </trkpt>
      <trkpt lat="43.61253" lon="6.58836">
        <ele>592.2</ele>
        <time>2019-02-17T10:27:15Z</time>
      </trkpt>
      <trkpt lat="43.6126" lon="6.58843">
        <ele>593.4</ele>
        <time>2019-02-17T10:27:23Z</time>
      </trkpt>
      <trkpt lat="43.61268" lon="6.58851">
        <ele>594.4</ele>
        <time>2019-02-17T10:27:32Z</time>
      </trkpt>
      <trkpt lat="43.61277" lon="6.58856">
        <ele>595.1</ele>
        <time>2019-02-17T10:27:40Z</time>
      </trkpt>
      <trkpt lat="43.61284" lon="6.58864">
        <ele>596</ele>
        <time>2019-02-17T10:27:48Z</time>
      </trkpt>
      <trkpt lat="43.61292" lon="6.58872">
        <ele>597</ele>
        <time>2019-02-17T10:27:58Z</time>
      </trkpt>
      <trkpt lat="43.61298" lon="6.58882">
        <ele>598</ele>
        <time>2019-02-17T10:28:06Z</time>
      </trkpt>
      <trkpt lat="43.61307" lon="6.58884">
        <ele>599.1</ele>
        <time>2019-02-17T10:28:15Z</time>
      </trkpt>
      <trkpt lat="43.61317" lon="6.58886">
        <ele>600.3</ele>
        <time>2019-02-17T10:28:25Z</time>
      </trkpt>
      <trkpt lat="43.61325" lon="6.5888">
        <ele>601</ele>
        <time>2019-02-17T10:28:33Z</time>
      </trkpt>
      <trkpt lat="43.61333" lon="6.58872">
        <ele>601.9</ele>
        <time>2019-02-17T10:28:42Z</time>
      </trkpt>
      <trkpt lat="43.61329" lon="6.58883">
        <ele>601.7</ele>
        <time>2019-02-17T10:29:03Z</time>
      </trkpt>
      <trkpt lat="43.61336" lon="6.58892">
        <ele>602.1</ele>
        <time>2019-02-17T10:29:11Z</time>
      </trkpt>
      <trkpt lat="43.61342" lon="6.58901">
        <ele>603</ele>
        <time>2019-02-17T10:29:19Z</time>
      </trkpt>
      <trkpt lat="43.61349" lon="6.5891">
        <ele>603.7</ele>
        <time>2019-02-17T10:29:26Z</time>
      </trkpt>
      <trkpt lat="43.61355" lon="6.5892">
        <ele>604.9</ele>
        <time>2019-02-17T10:29:35Z</time>
      </trkpt>
      <trkpt lat="43.61361" lon="6.58931">
        <ele>605.9</ele>
        <time>2019-02-17T10:29:44Z</time>
      </trkpt>
      <trkpt lat="43.61365" lon="6.58943">
        <ele>606.8</ele>
        <time>2019-02-17T10:29:55Z</time>
      </trkpt>
      <trkpt lat="43.6137" lon="6.58954">
        <ele>607.8</ele>
        <time>2019-02-17T10:30:05Z</time>
      </trkpt>
      <trkpt lat="43.61374" lon="6.58965">
        <ele>608.4</ele>
        <time>2019-02-17T10:30:15Z</time>
      </trkpt>
      <trkpt lat="43.6138" lon="6.58976">
        <ele>609.4</ele>
        <time>2019-02-17T10:30:24Z</time>
      </trkpt>
      <trkpt lat="43.61384" lon="6.58988">
        <ele>610.4</ele>
        <time>2019-02-17T10:30:35Z</time>
      </trkpt>
      <trkpt lat="43.6139" lon="6.58998">
        <ele>611.4</ele>
        <time>2019-02-17T10:30:44Z</time>
      </trkpt>
      <trkpt lat="43.61396" lon="6.59008">
        <ele>612.3</ele>
        <time>2019-02-17T10:30:53Z</time>
      </trkpt>
      <trkpt lat="43.61402" lon="6.59019">
        <ele>612.6</ele>
        <time>2019-02-17T10:31:00Z</time>
      </trkpt>
      <trkpt lat="43.61404" lon="6.59031">
        <ele>613.5</ele>
        <time>2019-02-17T10:31:13Z</time>
      </trkpt>
      <trkpt lat="43.61407" lon="6.59044">
        <ele>613.8</ele>
        <time>2019-02-17T10:31:23Z</time>
      </trkpt>
      <trkpt lat="43.61413" lon="6.59054">
        <ele>614.6</ele>
        <time>2019-02-17T10:31:33Z</time>
      </trkpt>
      <trkpt lat="43.61419" lon="6.59064">
        <ele>615.6</ele>
        <time>2019-02-17T10:31:44Z</time>
      </trkpt>
      <trkpt lat="43.61425" lon="6.59075">
        <ele>616.5</ele>
        <time>2019-02-17T10:31:54Z</time>
      </trkpt>
      <trkpt lat="43.61431" lon="6.59086">
        <ele>617.6</ele>
        <time>2019-02-17T10:32:03Z</time>
      </trkpt>
      <trkpt lat="43.61436" lon="6.59096">
        <ele>618.8</ele>
        <time>2019-02-17T10:32:13Z</time>
      </trkpt>
      <trkpt lat="43.61443" lon="6.59107">
        <ele>619.5</ele>
        <time>2019-02-17T10:32:22Z</time>
      </trkpt>
      <trkpt lat="43.61449" lon="6.59116">
        <ele>620.5</ele>
        <time>2019-02-17T10:32:30Z</time>
      </trkpt>
      <trkpt lat="43.61455" lon="6.59126">
        <ele>621.2</ele>
        <time>2019-02-17T10:32:39Z</time>
      </trkpt>
      <trkpt lat="43.61461" lon="6.59135">
        <ele>622.2</ele>
        <time>2019-02-17T10:32:47Z</time>
      </trkpt>
      <trkpt lat="43.61468" lon="6.59145">
        <ele>623.1</ele>
        <time>2019-02-17T10:32:56Z</time>
      </trkpt>
      <trkpt lat="43.61474" lon="6.59155">
        <ele>623.7</ele>
        <time>2019-02-17T10:33:06Z</time>
      </trkpt>
      <trkpt lat="43.6148" lon="6.59166">
        <ele>624.7</ele>
        <time>2019-02-17T10:33:15Z</time>
      </trkpt>
      <trkpt lat="43.61481" lon="6.59178">
        <ele>626</ele>
        <time>2019-02-17T10:33:25Z</time>
      </trkpt>
      <trkpt lat="43.61487" lon="6.59189">
        <ele>627.1</ele>
        <time>2019-02-17T10:33:35Z</time>
      </trkpt>
      <trkpt lat="43.61493" lon="6.592">
        <ele>627.5</ele>
        <time>2019-02-17T10:33:43Z</time>
      </trkpt>
      <trkpt lat="43.61501" lon="6.59207">
        <ele>628.3</ele>
        <time>2019-02-17T10:33:52Z</time>
      </trkpt>
      <trkpt lat="43.6151" lon="6.59208">
        <ele>628.8</ele>
        <time>2019-02-17T10:34:00Z</time>
      </trkpt>
      <trkpt lat="43.6152" lon="6.59206">
        <ele>629.6</ele>
        <time>2019-02-17T10:34:10Z</time>
      </trkpt>
      <trkpt lat="43.61529" lon="6.59202">
        <ele>629.8</ele>
        <time>2019-02-17T10:34:18Z</time>
      </trkpt>
      <trkpt lat="43.61538" lon="6.59199">
        <ele>630.4</ele>
        <time>2019-02-17T10:34:28Z</time>
      </trkpt>
      <trkpt lat="43.61548" lon="6.59201">
        <ele>631.3</ele>
        <time>2019-02-17T10:34:37Z</time>
      </trkpt>
      <trkpt lat="43.61557" lon="6.59206">
        <ele>632.2</ele>
        <time>2019-02-17T10:34:48Z</time>
      </trkpt>
      <trkpt lat="43.61566" lon="6.59212">
        <ele>633.1</ele>
        <time>2019-02-17T10:34:58Z</time>
      </trkpt>
      <trkpt lat="43.61574" lon="6.59217">
        <ele>633.8</ele>
        <time>2019-02-17T10:35:07Z</time>
      </trkpt>
      <trkpt lat="43.61583" lon="6.59224">
        <ele>633.9</ele>
        <time>2019-02-17T10:35:17Z</time>
      </trkpt>
      <trkpt lat="43.61589" lon="6.59234">
        <ele>634.6</ele>
        <time>2019-02-17T10:35:26Z</time>
      </trkpt>
      <trkpt lat="43.61593" lon="6.59246">
        <ele>635.2</ele>
        <time>2019-02-17T10:35:36Z</time>
      </trkpt>
      <trkpt lat="43.61596" lon="6.59258">
        <ele>635.6</ele>
        <time>2019-02-17T10:35:45Z</time>
      </trkpt>
      <trkpt lat="43.61601" lon="6.5927">
        <ele>635.8</ele>
        <time>2019-02-17T10:35:55Z</time>
      </trkpt>
      <trkpt lat="43.61605" lon="6.59281">
        <ele>636</ele>
        <time>2019-02-17T10:36:03Z</time>
      </trkpt>
      <trkpt lat="43.61612" lon="6.5929">
        <ele>636</ele>
        <time>2019-02-17T10:36:10Z</time>
      </trkpt>
      <trkpt lat="43.61618" lon="6.593">
        <ele>635.6</ele>
        <time>2019-02-17T10:36:18Z</time>
      </trkpt>
      <trkpt lat="43.61623" lon="6.59311">
        <ele>635.8</ele>
        <time>2019-02-17T10:36:27Z</time>
      </trkpt>
      <trkpt lat="43.6163" lon="6.5932">
        <ele>635.8</ele>
        <time>2019-02-17T10:36:35Z</time>
      </trkpt>
      <trkpt lat="43.61635" lon="6.5933">
        <ele>635.8</ele>
        <time>2019-02-17T10:36:43Z</time>
      </trkpt>
      <trkpt lat="43.61641" lon="6.59342">
        <ele>635.6</ele>
        <time>2019-02-17T10:36:51Z</time>
      </trkpt>
      <trkpt lat="43.61647" lon="6.59351">
        <ele>635.6</ele>
        <time>2019-02-17T10:36:59Z</time>
      </trkpt>
      <trkpt lat="43.61653" lon="6.59361">
        <ele>635.7</ele>
        <time>2019-02-17T10:37:07Z</time>
      </trkpt>
      <trkpt lat="43.61659" lon="6.59371">
        <ele>635.6</ele>
        <time>2019-02-17T10:37:15Z</time>
      </trkpt>
      <trkpt lat="43.61666" lon="6.59379">
        <ele>636</ele>
        <time>2019-02-17T10:37:24Z</time>
      </trkpt>
      <trkpt lat="43.61672" lon="6.5939">
        <ele>636.2</ele>
        <time>2019-02-17T10:37:34Z</time>
      </trkpt>
      <trkpt lat="43.61676" lon="6.59402">
        <ele>636.5</ele>
        <time>2019-02-17T10:37:53Z</time>
      </trkpt>
      <trkpt lat="43.61673" lon="6.59413">
        <ele>636.4</ele>
        <time>2019-02-17T10:38:32Z</time>
      </trkpt>
      <trkpt lat="43.6167" lon="6.59426">
        <ele>635.5</ele>
        <time>2019-02-17T10:38:43Z</time>
      </trkpt>
      <trkpt lat="43.61667" lon="6.59439">
        <ele>634.8</ele>
        <time>2019-02-17T10:38:55Z</time>
      </trkpt>
      <trkpt lat="43.61666" lon="6.59452">
        <ele>634.2</ele>
        <time>2019-02-17T10:39:05Z</time>
      </trkpt>
      <trkpt lat="43.61661" lon="6.59464">
        <ele>633.4</ele>
        <time>2019-02-17T10:39:15Z</time>
      </trkpt>
      <trkpt lat="43.6166" lon="6.59477">
        <ele>632.4</ele>
        <time>2019-02-17T10:39:25Z</time>
      </trkpt>
      <trkpt lat="43.61657" lon="6.59491">
        <ele>630.6</ele>
        <time>2019-02-17T10:39:34Z</time>
      </trkpt>
      <trkpt lat="43.61654" lon="6.59503">
        <ele>630.5</ele>
        <time>2019-02-17T10:39:40Z</time>
      </trkpt>
      <trkpt lat="43.6165" lon="6.59515">
        <ele>629.5</ele>
        <time>2019-02-17T10:39:49Z</time>
      </trkpt>
      <trkpt lat="43.61648" lon="6.59529">
        <ele>628.5</ele>
        <time>2019-02-17T10:39:57Z</time>
      </trkpt>
      <trkpt lat="43.61643" lon="6.5954">
        <ele>627.8</ele>
        <time>2019-02-17T10:40:07Z</time>
      </trkpt>
      <trkpt lat="43.61638" lon="6.5955">
        <ele>627.1</ele>
        <time>2019-02-17T10:40:16Z</time>
      </trkpt>
      <trkpt lat="43.61631" lon="6.59559">
        <ele>626.6</ele>
        <time>2019-02-17T10:40:27Z</time>
      </trkpt>
      <trkpt lat="43.61625" lon="6.59571">
        <ele>625.7</ele>
        <time>2019-02-17T10:40:37Z</time>
      </trkpt>
      <trkpt lat="43.6162" lon="6.59582">
        <ele>624.7</ele>
        <time>2019-02-17T10:40:45Z</time>
      </trkpt>
      <trkpt lat="43.61614" lon="6.59594">
        <ele>624.2</ele>
        <time>2019-02-17T10:40:54Z</time>
      </trkpt>
      <trkpt lat="43.61612" lon="6.59607">
        <ele>623.5</ele>
        <time>2019-02-17T10:41:02Z</time>
      </trkpt>
      <trkpt lat="43.61611" lon="6.5962">
        <ele>622.8</ele>
        <time>2019-02-17T10:41:10Z</time>
      </trkpt>
      <trkpt lat="43.61611" lon="6.59633">
        <ele>621.6</ele>
        <time>2019-02-17T10:41:19Z</time>
      </trkpt>
      <trkpt lat="43.61612" lon="6.59645">
        <ele>620.5</ele>
        <time>2019-02-17T10:41:28Z</time>
      </trkpt>
      <trkpt lat="43.61611" lon="6.59658">
        <ele>620</ele>
        <time>2019-02-17T10:41:38Z</time>
      </trkpt>
      <trkpt lat="43.61607" lon="6.59671">
        <ele>619.1</ele>
        <time>2019-02-17T10:41:49Z</time>
      </trkpt>
      <trkpt lat="43.61602" lon="6.59682">
        <ele>618.5</ele>
        <time>2019-02-17T10:41:58Z</time>
      </trkpt>
      <trkpt lat="43.61599" lon="6.59694">
        <ele>617.7</ele>
        <time>2019-02-17T10:42:07Z</time>
      </trkpt>
      <trkpt lat="43.61597" lon="6.59708">
        <ele>617</ele>
        <time>2019-02-17T10:42:15Z</time>
      </trkpt>
      <trkpt lat="43.61596" lon="6.59721">
        <ele>615.8</ele>
        <time>2019-02-17T10:42:25Z</time>
      </trkpt>
      <trkpt lat="43.61595" lon="6.59734">
        <ele>614.9</ele>
        <time>2019-02-17T10:42:34Z</time>
      </trkpt>
      <trkpt lat="43.61596" lon="6.59747">
        <ele>614</ele>
        <time>2019-02-17T10:42:43Z</time>
      </trkpt>
      <trkpt lat="43.61596" lon="6.59759">
        <ele>613.2</ele>
        <time>2019-02-17T10:42:50Z</time>
      </trkpt>
      <trkpt lat="43.61596" lon="6.59772">
        <ele>611.9</ele>
        <time>2019-02-17T10:42:58Z</time>
      </trkpt>
      <trkpt lat="43.61598" lon="6.59784">
        <ele>611.2</ele>
        <time>2019-02-17T10:43:05Z</time>
      </trkpt>
      <trkpt lat="43.61599" lon="6.59796">
        <ele>610.6</ele>
        <time>2019-02-17T10:43:12Z</time>
      </trkpt>
      <trkpt lat="43.61601" lon="6.5981">
        <ele>609.7</ele>
        <time>2019-02-17T10:43:20Z</time>
      </trkpt>
      <trkpt lat="43.616" lon="6.59823">
        <ele>608.8</ele>
        <time>2019-02-17T10:43:28Z</time>
      </trkpt>
      <trkpt lat="43.61601" lon="6.59837">
        <ele>608.2</ele>
        <time>2019-02-17T10:43:35Z</time>
      </trkpt>
      <trkpt lat="43.61601" lon="6.5985">
        <ele>607.4</ele>
        <time>2019-02-17T10:43:43Z</time>
      </trkpt>
      <trkpt lat="43.61603" lon="6.59863">
        <ele>606.5</ele>
        <time>2019-02-17T10:43:50Z</time>
      </trkpt>
      <trkpt lat="43.61607" lon="6.59875">
        <ele>605.8</ele>
        <time>2019-02-17T10:43:58Z</time>
      </trkpt>
      <trkpt lat="43.61611" lon="6.59888">
        <ele>604.5</ele>
        <time>2019-02-17T10:44:06Z</time>
      </trkpt>
      <trkpt lat="43.61614" lon="6.59901">
        <ele>603.6</ele>
        <time>2019-02-17T10:44:14Z</time>
      </trkpt>
      <trkpt lat="43.61617" lon="6.59913">
        <ele>602.4</ele>
        <time>2019-02-17T10:44:21Z</time>
      </trkpt>
      <trkpt lat="43.61619" lon="6.59926">
        <ele>601.2</ele>
        <time>2019-02-17T10:44:30Z</time>
      </trkpt>
      <trkpt lat="43.6162" lon="6.59939">
        <ele>599.9</ele>
        <time>2019-02-17T10:44:38Z</time>
      </trkpt>
      <trkpt lat="43.61621" lon="6.59951">
        <ele>599</ele>
        <time>2019-02-17T10:44:46Z</time>
      </trkpt>
      <trkpt lat="43.61623" lon="6.59964">
        <ele>598.1</ele>
        <time>2019-02-17T10:44:55Z</time>
      </trkpt>
      <trkpt lat="43.61623" lon="6.59977">
        <ele>597.9</ele>
        <time>2019-02-17T10:45:02Z</time>
      </trkpt>
      <trkpt lat="43.61625" lon="6.59989">
        <ele>597.5</ele>
        <time>2019-02-17T10:45:09Z</time>
      </trkpt>
      <trkpt lat="43.61627" lon="6.60003">
        <ele>597.3</ele>
        <time>2019-02-17T10:45:18Z</time>
      </trkpt>
      <trkpt lat="43.6163" lon="6.60015">
        <ele>597.3</ele>
        <time>2019-02-17T10:45:27Z</time>
      </trkpt>
      <trkpt lat="43.61633" lon="6.60027">
        <ele>597.2</ele>
        <time>2019-02-17T10:45:35Z</time>
      </trkpt>
      <trkpt lat="43.61633" lon="6.6004">
        <ele>597.2</ele>
        <time>2019-02-17T10:45:43Z</time>
      </trkpt>
      <trkpt lat="43.61635" lon="6.60053">
        <ele>597.8</ele>
        <time>2019-02-17T10:45:51Z</time>
      </trkpt>
      <trkpt lat="43.61639" lon="6.60065">
        <ele>597.8</ele>
        <time>2019-02-17T10:45:59Z</time>
      </trkpt>
      <trkpt lat="43.61641" lon="6.60079">
        <ele>597.8</ele>
        <time>2019-02-17T10:46:08Z</time>
      </trkpt>
      <trkpt lat="43.6164" lon="6.60093">
        <ele>598.2</ele>
        <time>2019-02-17T10:46:16Z</time>
      </trkpt>
      <trkpt lat="43.61641" lon="6.60106">
        <ele>598</ele>
        <time>2019-02-17T10:46:25Z</time>
      </trkpt>
      <trkpt lat="43.6164" lon="6.60118">
        <ele>598</ele>
        <time>2019-02-17T10:46:33Z</time>
      </trkpt>
      <trkpt lat="43.6164" lon="6.60131">
        <ele>597.7</ele>
        <time>2019-02-17T10:46:41Z</time>
      </trkpt>
      <trkpt lat="43.6164" lon="6.60144">
        <ele>597.2</ele>
        <time>2019-02-17T10:46:50Z</time>
      </trkpt>
      <trkpt lat="43.61642" lon="6.60156">
        <ele>597</ele>
        <time>2019-02-17T10:46:57Z</time>
      </trkpt>
      <trkpt lat="43.61643" lon="6.60169">
        <ele>596.7</ele>
        <time>2019-02-17T10:47:05Z</time>
      </trkpt>
      <trkpt lat="43.61644" lon="6.60182">
        <ele>596</ele>
        <time>2019-02-17T10:47:13Z</time>
      </trkpt>
      <trkpt lat="43.61647" lon="6.60194">
        <ele>596.2</ele>
        <time>2019-02-17T10:47:20Z</time>
      </trkpt>
      <trkpt lat="43.61649" lon="6.60207">
        <ele>596.4</ele>
        <time>2019-02-17T10:47:28Z</time>
      </trkpt>
      <trkpt lat="43.61651" lon="6.60219">
        <ele>596.3</ele>
        <time>2019-02-17T10:47:36Z</time>
      </trkpt>
      <trkpt lat="43.61651" lon="6.60233">
        <ele>596.1</ele>
        <time>2019-02-17T10:47:44Z</time>
      </trkpt>
      <trkpt lat="43.61652" lon="6.60246">
        <ele>596</ele>
        <time>2019-02-17T10:47:52Z</time>
      </trkpt>
      <trkpt lat="43.61654" lon="6.60259">
        <ele>595.6</ele>
        <time>2019-02-17T10:47:59Z</time>
      </trkpt>
      <trkpt lat="43.61658" lon="6.60271">
        <ele>594.9</ele>
        <time>2019-02-17T10:48:08Z</time>
      </trkpt>
      <trkpt lat="43.61664" lon="6.60281">
        <ele>595</ele>
        <time>2019-02-17T10:48:16Z</time>
      </trkpt>
      <trkpt lat="43.61671" lon="6.60291">
        <ele>595.1</ele>
        <time>2019-02-17T10:48:24Z</time>
      </trkpt>
      <trkpt lat="43.6168" lon="6.60298">
        <ele>594.6</ele>
        <time>2019-02-17T10:48:31Z</time>
      </trkpt>
      <trkpt lat="43.61685" lon="6.60308">
        <ele>594.1</ele>
        <time>2019-02-17T10:48:39Z</time>
      </trkpt>
      <trkpt lat="43.61687" lon="6.60322">
        <ele>593.9</ele>
        <time>2019-02-17T10:48:47Z</time>
      </trkpt>
      <trkpt lat="43.61688" lon="6.60335">
        <ele>593.7</ele>
        <time>2019-02-17T10:48:56Z</time>
      </trkpt>
      <trkpt lat="43.61692" lon="6.60348">
        <ele>593.2</ele>
        <time>2019-02-17T10:49:04Z</time>
      </trkpt>
      <trkpt lat="43.61697" lon="6.60359">
        <ele>593.2</ele>
        <time>2019-02-17T10:49:13Z</time>
      </trkpt>
      <trkpt lat="43.61697" lon="6.60374">
        <ele>592.9</ele>
        <time>2019-02-17T10:49:23Z</time>
      </trkpt>
      <trkpt lat="43.61699" lon="6.60386">
        <ele>592.7</ele>
        <time>2019-02-17T10:49:31Z</time>
      </trkpt>
      <trkpt lat="43.61699" lon="6.60399">
        <ele>592.1</ele>
        <time>2019-02-17T10:49:38Z</time>
      </trkpt>
      <trkpt lat="43.61699" lon="6.60412">
        <ele>591.6</ele>
        <time>2019-02-17T10:49:46Z</time>
      </trkpt>
      <trkpt lat="43.61699" lon="6.60425">
        <ele>591.3</ele>
        <time>2019-02-17T10:49:54Z</time>
      </trkpt>
      <trkpt lat="43.61701" lon="6.60439">
        <ele>590.7</ele>
        <time>2019-02-17T10:50:02Z</time>
      </trkpt>
      <trkpt lat="43.61702" lon="6.60452">
        <ele>591.5</ele>
        <time>2019-02-17T10:50:10Z</time>
      </trkpt>
      <trkpt lat="43.61701" lon="6.60466">
        <ele>591.5</ele>
        <time>2019-02-17T10:50:17Z</time>
      </trkpt>
      <trkpt lat="43.61704" lon="6.60477">
        <ele>591.8</ele>
        <time>2019-02-17T10:50:24Z</time>
      </trkpt>
      <trkpt lat="43.61706" lon="6.6049">
        <ele>592.2</ele>
        <time>2019-02-17T10:50:32Z</time>
      </trkpt>
      <trkpt lat="43.61707" lon="6.60503">
        <ele>592.2</ele>
        <time>2019-02-17T10:50:39Z</time>
      </trkpt>
      <trkpt lat="43.61712" lon="6.60513">
        <ele>592.7</ele>
        <time>2019-02-17T10:50:46Z</time>
      </trkpt>
      <trkpt lat="43.61715" lon="6.60526">
        <ele>592.8</ele>
        <time>2019-02-17T10:50:55Z</time>
      </trkpt>
      <trkpt lat="43.61719" lon="6.60538">
        <ele>592.9</ele>
        <time>2019-02-17T10:51:02Z</time>
      </trkpt>
      <trkpt lat="43.61721" lon="6.60553">
        <ele>592.6</ele>
        <time>2019-02-17T10:51:10Z</time>
      </trkpt>
      <trkpt lat="43.61722" lon="6.60566">
        <ele>592.5</ele>
        <time>2019-02-17T10:51:18Z</time>
      </trkpt>
      <trkpt lat="43.61723" lon="6.60579">
        <ele>592.8</ele>
        <time>2019-02-17T10:51:25Z</time>
      </trkpt>
      <trkpt lat="43.61728" lon="6.60591">
        <ele>592.9</ele>
        <time>2019-02-17T10:51:33Z</time>
      </trkpt>
      <trkpt lat="43.61732" lon="6.60603">
        <ele>593</ele>
        <time>2019-02-17T10:51:40Z</time>
      </trkpt>
      <trkpt lat="43.61737" lon="6.60614">
        <ele>592.7</ele>
        <time>2019-02-17T10:51:48Z</time>
      </trkpt>
      <trkpt lat="43.61743" lon="6.60625">
        <ele>592.4</ele>
        <time>2019-02-17T10:51:56Z</time>
      </trkpt>
      <trkpt lat="43.61748" lon="6.60637">
        <ele>592.1</ele>
        <time>2019-02-17T10:52:04Z</time>
      </trkpt>
      <trkpt lat="43.61753" lon="6.60649">
        <ele>592.3</ele>
        <time>2019-02-17T10:52:12Z</time>
      </trkpt>
      <trkpt lat="43.61757" lon="6.60661">
        <ele>592.1</ele>
        <time>2019-02-17T10:52:19Z</time>
      </trkpt>
      <trkpt lat="43.61759" lon="6.60673">
        <ele>591.8</ele>
        <time>2019-02-17T10:52:26Z</time>
      </trkpt>
      <trkpt lat="43.61762" lon="6.60685">
        <ele>592.3</ele>
        <time>2019-02-17T10:52:35Z</time>
      </trkpt>
      <trkpt lat="43.61766" lon="6.60698">
        <ele>592.2</ele>
        <time>2019-02-17T10:52:44Z</time>
      </trkpt>
      <trkpt lat="43.61771" lon="6.60709">
        <ele>592.7</ele>
        <time>2019-02-17T10:52:51Z</time>
      </trkpt>
      <trkpt lat="43.61775" lon="6.60722">
        <ele>592.7</ele>
        <time>2019-02-17T10:52:59Z</time>
      </trkpt>
      <trkpt lat="43.61779" lon="6.60734">
        <ele>592.9</ele>
        <time>2019-02-17T10:53:07Z</time>
      </trkpt>
      <trkpt lat="43.61783" lon="6.60747">
        <ele>592.6</ele>
        <time>2019-02-17T10:53:15Z</time>
      </trkpt>
      <trkpt lat="43.61787" lon="6.60759">
        <ele>591.6</ele>
        <time>2019-02-17T10:53:24Z</time>
      </trkpt>
      <trkpt lat="43.61789" lon="6.60772">
        <ele>591.4</ele>
        <time>2019-02-17T10:53:32Z</time>
      </trkpt>
      <trkpt lat="43.61789" lon="6.60786">
        <ele>590.7</ele>
        <time>2019-02-17T10:53:41Z</time>
      </trkpt>
      <trkpt lat="43.6179" lon="6.608">
        <ele>590.6</ele>
        <time>2019-02-17T10:53:49Z</time>
      </trkpt>
      <trkpt lat="43.6179" lon="6.60812">
        <ele>590.6</ele>
        <time>2019-02-17T10:53:56Z</time>
      </trkpt>
      <trkpt lat="43.61791" lon="6.60826">
        <ele>590.7</ele>
        <time>2019-02-17T10:54:04Z</time>
      </trkpt>
      <trkpt lat="43.61796" lon="6.60839">
        <ele>591.3</ele>
        <time>2019-02-17T10:54:12Z</time>
      </trkpt>
      <trkpt lat="43.61799" lon="6.60851">
        <ele>591.7</ele>
        <time>2019-02-17T10:54:20Z</time>
      </trkpt>
      <trkpt lat="43.61803" lon="6.60862">
        <ele>592.3</ele>
        <time>2019-02-17T10:54:28Z</time>
      </trkpt>
      <trkpt lat="43.61809" lon="6.60871">
        <ele>592.1</ele>
        <time>2019-02-17T10:54:34Z</time>
      </trkpt>
      <trkpt lat="43.61814" lon="6.60884">
        <ele>592</ele>
        <time>2019-02-17T10:54:42Z</time>
      </trkpt>
      <trkpt lat="43.61817" lon="6.60896">
        <ele>592.1</ele>
        <time>2019-02-17T10:54:49Z</time>
      </trkpt>
      <trkpt lat="43.61819" lon="6.6091">
        <ele>592.6</ele>
        <time>2019-02-17T10:54:57Z</time>
      </trkpt>
      <trkpt lat="43.6182" lon="6.60922">
        <ele>592.7</ele>
        <time>2019-02-17T10:55:05Z</time>
      </trkpt>
      <trkpt lat="43.61821" lon="6.60936">
        <ele>592.2</ele>
        <time>2019-02-17T10:55:13Z</time>
      </trkpt>
      <trkpt lat="43.61823" lon="6.60949">
        <ele>591.8</ele>
        <time>2019-02-17T10:55:21Z</time>
      </trkpt>
      <trkpt lat="43.61822" lon="6.60962">
        <ele>591.6</ele>
        <time>2019-02-17T10:55:28Z</time>
      </trkpt>
      <trkpt lat="43.61823" lon="6.60974">
        <ele>591.1</ele>
        <time>2019-02-17T10:55:35Z</time>
      </trkpt>
      <trkpt lat="43.61824" lon="6.60988">
        <ele>590.9</ele>
        <time>2019-02-17T10:55:43Z</time>
      </trkpt>
      <trkpt lat="43.61823" lon="6.61001">
        <ele>590.8</ele>
        <time>2019-02-17T10:55:52Z</time>
      </trkpt>
      <trkpt lat="43.61823" lon="6.61015">
        <ele>590.5</ele>
        <time>2019-02-17T10:55:58Z</time>
      </trkpt>
      <trkpt lat="43.61823" lon="6.61028">
        <ele>590.3</ele>
        <time>2019-02-17T10:56:06Z</time>
      </trkpt>
      <trkpt lat="43.61823" lon="6.61041">
        <ele>589.7</ele>
        <time>2019-02-17T10:56:14Z</time>
      </trkpt>
      <trkpt lat="43.61825" lon="6.61054">
        <ele>589.5</ele>
        <time>2019-02-17T10:56:21Z</time>
      </trkpt>
      <trkpt lat="43.61827" lon="6.61067">
        <ele>589.3</ele>
        <time>2019-02-17T10:56:30Z</time>
      </trkpt>
      <trkpt lat="43.61827" lon="6.61081">
        <ele>589.1</ele>
        <time>2019-02-17T10:56:38Z</time>
      </trkpt>
      <trkpt lat="43.61829" lon="6.61093">
        <ele>587.9</ele>
        <time>2019-02-17T10:56:46Z</time>
      </trkpt>
      <trkpt lat="43.6183" lon="6.61106">
        <ele>587</ele>
        <time>2019-02-17T10:56:54Z</time>
      </trkpt>
      <trkpt lat="43.61832" lon="6.61119">
        <ele>586.1</ele>
        <time>2019-02-17T10:57:01Z</time>
      </trkpt>
      <trkpt lat="43.61833" lon="6.61131">
        <ele>585</ele>
        <time>2019-02-17T10:57:08Z</time>
      </trkpt>
      <trkpt lat="43.61836" lon="6.61143">
        <ele>584.1</ele>
        <time>2019-02-17T10:57:15Z</time>
      </trkpt>
      <trkpt lat="43.61835" lon="6.61157">
        <ele>583</ele>
        <time>2019-02-17T10:57:23Z</time>
      </trkpt>
      <trkpt lat="43.61833" lon="6.61171">
        <ele>582.7</ele>
        <time>2019-02-17T10:57:30Z</time>
      </trkpt>
      <trkpt lat="43.61831" lon="6.61184">
        <ele>581.7</ele>
        <time>2019-02-17T10:57:38Z</time>
      </trkpt>
      <trkpt lat="43.61831" lon="6.61197">
        <ele>580.9</ele>
        <time>2019-02-17T10:57:46Z</time>
      </trkpt>
      <trkpt lat="43.61834" lon="6.6121">
        <ele>580.4</ele>
        <time>2019-02-17T10:57:54Z</time>
      </trkpt>
      <trkpt lat="43.61839" lon="6.61219">
        <ele>579.7</ele>
        <time>2019-02-17T10:58:00Z</time>
      </trkpt>
      <trkpt lat="43.61844" lon="6.61231">
        <ele>579.2</ele>
        <time>2019-02-17T10:58:08Z</time>
      </trkpt>
      <trkpt lat="43.6185" lon="6.61243">
        <ele>579</ele>
        <time>2019-02-17T10:58:15Z</time>
      </trkpt>
      <trkpt lat="43.61857" lon="6.61253">
        <ele>578.1</ele>
        <time>2019-02-17T10:58:22Z</time>
      </trkpt>
      <trkpt lat="43.61865" lon="6.61261">
        <ele>578.2</ele>
        <time>2019-02-17T10:58:30Z</time>
      </trkpt>
      <trkpt lat="43.61873" lon="6.61268">
        <ele>577.9</ele>
        <time>2019-02-17T10:58:37Z</time>
      </trkpt>
      <trkpt lat="43.6188" lon="6.61277">
        <ele>577.5</ele>
        <time>2019-02-17T10:58:44Z</time>
      </trkpt>
      <trkpt lat="43.61887" lon="6.61285">
        <ele>576.8</ele>
        <time>2019-02-17T10:58:51Z</time>
      </trkpt>
      <trkpt lat="43.61893" lon="6.61295">
        <ele>576.6</ele>
        <time>2019-02-17T10:58:58Z</time>
      </trkpt>
      <trkpt lat="43.61899" lon="6.61305">
        <ele>576.2</ele>
        <time>2019-02-17T10:59:05Z</time>
      </trkpt>
      <trkpt lat="43.61905" lon="6.61316">
        <ele>576.5</ele>
        <time>2019-02-17T10:59:13Z</time>
      </trkpt>
      <trkpt lat="43.61909" lon="6.61327">
        <ele>577.1</ele>
        <time>2019-02-17T10:59:20Z</time>
      </trkpt>
      <trkpt lat="43.61918" lon="6.61333">
        <ele>576.7</ele>
        <time>2019-02-17T10:59:28Z</time>
      </trkpt>
      <trkpt lat="43.61922" lon="6.61344">
        <ele>577.1</ele>
        <time>2019-02-17T10:59:35Z</time>
      </trkpt>
      <trkpt lat="43.61925" lon="6.61357">
        <ele>577.7</ele>
        <time>2019-02-17T10:59:43Z</time>
      </trkpt>
      <trkpt lat="43.61929" lon="6.61368">
        <ele>578.8</ele>
        <time>2019-02-17T10:59:52Z</time>
      </trkpt>
      <trkpt lat="43.61928" lon="6.61381">
        <ele>579</ele>
        <time>2019-02-17T11:00:20Z</time>
      </trkpt>
      <trkpt lat="43.61935" lon="6.61389">
        <ele>579.6</ele>
        <time>2019-02-17T11:00:29Z</time>
      </trkpt>
      <trkpt lat="43.61943" lon="6.61394">
        <ele>579.9</ele>
        <time>2019-02-17T11:00:37Z</time>
      </trkpt>
      <trkpt lat="43.61952" lon="6.614">
        <ele>580.1</ele>
        <time>2019-02-17T11:00:46Z</time>
      </trkpt>
      <trkpt lat="43.61961" lon="6.61407">
        <ele>580.8</ele>
        <time>2019-02-17T11:00:54Z</time>
      </trkpt>
      <trkpt lat="43.61967" lon="6.61416">
        <ele>581.5</ele>
        <time>2019-02-17T11:01:03Z</time>
      </trkpt>
      <trkpt lat="43.61975" lon="6.61424">
        <ele>581.6</ele>
        <time>2019-02-17T11:01:12Z</time>
      </trkpt>
      <trkpt lat="43.61984" lon="6.6143">
        <ele>581.8</ele>
        <time>2019-02-17T11:01:22Z</time>
      </trkpt>
      <trkpt lat="43.61993" lon="6.61434">
        <ele>582.5</ele>
        <time>2019-02-17T11:01:32Z</time>
      </trkpt>
      <trkpt lat="43.62001" lon="6.61437">
        <ele>583.2</ele>
        <time>2019-02-17T11:01:42Z</time>
      </trkpt>
      <trkpt lat="43.62011" lon="6.6144">
        <ele>583.9</ele>
        <time>2019-02-17T11:01:50Z</time>
      </trkpt>
      <trkpt lat="43.6202" lon="6.61442">
        <ele>584.7</ele>
        <time>2019-02-17T11:01:59Z</time>
      </trkpt>
      <trkpt lat="43.6203" lon="6.61443">
        <ele>585.4</ele>
        <time>2019-02-17T11:02:07Z</time>
      </trkpt>
      <trkpt lat="43.62039" lon="6.61445">
        <ele>586.1</ele>
        <time>2019-02-17T11:02:16Z</time>
      </trkpt>
      <trkpt lat="43.62049" lon="6.61448">
        <ele>587.1</ele>
        <time>2019-02-17T11:02:26Z</time>
      </trkpt>
      <trkpt lat="43.62058" lon="6.6145">
        <ele>587.9</ele>
        <time>2019-02-17T11:02:35Z</time>
      </trkpt>
      <trkpt lat="43.62067" lon="6.61454">
        <ele>588.4</ele>
        <time>2019-02-17T11:02:42Z</time>
      </trkpt>
      <trkpt lat="43.62075" lon="6.61461">
        <ele>589.5</ele>
        <time>2019-02-17T11:02:52Z</time>
      </trkpt>
      <trkpt lat="43.62085" lon="6.61466">
        <ele>590.2</ele>
        <time>2019-02-17T11:02:59Z</time>
      </trkpt>
      <trkpt lat="43.62093" lon="6.61474">
        <ele>590.7</ele>
        <time>2019-02-17T11:03:08Z</time>
      </trkpt>
      <trkpt lat="43.62101" lon="6.6148">
        <ele>590.7</ele>
        <time>2019-02-17T11:03:15Z</time>
      </trkpt>
      <trkpt lat="43.6211" lon="6.61485">
        <ele>592</ele>
        <time>2019-02-17T11:03:23Z</time>
      </trkpt>
      <trkpt lat="43.62119" lon="6.61486">
        <ele>593</ele>
        <time>2019-02-17T11:03:30Z</time>
      </trkpt>
      <trkpt lat="43.62128" lon="6.61491">
        <ele>593.7</ele>
        <time>2019-02-17T11:03:39Z</time>
      </trkpt>
      <trkpt lat="43.62139" lon="6.61492">
        <ele>594.1</ele>
        <time>2019-02-17T11:03:49Z</time>
      </trkpt>
      <trkpt lat="43.62148" lon="6.61493">
        <ele>594.3</ele>
        <time>2019-02-17T11:03:58Z</time>
      </trkpt>
      <trkpt lat="43.62157" lon="6.61491">
        <ele>595.1</ele>
        <time>2019-02-17T11:04:08Z</time>
      </trkpt>
      <trkpt lat="43.62169" lon="6.61491">
        <ele>596</ele>
        <time>2019-02-17T11:04:21Z</time>
      </trkpt>
      <trkpt lat="43.62179" lon="6.61488">
        <ele>596.7</ele>
        <time>2019-02-17T11:04:31Z</time>
      </trkpt>
      <trkpt lat="43.62188" lon="6.61482">
        <ele>596.9</ele>
        <time>2019-02-17T11:04:37Z</time>
      </trkpt>
      <trkpt lat="43.62196" lon="6.61476">
        <ele>597.5</ele>
        <time>2019-02-17T11:04:47Z</time>
      </trkpt>
      <trkpt lat="43.62205" lon="6.61471">
        <ele>598.4</ele>
        <time>2019-02-17T11:04:55Z</time>
      </trkpt>
      <trkpt lat="43.62213" lon="6.61464">
        <ele>598.8</ele>
        <time>2019-02-17T11:05:03Z</time>
      </trkpt>
      <trkpt lat="43.62222" lon="6.61458">
        <ele>599.6</ele>
        <time>2019-02-17T11:05:13Z</time>
      </trkpt>
      <trkpt lat="43.62231" lon="6.61452">
        <ele>600.1</ele>
        <time>2019-02-17T11:05:21Z</time>
      </trkpt>
      <trkpt lat="43.6224" lon="6.61448">
        <ele>601</ele>
        <time>2019-02-17T11:05:30Z</time>
      </trkpt>
      <trkpt lat="43.62249" lon="6.61441">
        <ele>601.6</ele>
        <time>2019-02-17T11:05:38Z</time>
      </trkpt>
      <trkpt lat="43.62259" lon="6.61437">
        <ele>602.1</ele>
        <time>2019-02-17T11:05:46Z</time>
      </trkpt>
      <trkpt lat="43.62268" lon="6.61432">
        <ele>602.3</ele>
        <time>2019-02-17T11:05:55Z</time>
      </trkpt>
      <trkpt lat="43.62277" lon="6.61429">
        <ele>602.5</ele>
        <time>2019-02-17T11:06:02Z</time>
      </trkpt>
      <trkpt lat="43.62286" lon="6.61427">
        <ele>603</ele>
        <time>2019-02-17T11:06:11Z</time>
      </trkpt>
      <trkpt lat="43.62296" lon="6.61426">
        <ele>603.8</ele>
        <time>2019-02-17T11:06:20Z</time>
      </trkpt>
      <trkpt lat="43.62306" lon="6.61427">
        <ele>604.7</ele>
        <time>2019-02-17T11:06:29Z</time>
      </trkpt>
      <trkpt lat="43.62315" lon="6.61424">
        <ele>605.3</ele>
        <time>2019-02-17T11:06:37Z</time>
      </trkpt>
      <trkpt lat="43.62325" lon="6.61421">
        <ele>606</ele>
        <time>2019-02-17T11:06:44Z</time>
      </trkpt>
      <trkpt lat="43.62333" lon="6.61413">
        <ele>606.4</ele>
        <time>2019-02-17T11:06:52Z</time>
      </trkpt>
      <trkpt lat="43.62341" lon="6.61406">
        <ele>606.6</ele>
        <time>2019-02-17T11:07:00Z</time>
      </trkpt>
      <trkpt lat="43.62348" lon="6.61398">
        <ele>607.1</ele>
        <time>2019-02-17T11:07:07Z</time>
      </trkpt>
      <trkpt lat="43.62356" lon="6.61389">
        <ele>607.5</ele>
        <time>2019-02-17T11:07:15Z</time>
      </trkpt>
      <trkpt lat="43.62363" lon="6.61381">
        <ele>607.8</ele>
        <time>2019-02-17T11:07:22Z</time>
      </trkpt>
      <trkpt lat="43.62369" lon="6.61371">
        <ele>608.3</ele>
        <time>2019-02-17T11:07:29Z</time>
      </trkpt>
      <trkpt lat="43.62375" lon="6.61361">
        <ele>609</ele>
        <time>2019-02-17T11:07:37Z</time>
      </trkpt>
      <trkpt lat="43.62383" lon="6.61354">
        <ele>609.7</ele>
        <time>2019-02-17T11:07:44Z</time>
      </trkpt>
      <trkpt lat="43.62391" lon="6.61346">
        <ele>610.2</ele>
        <time>2019-02-17T11:07:52Z</time>
      </trkpt>
      <trkpt lat="43.62399" lon="6.61337">
        <ele>610.7</ele>
        <time>2019-02-17T11:08:02Z</time>
      </trkpt>
      <trkpt lat="43.62407" lon="6.6133">
        <ele>610.8</ele>
        <time>2019-02-17T11:08:09Z</time>
      </trkpt>
      <trkpt lat="43.62418" lon="6.61326">
        <ele>611.5</ele>
        <time>2019-02-17T11:08:18Z</time>
      </trkpt>
      <trkpt lat="43.62427" lon="6.61319">
        <ele>611.9</ele>
        <time>2019-02-17T11:08:28Z</time>
      </trkpt>
      <trkpt lat="43.62437" lon="6.61313">
        <ele>612.6</ele>
        <time>2019-02-17T11:08:38Z</time>
      </trkpt>
      <trkpt lat="43.62445" lon="6.61308">
        <ele>613.2</ele>
        <time>2019-02-17T11:08:47Z</time>
      </trkpt>
      <trkpt lat="43.62453" lon="6.61304">
        <ele>614.2</ele>
        <time>2019-02-17T11:08:56Z</time>
      </trkpt>
      <trkpt lat="43.62462" lon="6.613">
        <ele>614.7</ele>
        <time>2019-02-17T11:09:05Z</time>
      </trkpt>
      <trkpt lat="43.62471" lon="6.61294">
        <ele>615.4</ele>
        <time>2019-02-17T11:09:12Z</time>
      </trkpt>
      <trkpt lat="43.62481" lon="6.6129">
        <ele>616</ele>
        <time>2019-02-17T11:09:23Z</time>
      </trkpt>
      <trkpt lat="43.62491" lon="6.61287">
        <ele>616.7</ele>
        <time>2019-02-17T11:09:31Z</time>
      </trkpt>
      <trkpt lat="43.625" lon="6.61283">
        <ele>617.4</ele>
        <time>2019-02-17T11:09:38Z</time>
      </trkpt>
      <trkpt lat="43.62508" lon="6.61279">
        <ele>618</ele>
        <time>2019-02-17T11:09:46Z</time>
      </trkpt>
      <trkpt lat="43.62518" lon="6.61278">
        <ele>618.5</ele>
        <time>2019-02-17T11:09:56Z</time>
      </trkpt>
      <trkpt lat="43.62527" lon="6.61279">
        <ele>619</ele>
        <time>2019-02-17T11:10:03Z</time>
      </trkpt>
      <trkpt lat="43.62537" lon="6.6128">
        <ele>619.3</ele>
        <time>2019-02-17T11:10:13Z</time>
      </trkpt>
      <trkpt lat="43.62545" lon="6.61289">
        <ele>620</ele>
        <time>2019-02-17T11:10:21Z</time>
      </trkpt>
      <trkpt lat="43.62554" lon="6.61291">
        <ele>620.7</ele>
        <time>2019-02-17T11:10:30Z</time>
      </trkpt>
      <trkpt lat="43.62564" lon="6.61292">
        <ele>621.1</ele>
        <time>2019-02-17T11:10:40Z</time>
      </trkpt>
      <trkpt lat="43.62573" lon="6.61292">
        <ele>622</ele>
        <time>2019-02-17T11:10:48Z</time>
      </trkpt>
      <trkpt lat="43.62583" lon="6.61289">
        <ele>622.9</ele>
        <time>2019-02-17T11:10:56Z</time>
      </trkpt>
      <trkpt lat="43.62593" lon="6.61287">
        <ele>623.5</ele>
        <time>2019-02-17T11:11:03Z</time>
      </trkpt>
      <trkpt lat="43.62602" lon="6.61283">
        <ele>624</ele>
        <time>2019-02-17T11:11:10Z</time>
      </trkpt>
      <trkpt lat="43.62611" lon="6.61276">
        <ele>624.7</ele>
        <time>2019-02-17T11:11:20Z</time>
      </trkpt>
      <trkpt lat="43.62617" lon="6.61265">
        <ele>625.5</ele>
        <time>2019-02-17T11:11:28Z</time>
      </trkpt>
      <trkpt lat="43.62619" lon="6.61253">
        <ele>625.8</ele>
        <time>2019-02-17T11:11:34Z</time>
      </trkpt>
      <trkpt lat="43.62624" lon="6.61241">
        <ele>626.3</ele>
        <time>2019-02-17T11:11:41Z</time>
      </trkpt>
      <trkpt lat="43.62625" lon="6.61228">
        <ele>626.4</ele>
        <time>2019-02-17T11:11:49Z</time>
      </trkpt>
      <trkpt lat="43.6263" lon="6.61217">
        <ele>626.8</ele>
        <time>2019-02-17T11:11:56Z</time>
      </trkpt>
      <trkpt lat="43.62632" lon="6.61204">
        <ele>627.4</ele>
        <time>2019-02-17T11:12:05Z</time>
      </trkpt>
      <trkpt lat="43.62637" lon="6.61192">
        <ele>628</ele>
        <time>2019-02-17T11:12:14Z</time>
      </trkpt>
      <trkpt lat="43.62641" lon="6.6118">
        <ele>628.3</ele>
        <time>2019-02-17T11:12:22Z</time>
      </trkpt>
      <trkpt lat="43.62645" lon="6.61168">
        <ele>629.3</ele>
        <time>2019-02-17T11:12:33Z</time>
      </trkpt>
      <trkpt lat="43.6265" lon="6.61157">
        <ele>629.9</ele>
        <time>2019-02-17T11:12:41Z</time>
      </trkpt>
      <trkpt lat="43.62655" lon="6.61146">
        <ele>630.3</ele>
        <time>2019-02-17T11:12:50Z</time>
      </trkpt>
      <trkpt lat="43.6266" lon="6.61135">
        <ele>630.9</ele>
        <time>2019-02-17T11:13:00Z</time>
      </trkpt>
      <trkpt lat="43.62666" lon="6.61126">
        <ele>631.4</ele>
        <time>2019-02-17T11:13:09Z</time>
      </trkpt>
      <trkpt lat="43.62672" lon="6.61116">
        <ele>631.9</ele>
        <time>2019-02-17T11:13:17Z</time>
      </trkpt>
      <trkpt lat="43.62679" lon="6.61106">
        <ele>632.3</ele>
        <time>2019-02-17T11:13:25Z</time>
      </trkpt>
      <trkpt lat="43.62683" lon="6.61095">
        <ele>633.1</ele>
        <time>2019-02-17T11:13:33Z</time>
      </trkpt>
      <trkpt lat="43.6269" lon="6.61086">
        <ele>634.2</ele>
        <time>2019-02-17T11:13:42Z</time>
      </trkpt>
      <trkpt lat="43.62696" lon="6.61076">
        <ele>634.6</ele>
        <time>2019-02-17T11:13:49Z</time>
      </trkpt>
      <trkpt lat="43.62703" lon="6.61068">
        <ele>634.7</ele>
        <time>2019-02-17T11:13:57Z</time>
      </trkpt>
      <trkpt lat="43.62709" lon="6.61058">
        <ele>635.4</ele>
        <time>2019-02-17T11:14:04Z</time>
      </trkpt>
      <trkpt lat="43.62715" lon="6.61049">
        <ele>636</ele>
        <time>2019-02-17T11:14:12Z</time>
      </trkpt>
      <trkpt lat="43.62722" lon="6.61039">
        <ele>636.7</ele>
        <time>2019-02-17T11:14:21Z</time>
      </trkpt>
      <trkpt lat="43.6273" lon="6.6103">
        <ele>636.8</ele>
        <time>2019-02-17T11:14:29Z</time>
      </trkpt>
      <trkpt lat="43.62735" lon="6.6102">
        <ele>636.9</ele>
        <time>2019-02-17T11:14:36Z</time>
      </trkpt>
      <trkpt lat="43.6274" lon="6.61007">
        <ele>637.8</ele>
        <time>2019-02-17T11:14:45Z</time>
      </trkpt>
      <trkpt lat="43.62743" lon="6.60995">
        <ele>638.6</ele>
        <time>2019-02-17T11:14:55Z</time>
      </trkpt>
      <trkpt lat="43.62747" lon="6.60982">
        <ele>639.6</ele>
        <time>2019-02-17T11:15:03Z</time>
      </trkpt>
      <trkpt lat="43.62749" lon="6.60969">
        <ele>640.2</ele>
        <time>2019-02-17T11:15:13Z</time>
      </trkpt>
      <trkpt lat="43.62753" lon="6.60956">
        <ele>640.1</ele>
        <time>2019-02-17T11:15:21Z</time>
      </trkpt>
      <trkpt lat="43.62754" lon="6.60942">
        <ele>640.6</ele>
        <time>2019-02-17T11:15:32Z</time>
      </trkpt>
      <trkpt lat="43.62757" lon="6.60929">
        <ele>641.2</ele>
        <time>2019-02-17T11:15:39Z</time>
      </trkpt>
      <trkpt lat="43.62756" lon="6.60915">
        <ele>642</ele>
        <time>2019-02-17T11:15:47Z</time>
      </trkpt>
      <trkpt lat="43.62761" lon="6.60903">
        <ele>642.2</ele>
        <time>2019-02-17T11:15:55Z</time>
      </trkpt>
      <trkpt lat="43.62763" lon="6.6089">
        <ele>642.2</ele>
        <time>2019-02-17T11:16:25Z</time>
      </trkpt>
      <trkpt lat="43.62772" lon="6.60886">
        <ele>643.5</ele>
        <time>2019-02-17T11:16:41Z</time>
      </trkpt>
      <trkpt lat="43.62782" lon="6.6089">
        <ele>645.1</ele>
        <time>2019-02-17T11:16:54Z</time>
      </trkpt>
      <trkpt lat="43.6279" lon="6.60897">
        <ele>646.8</ele>
        <time>2019-02-17T11:17:05Z</time>
      </trkpt>
      <trkpt lat="43.62801" lon="6.60905">
        <ele>648.6</ele>
        <time>2019-02-17T11:17:19Z</time>
      </trkpt>
      <trkpt lat="43.62807" lon="6.60895">
        <ele>650.7</ele>
        <time>2019-02-17T11:17:30Z</time>
      </trkpt>
      <trkpt lat="43.62815" lon="6.60889">
        <ele>652.8</ele>
        <time>2019-02-17T11:17:48Z</time>
      </trkpt>
      <trkpt lat="43.62824" lon="6.60894">
        <ele>653.6</ele>
        <time>2019-02-17T11:17:59Z</time>
      </trkpt>
      <trkpt lat="43.62823" lon="6.60888">
        <ele>654</ele>
        <time>2019-02-17T11:18:23Z</time>
      </trkpt>
      <trkpt lat="43.62817" lon="6.60877">
        <ele>657.4</ele>
        <time>2019-02-17T12:02:10Z</time>
      </trkpt>
      <trkpt lat="43.62816" lon="6.60891">
        <ele>657.5</ele>
        <time>2019-02-17T12:02:31Z</time>
      </trkpt>
      <trkpt lat="43.62825" lon="6.60893">
        <ele>658.2</ele>
        <time>2019-02-17T12:03:06Z</time>
      </trkpt>
      <trkpt lat="43.62818" lon="6.60901">
        <ele>658.4</ele>
        <time>2019-02-17T12:17:31Z</time>
      </trkpt>
      <trkpt lat="43.62809" lon="6.60905">
        <ele>656.6</ele>
        <time>2019-02-17T12:17:50Z</time>
      </trkpt>
      <trkpt lat="43.62802" lon="6.60897">
        <ele>655.7</ele>
        <time>2019-02-17T12:18:04Z</time>
      </trkpt>
      <trkpt lat="43.62793" lon="6.60891">
        <ele>654.7</ele>
        <time>2019-02-17T12:18:13Z</time>
      </trkpt>
      <trkpt lat="43.62785" lon="6.60884">
        <ele>653.3</ele>
        <time>2019-02-17T12:18:21Z</time>
      </trkpt>
      <trkpt lat="43.62776" lon="6.6088">
        <ele>651.1</ele>
        <time>2019-02-17T12:18:32Z</time>
      </trkpt>
      <trkpt lat="43.62764" lon="6.60882">
        <ele>649.9</ele>
        <time>2019-02-17T12:18:43Z</time>
      </trkpt>
      <trkpt lat="43.62756" lon="6.60876">
        <ele>649.4</ele>
        <time>2019-02-17T12:18:52Z</time>
      </trkpt>
      <trkpt lat="43.62753" lon="6.60864">
        <ele>650.1</ele>
        <time>2019-02-17T12:19:04Z</time>
      </trkpt>
      <trkpt lat="43.62755" lon="6.60852">
        <ele>651</ele>
        <time>2019-02-17T12:19:13Z</time>
      </trkpt>
      <trkpt lat="43.62757" lon="6.60839">
        <ele>651.7</ele>
        <time>2019-02-17T12:19:22Z</time>
      </trkpt>
      <trkpt lat="43.62758" lon="6.60825">
        <ele>652.6</ele>
        <time>2019-02-17T12:19:32Z</time>
      </trkpt>
      <trkpt lat="43.62758" lon="6.60813">
        <ele>653.6</ele>
        <time>2019-02-17T12:19:41Z</time>
      </trkpt>
      <trkpt lat="43.62761" lon="6.608">
        <ele>654.3</ele>
        <time>2019-02-17T12:19:50Z</time>
      </trkpt>
      <trkpt lat="43.62763" lon="6.60787">
        <ele>654.7</ele>
        <time>2019-02-17T12:19:59Z</time>
      </trkpt>
      <trkpt lat="43.62763" lon="6.60773">
        <ele>655.8</ele>
        <time>2019-02-17T12:20:10Z</time>
      </trkpt>
      <trkpt lat="43.62763" lon="6.6076">
        <ele>656.6</ele>
        <time>2019-02-17T12:20:20Z</time>
      </trkpt>
      <trkpt lat="43.62761" lon="6.60747">
        <ele>657.2</ele>
        <time>2019-02-17T12:20:30Z</time>
      </trkpt>
      <trkpt lat="43.62761" lon="6.60734">
        <ele>658.1</ele>
        <time>2019-02-17T12:20:42Z</time>
      </trkpt>
      <trkpt lat="43.62758" lon="6.60721">
        <ele>658.5</ele>
        <time>2019-02-17T12:20:50Z</time>
      </trkpt>
      <trkpt lat="43.62757" lon="6.60708">
        <ele>659.1</ele>
        <time>2019-02-17T12:20:59Z</time>
      </trkpt>
      <trkpt lat="43.62754" lon="6.60696">
        <ele>659.8</ele>
        <time>2019-02-17T12:21:07Z</time>
      </trkpt>
      <trkpt lat="43.62751" lon="6.60684">
        <ele>660.4</ele>
        <time>2019-02-17T12:21:16Z</time>
      </trkpt>
      <trkpt lat="43.62749" lon="6.60672">
        <ele>661.1</ele>
        <time>2019-02-17T12:21:24Z</time>
      </trkpt>
      <trkpt lat="43.62745" lon="6.60661">
        <ele>661.7</ele>
        <time>2019-02-17T12:21:32Z</time>
      </trkpt>
      <trkpt lat="43.62738" lon="6.6065">
        <ele>662.4</ele>
        <time>2019-02-17T12:21:40Z</time>
      </trkpt>
      <trkpt lat="43.62732" lon="6.60641">
        <ele>662.8</ele>
        <time>2019-02-17T12:21:48Z</time>
      </trkpt>
      <trkpt lat="43.62729" lon="6.60629">
        <ele>663.1</ele>
        <time>2019-02-17T12:21:59Z</time>
      </trkpt>
      <trkpt lat="43.62723" lon="6.60618">
        <ele>663.4</ele>
        <time>2019-02-17T12:22:09Z</time>
      </trkpt>
      <trkpt lat="43.62714" lon="6.6061">
        <ele>663.6</ele>
        <time>2019-02-17T12:22:16Z</time>
      </trkpt>
      <trkpt lat="43.62709" lon="6.60599">
        <ele>663.3</ele>
        <time>2019-02-17T12:22:25Z</time>
      </trkpt>
      <trkpt lat="43.62703" lon="6.60588">
        <ele>663</ele>
        <time>2019-02-17T12:22:34Z</time>
      </trkpt>
      <trkpt lat="43.62697" lon="6.60578">
        <ele>662.7</ele>
        <time>2019-02-17T12:22:42Z</time>
      </trkpt>
      <trkpt lat="43.6269" lon="6.60569">
        <ele>662.4</ele>
        <time>2019-02-17T12:22:50Z</time>
      </trkpt>
      <trkpt lat="43.62687" lon="6.60557">
        <ele>661.7</ele>
        <time>2019-02-17T12:23:00Z</time>
      </trkpt>
      <trkpt lat="43.62679" lon="6.60546">
        <ele>661.1</ele>
        <time>2019-02-17T12:23:08Z</time>
      </trkpt>
      <trkpt lat="43.62671" lon="6.60539">
        <ele>660.2</ele>
        <time>2019-02-17T12:23:16Z</time>
      </trkpt>
      <trkpt lat="43.62664" lon="6.60529">
        <ele>659</ele>
        <time>2019-02-17T12:23:28Z</time>
      </trkpt>
      <trkpt lat="43.62655" lon="6.60522">
        <ele>658.3</ele>
        <time>2019-02-17T12:23:37Z</time>
      </trkpt>
      <trkpt lat="43.62647" lon="6.60514">
        <ele>657.9</ele>
        <time>2019-02-17T12:23:44Z</time>
      </trkpt>
      <trkpt lat="43.62644" lon="6.60502">
        <ele>656.7</ele>
        <time>2019-02-17T12:23:55Z</time>
      </trkpt>
      <trkpt lat="43.62638" lon="6.60492">
        <ele>655</ele>
        <time>2019-02-17T12:24:05Z</time>
      </trkpt>
      <trkpt lat="43.6263" lon="6.60483">
        <ele>653.5</ele>
        <time>2019-02-17T12:24:15Z</time>
      </trkpt>
      <trkpt lat="43.62623" lon="6.60475">
        <ele>652.5</ele>
        <time>2019-02-17T12:24:24Z</time>
      </trkpt>
      <trkpt lat="43.62617" lon="6.60464">
        <ele>651.8</ele>
        <time>2019-02-17T12:24:34Z</time>
      </trkpt>
      <trkpt lat="43.6261" lon="6.60454">
        <ele>651.1</ele>
        <time>2019-02-17T12:24:43Z</time>
      </trkpt>
      <trkpt lat="43.62604" lon="6.60445">
        <ele>650</ele>
        <time>2019-02-17T12:24:51Z</time>
      </trkpt>
      <trkpt lat="43.62597" lon="6.60436">
        <ele>649.3</ele>
        <time>2019-02-17T12:25:00Z</time>
      </trkpt>
      <trkpt lat="43.6259" lon="6.60427">
        <ele>648.5</ele>
        <time>2019-02-17T12:25:08Z</time>
      </trkpt>
      <trkpt lat="43.62583" lon="6.60418">
        <ele>647.7</ele>
        <time>2019-02-17T12:25:17Z</time>
      </trkpt>
      <trkpt lat="43.62576" lon="6.6041">
        <ele>647.4</ele>
        <time>2019-02-17T12:25:24Z</time>
      </trkpt>
      <trkpt lat="43.62569" lon="6.60402">
        <ele>646.9</ele>
        <time>2019-02-17T12:25:33Z</time>
      </trkpt>
      <trkpt lat="43.62563" lon="6.60393">
        <ele>646.6</ele>
        <time>2019-02-17T12:25:42Z</time>
      </trkpt>
      <trkpt lat="43.62557" lon="6.60383">
        <ele>646</ele>
        <time>2019-02-17T12:25:51Z</time>
      </trkpt>
      <trkpt lat="43.6255" lon="6.60375">
        <ele>645.1</ele>
        <time>2019-02-17T12:25:59Z</time>
      </trkpt>
      <trkpt lat="43.62541" lon="6.60367">
        <ele>644.3</ele>
        <time>2019-02-17T12:26:07Z</time>
      </trkpt>
      <trkpt lat="43.62534" lon="6.60359">
        <ele>643</ele>
        <time>2019-02-17T12:26:17Z</time>
      </trkpt>
      <trkpt lat="43.62527" lon="6.6035">
        <ele>641.9</ele>
        <time>2019-02-17T12:26:25Z</time>
      </trkpt>
      <trkpt lat="43.6252" lon="6.6034">
        <ele>640.6</ele>
        <time>2019-02-17T12:26:34Z</time>
      </trkpt>
      <trkpt lat="43.62512" lon="6.60331">
        <ele>639.8</ele>
        <time>2019-02-17T12:26:42Z</time>
      </trkpt>
      <trkpt lat="43.62506" lon="6.60321">
        <ele>639</ele>
        <time>2019-02-17T12:26:50Z</time>
      </trkpt>
      <trkpt lat="43.62499" lon="6.60313">
        <ele>638.2</ele>
        <time>2019-02-17T12:26:57Z</time>
      </trkpt>
      <trkpt lat="43.62497" lon="6.603">
        <ele>637.1</ele>
        <time>2019-02-17T12:27:08Z</time>
      </trkpt>
      <trkpt lat="43.62492" lon="6.60289">
        <ele>636.3</ele>
        <time>2019-02-17T12:27:18Z</time>
      </trkpt>
      <trkpt lat="43.62488" lon="6.60275">
        <ele>635.6</ele>
        <time>2019-02-17T12:27:27Z</time>
      </trkpt>
      <trkpt lat="43.62492" lon="6.60264">
        <ele>635</ele>
        <time>2019-02-17T12:27:34Z</time>
      </trkpt>
      <trkpt lat="43.62486" lon="6.60252">
        <ele>634.5</ele>
        <time>2019-02-17T12:27:42Z</time>
      </trkpt>
      <trkpt lat="43.62482" lon="6.6024">
        <ele>633.7</ele>
        <time>2019-02-17T12:27:51Z</time>
      </trkpt>
      <trkpt lat="43.62477" lon="6.60228">
        <ele>633.1</ele>
        <time>2019-02-17T12:28:00Z</time>
      </trkpt>
      <trkpt lat="43.62476" lon="6.60215">
        <ele>632.5</ele>
        <time>2019-02-17T12:28:08Z</time>
      </trkpt>
      <trkpt lat="43.62473" lon="6.60202">
        <ele>632.1</ele>
        <time>2019-02-17T12:28:17Z</time>
      </trkpt>
      <trkpt lat="43.62467" lon="6.60192">
        <ele>632</ele>
        <time>2019-02-17T12:28:25Z</time>
      </trkpt>
      <trkpt lat="43.6246" lon="6.6018">
        <ele>631.6</ele>
        <time>2019-02-17T12:28:34Z</time>
      </trkpt>
      <trkpt lat="43.62462" lon="6.60168">
        <ele>631.7</ele>
        <time>2019-02-17T12:28:41Z</time>
      </trkpt>
      <trkpt lat="43.62462" lon="6.60155">
        <ele>631.2</ele>
        <time>2019-02-17T12:28:51Z</time>
      </trkpt>
      <trkpt lat="43.62453" lon="6.60146">
        <ele>631.1</ele>
        <time>2019-02-17T12:28:59Z</time>
      </trkpt>
      <trkpt lat="43.62445" lon="6.60139">
        <ele>630.6</ele>
        <time>2019-02-17T12:29:07Z</time>
      </trkpt>
      <trkpt lat="43.62437" lon="6.60132">
        <ele>630.1</ele>
        <time>2019-02-17T12:29:17Z</time>
      </trkpt>
      <trkpt lat="43.62428" lon="6.60124">
        <ele>629.8</ele>
        <time>2019-02-17T12:29:25Z</time>
      </trkpt>
      <trkpt lat="43.6242" lon="6.60117">
        <ele>629.5</ele>
        <time>2019-02-17T12:29:34Z</time>
      </trkpt>
      <trkpt lat="43.62411" lon="6.6011">
        <ele>628.6</ele>
        <time>2019-02-17T12:29:41Z</time>
      </trkpt>
      <trkpt lat="43.62404" lon="6.60102">
        <ele>628.4</ele>
        <time>2019-02-17T12:29:48Z</time>
      </trkpt>
      <trkpt lat="43.62398" lon="6.60092">
        <ele>628.4</ele>
        <time>2019-02-17T12:29:58Z</time>
      </trkpt>
      <trkpt lat="43.62392" lon="6.60082">
        <ele>627.6</ele>
        <time>2019-02-17T12:30:05Z</time>
      </trkpt>
      <trkpt lat="43.62388" lon="6.60071">
        <ele>627.2</ele>
        <time>2019-02-17T12:30:12Z</time>
      </trkpt>
      <trkpt lat="43.62386" lon="6.60057">
        <ele>626.3</ele>
        <time>2019-02-17T12:30:21Z</time>
      </trkpt>
      <trkpt lat="43.6238" lon="6.60045">
        <ele>625.4</ele>
        <time>2019-02-17T12:30:28Z</time>
      </trkpt>
      <trkpt lat="43.62377" lon="6.60033">
        <ele>624.4</ele>
        <time>2019-02-17T12:30:36Z</time>
      </trkpt>
      <trkpt lat="43.62377" lon="6.6002">
        <ele>622.7</ele>
        <time>2019-02-17T12:30:44Z</time>
      </trkpt>
      <trkpt lat="43.62373" lon="6.60006">
        <ele>622</ele>
        <time>2019-02-17T12:30:53Z</time>
      </trkpt>
      <trkpt lat="43.62369" lon="6.59993">
        <ele>621.8</ele>
        <time>2019-02-17T12:31:01Z</time>
      </trkpt>
      <trkpt lat="43.62364" lon="6.59983">
        <ele>621.6</ele>
        <time>2019-02-17T12:31:08Z</time>
      </trkpt>
      <trkpt lat="43.62364" lon="6.59969">
        <ele>620.7</ele>
        <time>2019-02-17T12:31:17Z</time>
      </trkpt>
      <trkpt lat="43.62366" lon="6.59956">
        <ele>620.3</ele>
        <time>2019-02-17T12:31:24Z</time>
      </trkpt>
      <trkpt lat="43.62363" lon="6.59943">
        <ele>619.4</ele>
        <time>2019-02-17T12:31:33Z</time>
      </trkpt>
      <trkpt lat="43.62359" lon="6.59931">
        <ele>618.2</ele>
        <time>2019-02-17T12:31:42Z</time>
      </trkpt>
      <trkpt lat="43.62355" lon="6.59918">
        <ele>617.1</ele>
        <time>2019-02-17T12:31:52Z</time>
      </trkpt>
      <trkpt lat="43.62347" lon="6.59907">
        <ele>616.4</ele>
        <time>2019-02-17T12:31:58Z</time>
      </trkpt>
      <trkpt lat="43.62346" lon="6.59894">
        <ele>614.8</ele>
        <time>2019-02-17T12:32:10Z</time>
      </trkpt>
      <trkpt lat="43.62342" lon="6.59882">
        <ele>613.1</ele>
        <time>2019-02-17T12:32:19Z</time>
      </trkpt>
      <trkpt lat="43.62339" lon="6.5987">
        <ele>612</ele>
        <time>2019-02-17T12:32:26Z</time>
      </trkpt>
      <trkpt lat="43.62335" lon="6.59857">
        <ele>610.2</ele>
        <time>2019-02-17T12:32:35Z</time>
      </trkpt>
      <trkpt lat="43.62331" lon="6.59844">
        <ele>608.8</ele>
        <time>2019-02-17T12:32:44Z</time>
      </trkpt>
      <trkpt lat="43.62329" lon="6.59831">
        <ele>607.6</ele>
        <time>2019-02-17T12:32:53Z</time>
      </trkpt>
      <trkpt lat="43.62326" lon="6.59818">
        <ele>605.7</ele>
        <time>2019-02-17T12:33:03Z</time>
      </trkpt>
      <trkpt lat="43.62319" lon="6.59809">
        <ele>604.2</ele>
        <time>2019-02-17T12:33:14Z</time>
      </trkpt>
      <trkpt lat="43.62312" lon="6.59801">
        <ele>603.7</ele>
        <time>2019-02-17T12:33:21Z</time>
      </trkpt>
      <trkpt lat="43.62308" lon="6.59789">
        <ele>602.7</ele>
        <time>2019-02-17T12:33:30Z</time>
      </trkpt>
      <trkpt lat="43.62302" lon="6.59778">
        <ele>601</ele>
        <time>2019-02-17T12:33:40Z</time>
      </trkpt>
      <trkpt lat="43.62295" lon="6.5977">
        <ele>599.7</ele>
        <time>2019-02-17T12:33:51Z</time>
      </trkpt>
      <trkpt lat="43.62287" lon="6.59763">
        <ele>599</ele>
        <time>2019-02-17T12:34:16Z</time>
      </trkpt>
      <trkpt lat="43.62278" lon="6.59759">
        <ele>598</ele>
        <time>2019-02-17T12:36:12Z</time>
      </trkpt>
      <trkpt lat="43.6227" lon="6.59751">
        <ele>597.7</ele>
        <time>2019-02-17T12:36:22Z</time>
      </trkpt>
      <trkpt lat="43.62268" lon="6.59738">
        <ele>596.5</ele>
        <time>2019-02-17T12:36:32Z</time>
      </trkpt>
      <trkpt lat="43.62262" lon="6.59728">
        <ele>596</ele>
        <time>2019-02-17T12:36:39Z</time>
      </trkpt>
      <trkpt lat="43.62261" lon="6.59714">
        <ele>595.3</ele>
        <time>2019-02-17T12:36:48Z</time>
      </trkpt>
      <trkpt lat="43.62265" lon="6.59703">
        <ele>594.5</ele>
        <time>2019-02-17T12:36:55Z</time>
      </trkpt>
      <trkpt lat="43.62262" lon="6.59692">
        <ele>593.8</ele>
        <time>2019-02-17T12:37:02Z</time>
      </trkpt>
      <trkpt lat="43.62258" lon="6.59678">
        <ele>593.4</ele>
        <time>2019-02-17T12:37:11Z</time>
      </trkpt>
      <trkpt lat="43.62251" lon="6.5967">
        <ele>592.9</ele>
        <time>2019-02-17T12:37:17Z</time>
      </trkpt>
      <trkpt lat="43.62246" lon="6.59659">
        <ele>592.1</ele>
        <time>2019-02-17T12:37:25Z</time>
      </trkpt>
      <trkpt lat="43.62244" lon="6.59647">
        <ele>591.9</ele>
        <time>2019-02-17T12:37:34Z</time>
      </trkpt>
      <trkpt lat="43.62246" lon="6.59634">
        <ele>590.2</ele>
        <time>2019-02-17T12:37:42Z</time>
      </trkpt>
      <trkpt lat="43.6225" lon="6.59623">
        <ele>589.5</ele>
        <time>2019-02-17T12:37:49Z</time>
      </trkpt>
      <trkpt lat="43.6225" lon="6.5961">
        <ele>588.9</ele>
        <time>2019-02-17T12:37:56Z</time>
      </trkpt>
      <trkpt lat="43.62255" lon="6.59599">
        <ele>587.8</ele>
        <time>2019-02-17T12:38:03Z</time>
      </trkpt>
      <trkpt lat="43.62257" lon="6.59587">
        <ele>586.6</ele>
        <time>2019-02-17T12:38:12Z</time>
      </trkpt>
      <trkpt lat="43.62256" lon="6.59573">
        <ele>585.5</ele>
        <time>2019-02-17T12:38:20Z</time>
      </trkpt>
      <trkpt lat="43.62254" lon="6.59561">
        <ele>584.1</ele>
        <time>2019-02-17T12:38:28Z</time>
      </trkpt>
      <trkpt lat="43.62254" lon="6.59548">
        <ele>582.9</ele>
        <time>2019-02-17T12:38:36Z</time>
      </trkpt>
      <trkpt lat="43.62257" lon="6.59534">
        <ele>581.9</ele>
        <time>2019-02-17T12:38:44Z</time>
      </trkpt>
      <trkpt lat="43.6226" lon="6.59521">
        <ele>580.6</ele>
        <time>2019-02-17T12:38:52Z</time>
      </trkpt>
      <trkpt lat="43.6226" lon="6.59507">
        <ele>580.2</ele>
        <time>2019-02-17T12:39:00Z</time>
      </trkpt>
      <trkpt lat="43.62255" lon="6.59494">
        <ele>579.8</ele>
        <time>2019-02-17T12:39:09Z</time>
      </trkpt>
      <trkpt lat="43.62252" lon="6.59482">
        <ele>579.3</ele>
        <time>2019-02-17T12:39:16Z</time>
      </trkpt>
      <trkpt lat="43.62249" lon="6.59471">
        <ele>578.6</ele>
        <time>2019-02-17T12:39:23Z</time>
      </trkpt>
      <trkpt lat="43.62246" lon="6.59459">
        <ele>578.5</ele>
        <time>2019-02-17T12:39:31Z</time>
      </trkpt>
      <trkpt lat="43.6224" lon="6.59447">
        <ele>578.3</ele>
        <time>2019-02-17T12:39:39Z</time>
      </trkpt>
      <trkpt lat="43.62232" lon="6.59436">
        <ele>577.8</ele>
        <time>2019-02-17T12:39:46Z</time>
      </trkpt>
      <trkpt lat="43.62231" lon="6.59422">
        <ele>577.1</ele>
        <time>2019-02-17T12:39:55Z</time>
      </trkpt>
      <trkpt lat="43.62229" lon="6.59408">
        <ele>575.6</ele>
        <time>2019-02-17T12:40:04Z</time>
      </trkpt>
      <trkpt lat="43.62224" lon="6.59395">
        <ele>574.5</ele>
        <time>2019-02-17T12:40:13Z</time>
      </trkpt>
      <trkpt lat="43.6222" lon="6.59382">
        <ele>572.7</ele>
        <time>2019-02-17T12:40:23Z</time>
      </trkpt>
      <trkpt lat="43.62218" lon="6.5937">
        <ele>571.4</ele>
        <time>2019-02-17T12:40:31Z</time>
      </trkpt>
      <trkpt lat="43.62217" lon="6.59357">
        <ele>569.9</ele>
        <time>2019-02-17T12:40:39Z</time>
      </trkpt>
      <trkpt lat="43.62226" lon="6.59356">
        <ele>568.6</ele>
        <time>2019-02-17T12:40:49Z</time>
      </trkpt>
      <trkpt lat="43.6223" lon="6.59367">
        <ele>567</ele>
        <time>2019-02-17T12:40:59Z</time>
      </trkpt>
      <trkpt lat="43.62236" lon="6.59377">
        <ele>566.4</ele>
        <time>2019-02-17T12:41:07Z</time>
      </trkpt>
      <trkpt lat="43.62245" lon="6.59374">
        <ele>564.2</ele>
        <time>2019-02-17T12:41:18Z</time>
      </trkpt>
      <trkpt lat="43.62245" lon="6.59361">
        <ele>563.5</ele>
        <time>2019-02-17T12:41:27Z</time>
      </trkpt>
      <trkpt lat="43.6224" lon="6.59351">
        <ele>562.8</ele>
        <time>2019-02-17T12:41:38Z</time>
      </trkpt>
      <trkpt lat="43.62242" lon="6.59339">
        <ele>561.1</ele>
        <time>2019-02-17T12:41:52Z</time>
      </trkpt>
      <trkpt lat="43.6224" lon="6.59327">
        <ele>559.4</ele>
        <time>2019-02-17T12:42:02Z</time>
      </trkpt>
      <trkpt lat="43.62238" lon="6.59313">
        <ele>557.7</ele>
        <time>2019-02-17T12:42:12Z</time>
      </trkpt>
      <trkpt lat="43.62241" lon="6.59301">
        <ele>555.3</ele>
        <time>2019-02-17T12:42:24Z</time>
      </trkpt>
      <trkpt lat="43.62238" lon="6.59287">
        <ele>553.8</ele>
        <time>2019-02-17T12:42:34Z</time>
      </trkpt>
      <trkpt lat="43.62239" lon="6.59275">
        <ele>551.5</ele>
        <time>2019-02-17T12:42:44Z</time>
      </trkpt>
      <trkpt lat="43.62243" lon="6.59263">
        <ele>550</ele>
        <time>2019-02-17T12:42:55Z</time>
      </trkpt>
      <trkpt lat="43.62249" lon="6.59253">
        <ele>548.8</ele>
        <time>2019-02-17T12:43:04Z</time>
      </trkpt>
      <trkpt lat="43.62253" lon="6.59241">
        <ele>546.8</ele>
        <time>2019-02-17T12:43:14Z</time>
      </trkpt>
      <trkpt lat="43.62254" lon="6.59228">
        <ele>545.5</ele>
        <time>2019-02-17T12:43:21Z</time>
      </trkpt>
      <trkpt lat="43.62253" lon="6.59215">
        <ele>544.1</ele>
        <time>2019-02-17T12:43:30Z</time>
      </trkpt>
      <trkpt lat="43.62258" lon="6.59202">
        <ele>542.1</ele>
        <time>2019-02-17T12:43:40Z</time>
      </trkpt>
      <trkpt lat="43.62258" lon="6.5919">
        <ele>540</ele>
        <time>2019-02-17T12:43:50Z</time>
      </trkpt>
      <trkpt lat="43.62257" lon="6.59177">
        <ele>538.6</ele>
        <time>2019-02-17T12:43:59Z</time>
      </trkpt>
      <trkpt lat="43.62255" lon="6.59165">
        <ele>537.2</ele>
        <time>2019-02-17T12:44:08Z</time>
      </trkpt>
      <trkpt lat="43.62253" lon="6.59152">
        <ele>535.9</ele>
        <time>2019-02-17T12:44:18Z</time>
      </trkpt>
      <trkpt lat="43.62254" lon="6.59139">
        <ele>534.3</ele>
        <time>2019-02-17T12:44:28Z</time>
      </trkpt>
      <trkpt lat="43.62248" lon="6.5913">
        <ele>533</ele>
        <time>2019-02-17T12:44:34Z</time>
      </trkpt>
      <trkpt lat="43.62248" lon="6.59116">
        <ele>531.9</ele>
        <time>2019-02-17T12:44:42Z</time>
      </trkpt>
      <trkpt lat="43.6225" lon="6.59103">
        <ele>531.5</ele>
        <time>2019-02-17T12:44:50Z</time>
      </trkpt>
      <trkpt lat="43.62247" lon="6.59091">
        <ele>530.9</ele>
        <time>2019-02-17T12:44:57Z</time>
      </trkpt>
      <trkpt lat="43.62249" lon="6.59078">
        <ele>530.2</ele>
        <time>2019-02-17T12:45:04Z</time>
      </trkpt>
      <trkpt lat="43.62244" lon="6.59066">
        <ele>529.2</ele>
        <time>2019-02-17T12:45:11Z</time>
      </trkpt>
      <trkpt lat="43.62245" lon="6.59053">
        <ele>527.9</ele>
        <time>2019-02-17T12:45:20Z</time>
      </trkpt>
      <trkpt lat="43.62244" lon="6.5904">
        <ele>526.4</ele>
        <time>2019-02-17T12:45:29Z</time>
      </trkpt>
      <trkpt lat="43.62245" lon="6.59027">
        <ele>525.6</ele>
        <time>2019-02-17T12:45:37Z</time>
      </trkpt>
      <trkpt lat="43.62242" lon="6.59015">
        <ele>525</ele>
        <time>2019-02-17T12:45:43Z</time>
      </trkpt>
      <trkpt lat="43.6224" lon="6.59001">
        <ele>525.3</ele>
        <time>2019-02-17T12:45:51Z</time>
      </trkpt>
      <trkpt lat="43.62239" lon="6.58988">
        <ele>525.5</ele>
        <time>2019-02-17T12:46:01Z</time>
      </trkpt>
      <trkpt lat="43.62239" lon="6.58976">
        <ele>524.9</ele>
        <time>2019-02-17T12:46:29Z</time>
      </trkpt>
      <trkpt lat="43.62234" lon="6.58964">
        <ele>524.7</ele>
        <time>2019-02-17T12:46:37Z</time>
      </trkpt>
      <trkpt lat="43.62234" lon="6.58951">
        <ele>523.6</ele>
        <time>2019-02-17T12:46:50Z</time>
      </trkpt>
      <trkpt lat="43.62231" lon="6.58939">
        <ele>523</ele>
        <time>2019-02-17T12:46:56Z</time>
      </trkpt>
      <trkpt lat="43.62225" lon="6.58929">
        <ele>522</ele>
        <time>2019-02-17T12:47:02Z</time>
      </trkpt>
      <trkpt lat="43.62222" lon="6.58917">
        <ele>521.2</ele>
        <time>2019-02-17T12:47:10Z</time>
      </trkpt>
      <trkpt lat="43.62216" lon="6.58905">
        <ele>519.8</ele>
        <time>2019-02-17T12:47:19Z</time>
      </trkpt>
      <trkpt lat="43.62214" lon="6.58893">
        <ele>518.2</ele>
        <time>2019-02-17T12:47:28Z</time>
      </trkpt>
      <trkpt lat="43.62213" lon="6.5888">
        <ele>516.6</ele>
        <time>2019-02-17T12:47:38Z</time>
      </trkpt>
      <trkpt lat="43.62212" lon="6.58868">
        <ele>515.6</ele>
        <time>2019-02-17T12:47:47Z</time>
      </trkpt>
      <trkpt lat="43.62207" lon="6.58855">
        <ele>514.1</ele>
        <time>2019-02-17T12:47:57Z</time>
      </trkpt>
      <trkpt lat="43.62206" lon="6.58843">
        <ele>513.2</ele>
        <time>2019-02-17T12:48:06Z</time>
      </trkpt>
      <trkpt lat="43.622" lon="6.58833">
        <ele>512</ele>
        <time>2019-02-17T12:48:12Z</time>
      </trkpt>
      <trkpt lat="43.62193" lon="6.58824">
        <ele>511.1</ele>
        <time>2019-02-17T12:48:17Z</time>
      </trkpt>
      <trkpt lat="43.62195" lon="6.58812">
        <ele>509.5</ele>
        <time>2019-02-17T12:48:26Z</time>
      </trkpt>
      <trkpt lat="43.62192" lon="6.58799">
        <ele>508.4</ele>
        <time>2019-02-17T12:48:34Z</time>
      </trkpt>
      <trkpt lat="43.62189" lon="6.58786">
        <ele>507.1</ele>
        <time>2019-02-17T12:48:43Z</time>
      </trkpt>
      <trkpt lat="43.62188" lon="6.58774">
        <ele>505.9</ele>
        <time>2019-02-17T12:48:54Z</time>
      </trkpt>
      <trkpt lat="43.62188" lon="6.58761">
        <ele>503</ele>
        <time>2019-02-17T12:49:11Z</time>
      </trkpt>
      <trkpt lat="43.6218" lon="6.58754">
        <ele>503</ele>
        <time>2019-02-17T12:49:19Z</time>
      </trkpt>
      <trkpt lat="43.62171" lon="6.5875">
        <ele>501.3</ele>
        <time>2019-02-17T12:49:30Z</time>
      </trkpt>
      <trkpt lat="43.62164" lon="6.58742">
        <ele>499.7</ele>
        <time>2019-02-17T12:49:37Z</time>
      </trkpt>
      <trkpt lat="43.62164" lon="6.58729">
        <ele>497.5</ele>
        <time>2019-02-17T12:49:50Z</time>
      </trkpt>
      <trkpt lat="43.62167" lon="6.58716">
        <ele>495.6</ele>
        <time>2019-02-17T12:50:02Z</time>
      </trkpt>
      <trkpt lat="43.62167" lon="6.58703">
        <ele>494.6</ele>
        <time>2019-02-17T12:50:11Z</time>
      </trkpt>
      <trkpt lat="43.62167" lon="6.58691">
        <ele>493.1</ele>
        <time>2019-02-17T12:50:20Z</time>
      </trkpt>
      <trkpt lat="43.62171" lon="6.58679">
        <ele>491.4</ele>
        <time>2019-02-17T12:50:30Z</time>
      </trkpt>
      <trkpt lat="43.62167" lon="6.58667">
        <ele>489.8</ele>
        <time>2019-02-17T12:50:37Z</time>
      </trkpt>
      <trkpt lat="43.62162" lon="6.58657">
        <ele>489.1</ele>
        <time>2019-02-17T12:50:44Z</time>
      </trkpt>
      <trkpt lat="43.62161" lon="6.58644">
        <ele>487.9</ele>
        <time>2019-02-17T12:50:53Z</time>
      </trkpt>
      <trkpt lat="43.62159" lon="6.58631">
        <ele>486.7</ele>
        <time>2019-02-17T12:51:04Z</time>
      </trkpt>
      <trkpt lat="43.62151" lon="6.58621">
        <ele>485.4</ele>
        <time>2019-02-17T12:51:16Z</time>
      </trkpt>
      <trkpt lat="43.62143" lon="6.58616">
        <ele>484.8</ele>
        <time>2019-02-17T12:51:35Z</time>
      </trkpt>
      <trkpt lat="43.62142" lon="6.58603">
        <ele>484.5</ele>
        <time>2019-02-17T12:52:26Z</time>
      </trkpt>
      <trkpt lat="43.62143" lon="6.5859">
        <ele>483.7</ele>
        <time>2019-02-17T12:52:36Z</time>
      </trkpt>
      <trkpt lat="43.62146" lon="6.58577">
        <ele>483.1</ele>
        <time>2019-02-17T12:52:46Z</time>
      </trkpt>
      <trkpt lat="43.6215" lon="6.58566">
        <ele>482</ele>
        <time>2019-02-17T12:52:57Z</time>
      </trkpt>
      <trkpt lat="43.62151" lon="6.58553">
        <ele>481.1</ele>
        <time>2019-02-17T12:53:07Z</time>
      </trkpt>
      <trkpt lat="43.62149" lon="6.5854">
        <ele>479.7</ele>
        <time>2019-02-17T12:53:16Z</time>
      </trkpt>
      <trkpt lat="43.6215" lon="6.58527">
        <ele>478.8</ele>
        <time>2019-02-17T12:53:26Z</time>
      </trkpt>
      <trkpt lat="43.62151" lon="6.58514">
        <ele>477.7</ele>
        <time>2019-02-17T12:53:37Z</time>
      </trkpt>
      <trkpt lat="43.6215" lon="6.585">
        <ele>476.2</ele>
        <time>2019-02-17T12:53:46Z</time>
      </trkpt>
      <trkpt lat="43.62151" lon="6.58486">
        <ele>474.5</ele>
        <time>2019-02-17T12:53:54Z</time>
      </trkpt>
      <trkpt lat="43.62151" lon="6.58473">
        <ele>473</ele>
        <time>2019-02-17T12:54:02Z</time>
      </trkpt>
      <trkpt lat="43.62151" lon="6.5846">
        <ele>471.3</ele>
        <time>2019-02-17T12:54:11Z</time>
      </trkpt>
      <trkpt lat="43.62152" lon="6.58447">
        <ele>470.4</ele>
        <time>2019-02-17T12:54:20Z</time>
      </trkpt>
      <trkpt lat="43.6215" lon="6.58434">
        <ele>468.8</ele>
        <time>2019-02-17T12:54:29Z</time>
      </trkpt>
      <trkpt lat="43.62146" lon="6.58421">
        <ele>468.1</ele>
        <time>2019-02-17T12:54:37Z</time>
      </trkpt>
      <trkpt lat="43.62144" lon="6.58409">
        <ele>466.8</ele>
        <time>2019-02-17T12:54:45Z</time>
      </trkpt>
      <trkpt lat="43.6214" lon="6.58397">
        <ele>465.8</ele>
        <time>2019-02-17T12:54:54Z</time>
      </trkpt>
      <trkpt lat="43.62137" lon="6.58384">
        <ele>464.9</ele>
        <time>2019-02-17T12:55:02Z</time>
      </trkpt>
      <trkpt lat="43.62137" lon="6.58371">
        <ele>463.5</ele>
        <time>2019-02-17T12:55:12Z</time>
      </trkpt>
      <trkpt lat="43.62134" lon="6.58359">
        <ele>463</ele>
        <time>2019-02-17T12:55:19Z</time>
      </trkpt>
      <trkpt lat="43.6213" lon="6.58347">
        <ele>462.3</ele>
        <time>2019-02-17T12:55:26Z</time>
      </trkpt>
      <trkpt lat="43.62127" lon="6.58334">
        <ele>461.3</ele>
        <time>2019-02-17T12:55:35Z</time>
      </trkpt>
      <trkpt lat="43.62124" lon="6.58322">
        <ele>459.6</ele>
        <time>2019-02-17T12:55:45Z</time>
      </trkpt>
      <trkpt lat="43.62122" lon="6.58309">
        <ele>457.8</ele>
        <time>2019-02-17T12:55:57Z</time>
      </trkpt>
      <trkpt lat="43.62119" lon="6.58297">
        <ele>456.7</ele>
        <time>2019-02-17T12:56:06Z</time>
      </trkpt>
      <trkpt lat="43.62111" lon="6.58288">
        <ele>455.5</ele>
        <time>2019-02-17T12:56:12Z</time>
      </trkpt>
      <trkpt lat="43.62107" lon="6.58276">
        <ele>454.2</ele>
        <time>2019-02-17T12:56:22Z</time>
      </trkpt>
      <trkpt lat="43.621" lon="6.58265">
        <ele>452.7</ele>
        <time>2019-02-17T12:56:31Z</time>
      </trkpt>
      <trkpt lat="43.62095" lon="6.58254">
        <ele>451.2</ele>
        <time>2019-02-17T12:56:42Z</time>
      </trkpt>
      <trkpt lat="43.62088" lon="6.58245">
        <ele>449.9</ele>
        <time>2019-02-17T12:56:50Z</time>
      </trkpt>
      <trkpt lat="43.62086" lon="6.58231">
        <ele>447.7</ele>
        <time>2019-02-17T12:57:02Z</time>
      </trkpt>
      <trkpt lat="43.62085" lon="6.58218">
        <ele>447.1</ele>
        <time>2019-02-17T12:57:10Z</time>
      </trkpt>
      <trkpt lat="43.6208" lon="6.58207">
        <ele>446.4</ele>
        <time>2019-02-17T12:57:17Z</time>
      </trkpt>
      <trkpt lat="43.6208" lon="6.58193">
        <ele>445.3</ele>
        <time>2019-02-17T12:57:26Z</time>
      </trkpt>
      <trkpt lat="43.62088" lon="6.58186">
        <ele>443</ele>
        <time>2019-02-17T12:57:40Z</time>
      </trkpt>
      <trkpt lat="43.62097" lon="6.58183">
        <ele>442.2</ele>
        <time>2019-02-17T12:57:49Z</time>
      </trkpt>
      <trkpt lat="43.62102" lon="6.58172">
        <ele>441.5</ele>
        <time>2019-02-17T12:58:01Z</time>
      </trkpt>
      <trkpt lat="43.62097" lon="6.58162">
        <ele>441.1</ele>
        <time>2019-02-17T12:58:20Z</time>
      </trkpt>
      <trkpt lat="43.62093" lon="6.5815">
        <ele>440.8</ele>
        <time>2019-02-17T12:59:11Z</time>
      </trkpt>
      <trkpt lat="43.62101" lon="6.58142">
        <ele>439.4</ele>
        <time>2019-02-17T12:59:35Z</time>
      </trkpt>
      <trkpt lat="43.62094" lon="6.58135">
        <ele>437.5</ele>
        <time>2019-02-17T13:00:11Z</time>
      </trkpt>
      <trkpt lat="43.62091" lon="6.58123">
        <ele>435.7</ele>
        <time>2019-02-17T13:00:24Z</time>
      </trkpt>
      <trkpt lat="43.62083" lon="6.58113">
        <ele>433.7</ele>
        <time>2019-02-17T13:00:34Z</time>
      </trkpt>
      <trkpt lat="43.62078" lon="6.58102">
        <ele>432</ele>
        <time>2019-02-17T13:00:44Z</time>
      </trkpt>
      <trkpt lat="43.62076" lon="6.5809">
        <ele>430.6</ele>
        <time>2019-02-17T13:00:54Z</time>
      </trkpt>
      <trkpt lat="43.62076" lon="6.58077">
        <ele>428.7</ele>
        <time>2019-02-17T13:01:05Z</time>
      </trkpt>
      <trkpt lat="43.62075" lon="6.58063">
        <ele>427.6</ele>
        <time>2019-02-17T13:01:16Z</time>
      </trkpt>
      <trkpt lat="43.62074" lon="6.58051">
        <ele>425.9</ele>
        <time>2019-02-17T13:01:28Z</time>
      </trkpt>
      <trkpt lat="43.62078" lon="6.58038">
        <ele>424.6</ele>
        <time>2019-02-17T13:01:38Z</time>
      </trkpt>
      <trkpt lat="43.62078" lon="6.58025">
        <ele>423.4</ele>
        <time>2019-02-17T13:01:46Z</time>
      </trkpt>
      <trkpt lat="43.62075" lon="6.58012">
        <ele>422</ele>
        <time>2019-02-17T13:01:53Z</time>
      </trkpt>
      <trkpt lat="43.62073" lon="6.58">
        <ele>420.9</ele>
        <time>2019-02-17T13:02:02Z</time>
      </trkpt>
      <trkpt lat="43.62069" lon="6.57987">
        <ele>419.4</ele>
        <time>2019-02-17T13:02:11Z</time>
      </trkpt>
      <trkpt lat="43.62062" lon="6.57978">
        <ele>417.5</ele>
        <time>2019-02-17T13:02:19Z</time>
      </trkpt>
      <trkpt lat="43.62057" lon="6.57968">
        <ele>416.2</ele>
        <time>2019-02-17T13:02:30Z</time>
      </trkpt>
      <trkpt lat="43.62053" lon="6.57955">
        <ele>414.5</ele>
        <time>2019-02-17T13:02:41Z</time>
      </trkpt>
      <trkpt lat="43.62047" lon="6.57945">
        <ele>412.4</ele>
        <time>2019-02-17T13:02:51Z</time>
      </trkpt>
      <trkpt lat="43.62041" lon="6.57935">
        <ele>410</ele>
        <time>2019-02-17T13:03:03Z</time>
      </trkpt>
      <trkpt lat="43.62037" lon="6.57923">
        <ele>408.1</ele>
        <time>2019-02-17T13:03:12Z</time>
      </trkpt>
      <trkpt lat="43.62034" lon="6.5791">
        <ele>405.4</ele>
        <time>2019-02-17T13:03:24Z</time>
      </trkpt>
      <trkpt lat="43.62031" lon="6.57897">
        <ele>404</ele>
        <time>2019-02-17T13:03:32Z</time>
      </trkpt>
      <trkpt lat="43.62029" lon="6.57884">
        <ele>402.2</ele>
        <time>2019-02-17T13:03:42Z</time>
      </trkpt>
      <trkpt lat="43.62028" lon="6.57871">
        <ele>400.6</ele>
        <time>2019-02-17T13:03:51Z</time>
      </trkpt>
      <trkpt lat="43.62026" lon="6.57857">
        <ele>398.7</ele>
        <time>2019-02-17T13:04:01Z</time>
      </trkpt>
      <trkpt lat="43.62025" lon="6.57844">
        <ele>397.3</ele>
        <time>2019-02-17T13:04:09Z</time>
      </trkpt>
      <trkpt lat="43.62026" lon="6.57831">
        <ele>395.7</ele>
        <time>2019-02-17T13:04:19Z</time>
      </trkpt>
      <trkpt lat="43.62024" lon="6.57818">
        <ele>393.7</ele>
        <time>2019-02-17T13:04:29Z</time>
      </trkpt>
      <trkpt lat="43.62022" lon="6.57806">
        <ele>392.1</ele>
        <time>2019-02-17T13:04:37Z</time>
      </trkpt>
      <trkpt lat="43.62019" lon="6.57793">
        <ele>390.5</ele>
        <time>2019-02-17T13:04:46Z</time>
      </trkpt>
      <trkpt lat="43.62015" lon="6.57782">
        <ele>388.4</ele>
        <time>2019-02-17T13:04:59Z</time>
      </trkpt>
      <trkpt lat="43.62009" lon="6.57772">
        <ele>386.7</ele>
        <time>2019-02-17T13:05:08Z</time>
      </trkpt>
      <trkpt lat="43.62006" lon="6.5776">
        <ele>385.1</ele>
        <time>2019-02-17T13:05:19Z</time>
      </trkpt>
      <trkpt lat="43.62002" lon="6.57749">
        <ele>383</ele>
        <time>2019-02-17T13:05:29Z</time>
      </trkpt>
      <trkpt lat="43.61999" lon="6.57736">
        <ele>381.7</ele>
        <time>2019-02-17T13:05:39Z</time>
      </trkpt>
      <trkpt lat="43.61995" lon="6.57724">
        <ele>380</ele>
        <time>2019-02-17T13:05:49Z</time>
      </trkpt>
      <trkpt lat="43.6199" lon="6.57713">
        <ele>378.2</ele>
        <time>2019-02-17T13:05:58Z</time>
      </trkpt>
      <trkpt lat="43.61986" lon="6.57701">
        <ele>376.8</ele>
        <time>2019-02-17T13:06:09Z</time>
      </trkpt>
      <trkpt lat="43.61982" lon="6.57689">
        <ele>375.4</ele>
        <time>2019-02-17T13:06:17Z</time>
      </trkpt>
      <trkpt lat="43.61979" lon="6.57677">
        <ele>374.6</ele>
        <time>2019-02-17T13:06:25Z</time>
      </trkpt>
      <trkpt lat="43.61978" lon="6.57664">
        <ele>373.5</ele>
        <time>2019-02-17T13:06:34Z</time>
      </trkpt>
      <trkpt lat="43.61978" lon="6.57652">
        <ele>372.7</ele>
        <time>2019-02-17T13:06:42Z</time>
      </trkpt>
      <trkpt lat="43.61973" lon="6.5764">
        <ele>372.3</ele>
        <time>2019-02-17T13:06:50Z</time>
      </trkpt>
      <trkpt lat="43.61968" lon="6.57629">
        <ele>371.8</ele>
        <time>2019-02-17T13:06:57Z</time>
      </trkpt>
      <trkpt lat="43.61963" lon="6.57618">
        <ele>371.1</ele>
        <time>2019-02-17T13:07:06Z</time>
      </trkpt>
      <trkpt lat="43.61962" lon="6.57605">
        <ele>370.6</ele>
        <time>2019-02-17T13:07:14Z</time>
      </trkpt>
      <trkpt lat="43.61958" lon="6.57593">
        <ele>370.4</ele>
        <time>2019-02-17T13:07:21Z</time>
      </trkpt>
      <trkpt lat="43.61955" lon="6.57581">
        <ele>370.1</ele>
        <time>2019-02-17T13:07:30Z</time>
      </trkpt>
      <trkpt lat="43.61945" lon="6.57579">
        <ele>369.7</ele>
        <time>2019-02-17T13:07:44Z</time>
      </trkpt>
      <trkpt lat="43.61937" lon="6.57586">
        <ele>370.7</ele>
        <time>2019-02-17T13:07:56Z</time>
      </trkpt>
      <trkpt lat="43.61947" lon="6.57582">
        <ele>370.8</ele>
        <time>2019-02-17T13:08:16Z</time>
      </trkpt>
      <trkpt lat="43.61948" lon="6.5757">
        <ele>370.3</ele>
        <time>2019-02-17T13:15:27Z</time>
      </trkpt>
      <trkpt lat="43.61944" lon="6.57557">
        <ele>370.1</ele>
        <time>2019-02-17T13:15:38Z</time>
      </trkpt>
      <trkpt lat="43.6194" lon="6.57544">
        <ele>370.1</ele>
        <time>2019-02-17T13:15:48Z</time>
      </trkpt>
      <trkpt lat="43.61937" lon="6.57532">
        <ele>370.2</ele>
        <time>2019-02-17T13:15:59Z</time>
      </trkpt>
      <trkpt lat="43.61933" lon="6.57521">
        <ele>369.9</ele>
        <time>2019-02-17T13:16:07Z</time>
      </trkpt>
      <trkpt lat="43.61928" lon="6.5751">
        <ele>369.9</ele>
        <time>2019-02-17T13:16:16Z</time>
      </trkpt>
      <trkpt lat="43.61923" lon="6.57499">
        <ele>369.4</ele>
        <time>2019-02-17T13:16:24Z</time>
      </trkpt>
      <trkpt lat="43.6192" lon="6.57485">
        <ele>368.7</ele>
        <time>2019-02-17T13:16:33Z</time>
      </trkpt>
      <trkpt lat="43.61916" lon="6.57474">
        <ele>368</ele>
        <time>2019-02-17T13:16:41Z</time>
      </trkpt>
      <trkpt lat="43.61911" lon="6.57464">
        <ele>367.6</ele>
        <time>2019-02-17T13:16:48Z</time>
      </trkpt>
      <trkpt lat="43.61906" lon="6.57452">
        <ele>367.4</ele>
        <time>2019-02-17T13:16:56Z</time>
      </trkpt>
      <trkpt lat="43.61905" lon="6.57439">
        <ele>366.8</ele>
        <time>2019-02-17T13:17:05Z</time>
      </trkpt>
      <trkpt lat="43.61903" lon="6.57426">
        <ele>366.4</ele>
        <time>2019-02-17T13:17:15Z</time>
      </trkpt>
      <trkpt lat="43.61896" lon="6.57418">
        <ele>366.1</ele>
        <time>2019-02-17T13:17:23Z</time>
      </trkpt>
      <trkpt lat="43.6189" lon="6.57408">
        <ele>365.8</ele>
        <time>2019-02-17T13:17:33Z</time>
      </trkpt>
      <trkpt lat="43.61892" lon="6.57395">
        <ele>365.5</ele>
        <time>2019-02-17T13:17:42Z</time>
      </trkpt>
      <trkpt lat="43.61891" lon="6.57382">
        <ele>365</ele>
        <time>2019-02-17T13:17:49Z</time>
      </trkpt>
      <trkpt lat="43.61887" lon="6.5737">
        <ele>364.6</ele>
        <time>2019-02-17T13:17:56Z</time>
      </trkpt>
      <trkpt lat="43.61883" lon="6.57359">
        <ele>364.2</ele>
        <time>2019-02-17T13:18:03Z</time>
      </trkpt>
      <trkpt lat="43.6188" lon="6.57346">
        <ele>363.7</ele>
        <time>2019-02-17T13:18:10Z</time>
      </trkpt>
      <trkpt lat="43.61878" lon="6.57334">
        <ele>364</ele>
        <time>2019-02-17T13:18:18Z</time>
      </trkpt>
      <trkpt lat="43.61876" lon="6.5732">
        <ele>363.2</ele>
        <time>2019-02-17T13:18:26Z</time>
      </trkpt>
      <trkpt lat="43.61874" lon="6.57307">
        <ele>363</ele>
        <time>2019-02-17T13:18:34Z</time>
      </trkpt>
      <trkpt lat="43.61872" lon="6.57295">
        <ele>363</ele>
        <time>2019-02-17T13:18:41Z</time>
      </trkpt>
      <trkpt lat="43.6187" lon="6.57282">
        <ele>362.4</ele>
        <time>2019-02-17T13:18:50Z</time>
      </trkpt>
      <trkpt lat="43.61868" lon="6.5727">
        <ele>362.4</ele>
        <time>2019-02-17T13:18:58Z</time>
      </trkpt>
      <trkpt lat="43.61865" lon="6.57257">
        <ele>361.5</ele>
        <time>2019-02-17T13:19:06Z</time>
      </trkpt>
      <trkpt lat="43.61863" lon="6.57243">
        <ele>361.5</ele>
        <time>2019-02-17T13:19:14Z</time>
      </trkpt>
      <trkpt lat="43.61862" lon="6.57231">
        <ele>360.9</ele>
        <time>2019-02-17T13:19:22Z</time>
      </trkpt>
      <trkpt lat="43.61862" lon="6.57217">
        <ele>360.9</ele>
        <time>2019-02-17T13:19:30Z</time>
      </trkpt>
      <trkpt lat="43.61862" lon="6.57203">
        <ele>360.5</ele>
        <time>2019-02-17T13:19:38Z</time>
      </trkpt>
      <trkpt lat="43.61864" lon="6.57191">
        <ele>360.3</ele>
        <time>2019-02-17T13:19:46Z</time>
      </trkpt>
      <trkpt lat="43.61865" lon="6.57178">
        <ele>360.1</ele>
        <time>2019-02-17T13:19:54Z</time>
      </trkpt>
      <trkpt lat="43.61867" lon="6.57164">
        <ele>360.1</ele>
        <time>2019-02-17T13:20:02Z</time>
      </trkpt>
      <trkpt lat="43.61868" lon="6.5715">
        <ele>359.5</ele>
        <time>2019-02-17T13:20:11Z</time>
      </trkpt>
      <trkpt lat="43.6187" lon="6.57138">
        <ele>358.7</ele>
        <time>2019-02-17T13:20:19Z</time>
      </trkpt>
      <trkpt lat="43.61872" lon="6.57124">
        <ele>358.6</ele>
        <time>2019-02-17T13:20:28Z</time>
      </trkpt>
      <trkpt lat="43.61873" lon="6.57112">
        <ele>358.3</ele>
        <time>2019-02-17T13:20:36Z</time>
      </trkpt>
      <trkpt lat="43.61876" lon="6.57099">
        <ele>358.1</ele>
        <time>2019-02-17T13:20:43Z</time>
      </trkpt>
      <trkpt lat="43.61879" lon="6.57087">
        <ele>357.8</ele>
        <time>2019-02-17T13:20:52Z</time>
      </trkpt>
      <trkpt lat="43.61882" lon="6.57075">
        <ele>357.3</ele>
        <time>2019-02-17T13:20:59Z</time>
      </trkpt>
      <trkpt lat="43.61882" lon="6.57061">
        <ele>356.9</ele>
        <time>2019-02-17T13:21:07Z</time>
      </trkpt>
      <trkpt lat="43.61885" lon="6.57049">
        <ele>356.2</ele>
        <time>2019-02-17T13:21:15Z</time>
      </trkpt>
      <trkpt lat="43.61887" lon="6.57036">
        <ele>356.2</ele>
        <time>2019-02-17T13:21:23Z</time>
      </trkpt>
      <trkpt lat="43.61888" lon="6.57023">
        <ele>355.8</ele>
        <time>2019-02-17T13:21:31Z</time>
      </trkpt>
      <trkpt lat="43.61887" lon="6.5701">
        <ele>355.6</ele>
        <time>2019-02-17T13:21:39Z</time>
      </trkpt>
      <trkpt lat="43.61889" lon="6.56997">
        <ele>355.4</ele>
        <time>2019-02-17T13:21:48Z</time>
      </trkpt>
      <trkpt lat="43.61891" lon="6.56984">
        <ele>355.3</ele>
        <time>2019-02-17T13:21:57Z</time>
      </trkpt>
      <trkpt lat="43.61894" lon="6.56972">
        <ele>354.9</ele>
        <time>2019-02-17T13:22:05Z</time>
      </trkpt>
      <trkpt lat="43.61897" lon="6.5696">
        <ele>354.7</ele>
        <time>2019-02-17T13:22:13Z</time>
      </trkpt>
      <trkpt lat="43.61899" lon="6.56947">
        <ele>354.2</ele>
        <time>2019-02-17T13:22:22Z</time>
      </trkpt>
      <trkpt lat="43.61899" lon="6.56934">
        <ele>353.8</ele>
        <time>2019-02-17T13:22:30Z</time>
      </trkpt>
      <trkpt lat="43.61897" lon="6.5692">
        <ele>353.7</ele>
        <time>2019-02-17T13:22:39Z</time>
      </trkpt>
      <trkpt lat="43.619" lon="6.56908">
        <ele>353.2</ele>
        <time>2019-02-17T13:22:48Z</time>
      </trkpt>
      <trkpt lat="43.61906" lon="6.56896">
        <ele>352.7</ele>
        <time>2019-02-17T13:22:56Z</time>
      </trkpt>
      <trkpt lat="43.61912" lon="6.56885">
        <ele>352.3</ele>
        <time>2019-02-17T13:23:04Z</time>
      </trkpt>
      <trkpt lat="43.61921" lon="6.56879">
        <ele>352.5</ele>
        <time>2019-02-17T13:23:13Z</time>
      </trkpt>
      <trkpt lat="43.61925" lon="6.56867">
        <ele>352.4</ele>
        <time>2019-02-17T13:23:22Z</time>
      </trkpt>
      <trkpt lat="43.61926" lon="6.56854">
        <ele>352</ele>
        <time>2019-02-17T13:23:30Z</time>
      </trkpt>
      <trkpt lat="43.61927" lon="6.5684">
        <ele>351.9</ele>
        <time>2019-02-17T13:24:14Z</time>
      </trkpt>
      <trkpt lat="43.61935" lon="6.56834">
        <ele>351.7</ele>
        <time>2019-02-17T13:24:23Z</time>
      </trkpt>
      <trkpt lat="43.61943" lon="6.56826">
        <ele>351.5</ele>
        <time>2019-02-17T13:24:31Z</time>
      </trkpt>
      <trkpt lat="43.61946" lon="6.56814">
        <ele>352.6</ele>
        <time>2019-02-17T13:25:05Z</time>
      </trkpt>
      <trkpt lat="43.61944" lon="6.56801">
        <ele>351.3</ele>
        <time>2019-02-17T13:25:14Z</time>
      </trkpt>
      <trkpt lat="43.61937" lon="6.5679">
        <ele>351.4</ele>
        <time>2019-02-17T13:25:24Z</time>
      </trkpt>
      <trkpt lat="43.61931" lon="6.5678">
        <ele>351.5</ele>
        <time>2019-02-17T13:25:31Z</time>
      </trkpt>
      <trkpt lat="43.61929" lon="6.56767">
        <ele>351.2</ele>
        <time>2019-02-17T13:25:38Z</time>
      </trkpt>
      <trkpt lat="43.61924" lon="6.56756">
        <ele>350.7</ele>
        <time>2019-02-17T13:25:44Z</time>
      </trkpt>
      <trkpt lat="43.61919" lon="6.56746">
        <ele>350.3</ele>
        <time>2019-02-17T13:25:51Z</time>
      </trkpt>
      <trkpt lat="43.61913" lon="6.56734">
        <ele>350.3</ele>
        <time>2019-02-17T13:25:57Z</time>
      </trkpt>
      <trkpt lat="43.61909" lon="6.56723">
        <ele>350</ele>
        <time>2019-02-17T13:26:05Z</time>
      </trkpt>
      <trkpt lat="43.61903" lon="6.56713">
        <ele>349.7</ele>
        <time>2019-02-17T13:26:14Z</time>
      </trkpt>
      <trkpt lat="43.61897" lon="6.56702">
        <ele>349.5</ele>
        <time>2019-02-17T13:26:21Z</time>
      </trkpt>
      <trkpt lat="43.61892" lon="6.56692">
        <ele>349.3</ele>
        <time>2019-02-17T13:26:28Z</time>
      </trkpt>
      <trkpt lat="43.61887" lon="6.56681">
        <ele>348.8</ele>
        <time>2019-02-17T13:26:35Z</time>
      </trkpt>
      <trkpt lat="43.61881" lon="6.5667">
        <ele>349.1</ele>
        <time>2019-02-17T13:26:43Z</time>
      </trkpt>
      <trkpt lat="43.61874" lon="6.56661">
        <ele>348.2</ele>
        <time>2019-02-17T13:26:51Z</time>
      </trkpt>
      <trkpt lat="43.61868" lon="6.56649">
        <ele>348.5</ele>
        <time>2019-02-17T13:27:00Z</time>
      </trkpt>
      <trkpt lat="43.61861" lon="6.56639">
        <ele>348.6</ele>
        <time>2019-02-17T13:27:08Z</time>
      </trkpt>
      <trkpt lat="43.61857" lon="6.56627">
        <ele>348.1</ele>
        <time>2019-02-17T13:27:17Z</time>
      </trkpt>
      <trkpt lat="43.61851" lon="6.56618">
        <ele>349.1</ele>
        <time>2019-02-17T13:27:25Z</time>
      </trkpt>
      <trkpt lat="43.61847" lon="6.56605">
        <ele>350.1</ele>
        <time>2019-02-17T13:27:36Z</time>
      </trkpt>
      <trkpt lat="43.61843" lon="6.56594">
        <ele>351</ele>
        <time>2019-02-17T13:27:45Z</time>
      </trkpt>
      <trkpt lat="43.61838" lon="6.56583">
        <ele>352.4</ele>
        <time>2019-02-17T13:27:54Z</time>
      </trkpt>
      <trkpt lat="43.61829" lon="6.56582">
        <ele>353.8</ele>
        <time>2019-02-17T13:28:06Z</time>
      </trkpt>
      <trkpt lat="43.61822" lon="6.5659">
        <ele>354.2</ele>
        <time>2019-02-17T13:28:16Z</time>
      </trkpt>
      <trkpt lat="43.61814" lon="6.56596">
        <ele>354.8</ele>
        <time>2019-02-17T13:28:25Z</time>
      </trkpt>
      <trkpt lat="43.61807" lon="6.56607">
        <ele>354.9</ele>
        <time>2019-02-17T13:28:36Z</time>
      </trkpt>
      <trkpt lat="43.61803" lon="6.56619">
        <ele>355.1</ele>
        <time>2019-02-17T13:28:46Z</time>
      </trkpt>
      <trkpt lat="43.61797" lon="6.56629">
        <ele>355.2</ele>
        <time>2019-02-17T13:28:54Z</time>
      </trkpt>
      <trkpt lat="43.61791" lon="6.56638">
        <ele>355.6</ele>
        <time>2019-02-17T13:29:02Z</time>
      </trkpt>
      <trkpt lat="43.61785" lon="6.56648">
        <ele>355.1</ele>
        <time>2019-02-17T13:29:09Z</time>
      </trkpt>
      <trkpt lat="43.61777" lon="6.56657">
        <ele>355.4</ele>
        <time>2019-02-17T13:29:17Z</time>
      </trkpt>
      <trkpt lat="43.61771" lon="6.56666">
        <ele>355.7</ele>
        <time>2019-02-17T13:29:25Z</time>
      </trkpt>
      <trkpt lat="43.61765" lon="6.56676">
        <ele>355.7</ele>
        <time>2019-02-17T13:29:33Z</time>
      </trkpt>
      <trkpt lat="43.61758" lon="6.56685">
        <ele>355.7</ele>
        <time>2019-02-17T13:29:43Z</time>
      </trkpt>
      <trkpt lat="43.61751" lon="6.56693">
        <ele>356</ele>
        <time>2019-02-17T13:29:52Z</time>
      </trkpt>
      <trkpt lat="43.61742" lon="6.56699">
        <ele>356.4</ele>
        <time>2019-02-17T13:30:00Z</time>
      </trkpt>
      <trkpt lat="43.61734" lon="6.56705">
        <ele>356.4</ele>
        <time>2019-02-17T13:30:08Z</time>
      </trkpt>
      <trkpt lat="43.61726" lon="6.56712">
        <ele>356.7</ele>
        <time>2019-02-17T13:30:16Z</time>
      </trkpt>
      <trkpt lat="43.61717" lon="6.5672">
        <ele>356.8</ele>
        <time>2019-02-17T13:30:25Z</time>
      </trkpt>
      <trkpt lat="43.61708" lon="6.56725">
        <ele>357.3</ele>
        <time>2019-02-17T13:30:34Z</time>
      </trkpt>
      <trkpt lat="43.61699" lon="6.56729">
        <ele>357.1</ele>
        <time>2019-02-17T13:30:42Z</time>
      </trkpt>
      <trkpt lat="43.61691" lon="6.56732">
        <ele>357.7</ele>
        <time>2019-02-17T13:30:50Z</time>
      </trkpt>
      <trkpt lat="43.61681" lon="6.56734">
        <ele>357.8</ele>
        <time>2019-02-17T13:30:59Z</time>
      </trkpt>
      <trkpt lat="43.61672" lon="6.56735">
        <ele>358.2</ele>
        <time>2019-02-17T13:31:07Z</time>
      </trkpt>
      <trkpt lat="43.61662" lon="6.56737">
        <ele>359.2</ele>
        <time>2019-02-17T13:31:16Z</time>
      </trkpt>
      <trkpt lat="43.61652" lon="6.56736">
        <ele>359.5</ele>
        <time>2019-02-17T13:31:24Z</time>
      </trkpt>
      <trkpt lat="43.61642" lon="6.56734">
        <ele>359.8</ele>
        <time>2019-02-17T13:31:33Z</time>
      </trkpt>
      <trkpt lat="43.61633" lon="6.56732">
        <ele>360.6</ele>
        <time>2019-02-17T13:31:43Z</time>
      </trkpt>
      <trkpt lat="43.61624" lon="6.56729">
        <ele>360.8</ele>
        <time>2019-02-17T13:31:50Z</time>
      </trkpt>
      <trkpt lat="43.61615" lon="6.56725">
        <ele>360.9</ele>
        <time>2019-02-17T13:31:58Z</time>
      </trkpt>
      <trkpt lat="43.61606" lon="6.5672">
        <ele>361.6</ele>
        <time>2019-02-17T13:32:08Z</time>
      </trkpt>
      <trkpt lat="43.61597" lon="6.56714">
        <ele>361</ele>
        <time>2019-02-17T13:32:17Z</time>
      </trkpt>
      <trkpt lat="43.61588" lon="6.56707">
        <ele>362.2</ele>
        <time>2019-02-17T13:32:25Z</time>
      </trkpt>
      <trkpt lat="43.6158" lon="6.56701">
        <ele>363.2</ele>
        <time>2019-02-17T13:33:01Z</time>
      </trkpt>
      <trkpt lat="43.61572" lon="6.56693">
        <ele>363.2</ele>
        <time>2019-02-17T13:33:11Z</time>
      </trkpt>
      <trkpt lat="43.61564" lon="6.56685">
        <ele>363</ele>
        <time>2019-02-17T13:33:20Z</time>
      </trkpt>
      <trkpt lat="43.61557" lon="6.56677">
        <ele>363.7</ele>
        <time>2019-02-17T13:33:28Z</time>
      </trkpt>
      <trkpt lat="43.61552" lon="6.56667">
        <ele>363.5</ele>
        <time>2019-02-17T13:33:35Z</time>
      </trkpt>
      <trkpt lat="43.61546" lon="6.56657">
        <ele>363.9</ele>
        <time>2019-02-17T13:33:42Z</time>
      </trkpt>
      <trkpt lat="43.6154" lon="6.56647">
        <ele>364.3</ele>
        <time>2019-02-17T13:33:50Z</time>
      </trkpt>
      <trkpt lat="43.61536" lon="6.56636">
        <ele>364.8</ele>
        <time>2019-02-17T13:33:58Z</time>
      </trkpt>
      <trkpt lat="43.61533" lon="6.56623">
        <ele>365.3</ele>
        <time>2019-02-17T13:34:06Z</time>
      </trkpt>
      <trkpt lat="43.61529" lon="6.56611">
        <ele>365.2</ele>
        <time>2019-02-17T13:34:13Z</time>
      </trkpt>
      <trkpt lat="43.61527" lon="6.56597">
        <ele>365.7</ele>
        <time>2019-02-17T13:34:21Z</time>
      </trkpt>
      <trkpt lat="43.61524" lon="6.56584">
        <ele>366.6</ele>
        <time>2019-02-17T13:34:27Z</time>
      </trkpt>
      <trkpt lat="43.61519" lon="6.56572">
        <ele>366.9</ele>
        <time>2019-02-17T13:34:35Z</time>
      </trkpt>
      <trkpt lat="43.61517" lon="6.56559">
        <ele>366.8</ele>
        <time>2019-02-17T13:34:42Z</time>
      </trkpt>
      <trkpt lat="43.61516" lon="6.56546">
        <ele>367.1</ele>
        <time>2019-02-17T13:34:49Z</time>
      </trkpt>
      <trkpt lat="43.61514" lon="6.56533">
        <ele>367.2</ele>
        <time>2019-02-17T13:34:59Z</time>
      </trkpt>
      <trkpt lat="43.61512" lon="6.5652">
        <ele>367.4</ele>
        <time>2019-02-17T13:35:07Z</time>
      </trkpt>
      <trkpt lat="43.61508" lon="6.56507">
        <ele>368</ele>
        <time>2019-02-17T13:35:15Z</time>
      </trkpt>
      <trkpt lat="43.61505" lon="6.56495">
        <ele>368.4</ele>
        <time>2019-02-17T13:35:22Z</time>
      </trkpt>
      <trkpt lat="43.61504" lon="6.56481">
        <ele>368.9</ele>
        <time>2019-02-17T13:35:30Z</time>
      </trkpt>
      <trkpt lat="43.615" lon="6.56468">
        <ele>368.8</ele>
        <time>2019-02-17T13:35:36Z</time>
      </trkpt>
      <trkpt lat="43.61497" lon="6.56455">
        <ele>368.8</ele>
        <time>2019-02-17T13:35:44Z</time>
      </trkpt>
      <trkpt lat="43.61496" lon="6.56442">
        <ele>369.4</ele>
        <time>2019-02-17T13:35:51Z</time>
      </trkpt>
      <trkpt lat="43.61493" lon="6.56429">
        <ele>369.9</ele>
        <time>2019-02-17T13:35:59Z</time>
      </trkpt>
      <trkpt lat="43.61491" lon="6.56415">
        <ele>370.2</ele>
        <time>2019-02-17T13:36:07Z</time>
      </trkpt>
      <trkpt lat="43.61489" lon="6.56402">
        <ele>370.2</ele>
        <time>2019-02-17T13:36:15Z</time>
      </trkpt>
      <trkpt lat="43.61485" lon="6.5639">
        <ele>370.6</ele>
        <time>2019-02-17T13:36:23Z</time>
      </trkpt>
      <trkpt lat="43.61483" lon="6.56376">
        <ele>370.7</ele>
        <time>2019-02-17T13:36:32Z</time>
      </trkpt>
      <trkpt lat="43.61477" lon="6.56365">
        <ele>371</ele>
        <time>2019-02-17T13:36:39Z</time>
      </trkpt>
      <trkpt lat="43.61473" lon="6.56354">
        <ele>371.3</ele>
        <time>2019-02-17T13:36:47Z</time>
      </trkpt>
      <trkpt lat="43.61468" lon="6.56343">
        <ele>371.1</ele>
        <time>2019-02-17T13:36:54Z</time>
      </trkpt>
      <trkpt lat="43.61465" lon="6.56331">
        <ele>371.3</ele>
        <time>2019-02-17T13:37:01Z</time>
      </trkpt>
      <trkpt lat="43.6146" lon="6.56319">
        <ele>371.8</ele>
        <time>2019-02-17T13:37:08Z</time>
      </trkpt>
      <trkpt lat="43.61454" lon="6.56308">
        <ele>372.4</ele>
        <time>2019-02-17T13:37:17Z</time>
      </trkpt>
      <trkpt lat="43.61447" lon="6.56297">
        <ele>372.1</ele>
        <time>2019-02-17T13:37:24Z</time>
      </trkpt>
      <trkpt lat="43.61443" lon="6.56284">
        <ele>372.1</ele>
        <time>2019-02-17T13:37:32Z</time>
      </trkpt>
      <trkpt lat="43.61436" lon="6.56275">
        <ele>372.3</ele>
        <time>2019-02-17T13:37:40Z</time>
      </trkpt>
      <trkpt lat="43.61429" lon="6.56266">
        <ele>372.9</ele>
        <time>2019-02-17T13:37:49Z</time>
      </trkpt>
      <trkpt lat="43.61422" lon="6.56255">
        <ele>373.2</ele>
        <time>2019-02-17T13:37:57Z</time>
      </trkpt>
      <trkpt lat="43.61416" lon="6.56244">
        <ele>373.3</ele>
        <time>2019-02-17T13:38:04Z</time>
      </trkpt>
      <trkpt lat="43.6141" lon="6.56235">
        <ele>373.4</ele>
        <time>2019-02-17T13:38:11Z</time>
      </trkpt>
      <trkpt lat="43.61406" lon="6.56224">
        <ele>373.7</ele>
        <time>2019-02-17T13:38:20Z</time>
      </trkpt>
      <trkpt lat="43.61401" lon="6.56212">
        <ele>374</ele>
        <time>2019-02-17T13:38:28Z</time>
      </trkpt>
      <trkpt lat="43.61394" lon="6.56204">
        <ele>374.2</ele>
        <time>2019-02-17T13:38:34Z</time>
      </trkpt>
      <trkpt lat="43.61388" lon="6.56194">
        <ele>374.4</ele>
        <time>2019-02-17T13:38:42Z</time>
      </trkpt>
      <trkpt lat="43.61382" lon="6.56184">
        <ele>374.5</ele>
        <time>2019-02-17T13:38:50Z</time>
      </trkpt>
      <trkpt lat="43.61377" lon="6.56172">
        <ele>374.8</ele>
        <time>2019-02-17T13:38:57Z</time>
      </trkpt>
      <trkpt lat="43.61371" lon="6.56162">
        <ele>375.2</ele>
        <time>2019-02-17T13:39:04Z</time>
      </trkpt>
      <trkpt lat="43.61365" lon="6.56152">
        <ele>375.7</ele>
        <time>2019-02-17T13:39:11Z</time>
      </trkpt>
      <trkpt lat="43.61357" lon="6.56143">
        <ele>376.1</ele>
        <time>2019-02-17T13:39:17Z</time>
      </trkpt>
      <trkpt lat="43.6135" lon="6.56134">
        <ele>376</ele>
        <time>2019-02-17T13:39:24Z</time>
      </trkpt>
      <trkpt lat="43.61344" lon="6.56125">
        <ele>376.2</ele>
        <time>2019-02-17T13:39:32Z</time>
      </trkpt>
      <trkpt lat="43.61335" lon="6.56118">
        <ele>376.6</ele>
        <time>2019-02-17T13:39:40Z</time>
      </trkpt>
      <trkpt lat="43.61329" lon="6.56109">
        <ele>376.8</ele>
        <time>2019-02-17T13:39:48Z</time>
      </trkpt>
      <trkpt lat="43.6132" lon="6.56102">
        <ele>377.1</ele>
        <time>2019-02-17T13:39:56Z</time>
      </trkpt>
      <trkpt lat="43.61312" lon="6.56097">
        <ele>377.3</ele>
        <time>2019-02-17T13:40:04Z</time>
      </trkpt>
      <trkpt lat="43.61303" lon="6.5609">
        <ele>377.7</ele>
        <time>2019-02-17T13:40:11Z</time>
      </trkpt>
      <trkpt lat="43.61293" lon="6.56086">
        <ele>378</ele>
        <time>2019-02-17T13:40:19Z</time>
      </trkpt>
      <trkpt lat="43.61286" lon="6.56078">
        <ele>378.3</ele>
        <time>2019-02-17T13:40:27Z</time>
      </trkpt>
      <trkpt lat="43.61277" lon="6.56072">
        <ele>378.8</ele>
        <time>2019-02-17T13:40:34Z</time>
      </trkpt>
      <trkpt lat="43.61268" lon="6.56066">
        <ele>378.8</ele>
        <time>2019-02-17T13:40:42Z</time>
      </trkpt>
      <trkpt lat="43.61259" lon="6.56059">
        <ele>378.8</ele>
        <time>2019-02-17T13:40:49Z</time>
      </trkpt>
      <trkpt lat="43.61252" lon="6.56053">
        <ele>379</ele>
        <time>2019-02-17T13:40:57Z</time>
      </trkpt>
      <trkpt lat="43.61243" lon="6.56048">
        <ele>379.5</ele>
        <time>2019-02-17T13:41:05Z</time>
      </trkpt>
      <trkpt lat="43.61235" lon="6.56042">
        <ele>379.9</ele>
        <time>2019-02-17T13:41:15Z</time>
      </trkpt>
      <trkpt lat="43.61226" lon="6.56035">
        <ele>380.3</ele>
        <time>2019-02-17T13:41:24Z</time>
      </trkpt>
      <trkpt lat="43.61217" lon="6.56028">
        <ele>380.6</ele>
        <time>2019-02-17T13:41:30Z</time>
      </trkpt>
      <trkpt lat="43.61208" lon="6.56023">
        <ele>380.9</ele>
        <time>2019-02-17T13:41:37Z</time>
      </trkpt>
      <trkpt lat="43.612" lon="6.56018">
        <ele>381.1</ele>
        <time>2019-02-17T13:41:45Z</time>
      </trkpt>
      <trkpt lat="43.61192" lon="6.56011">
        <ele>381.5</ele>
        <time>2019-02-17T13:41:54Z</time>
      </trkpt>
      <trkpt lat="43.61182" lon="6.56006">
        <ele>381.6</ele>
        <time>2019-02-17T13:42:04Z</time>
      </trkpt>
      <trkpt lat="43.61171" lon="6.56002">
        <ele>381.9</ele>
        <time>2019-02-17T13:42:12Z</time>
      </trkpt>
      <trkpt lat="43.61162" lon="6.55999">
        <ele>382.3</ele>
        <time>2019-02-17T13:42:19Z</time>
      </trkpt>
      <trkpt lat="43.61153" lon="6.55994">
        <ele>382.4</ele>
        <time>2019-02-17T13:42:26Z</time>
      </trkpt>
      <trkpt lat="43.61143" lon="6.55994">
        <ele>382.6</ele>
        <time>2019-02-17T13:42:34Z</time>
      </trkpt>
      <trkpt lat="43.61135" lon="6.5599">
        <ele>382.9</ele>
        <time>2019-02-17T13:42:42Z</time>
      </trkpt>
      <trkpt lat="43.61124" lon="6.55988">
        <ele>383.2</ele>
        <time>2019-02-17T13:42:49Z</time>
      </trkpt>
      <trkpt lat="43.61115" lon="6.55983">
        <ele>383.3</ele>
        <time>2019-02-17T13:42:59Z</time>
      </trkpt>
      <trkpt lat="43.61106" lon="6.5598">
        <ele>383.4</ele>
        <time>2019-02-17T13:43:07Z</time>
      </trkpt>
      <trkpt lat="43.61097" lon="6.55976">
        <ele>383.9</ele>
        <time>2019-02-17T13:43:13Z</time>
      </trkpt>
      <trkpt lat="43.61088" lon="6.55976">
        <ele>384.3</ele>
        <time>2019-02-17T13:43:18Z</time>
      </trkpt>
      <trkpt lat="43.61079" lon="6.55974">
        <ele>384.6</ele>
        <time>2019-02-17T13:43:29Z</time>
      </trkpt>
      <trkpt lat="43.61069" lon="6.55974">
        <ele>384.8</ele>
        <time>2019-02-17T13:44:05Z</time>
      </trkpt>
      <trkpt lat="43.61061" lon="6.55969">
        <ele>384.9</ele>
        <time>2019-02-17T13:44:17Z</time>
      </trkpt>
      <trkpt lat="43.61052" lon="6.55965">
        <ele>385.4</ele>
        <time>2019-02-17T13:44:26Z</time>
      </trkpt>
      <trkpt lat="43.61043" lon="6.55963">
        <ele>385.8</ele>
        <time>2019-02-17T13:44:36Z</time>
      </trkpt>
      <trkpt lat="43.61034" lon="6.55958">
        <ele>385.9</ele>
        <time>2019-02-17T13:45:03Z</time>
      </trkpt>
      <trkpt lat="43.61023" lon="6.55959">
        <ele>386.3</ele>
        <time>2019-02-17T13:45:09Z</time>
      </trkpt>
      <trkpt lat="43.61014" lon="6.55961">
        <ele>386.6</ele>
        <time>2019-02-17T13:45:17Z</time>
      </trkpt>
      <trkpt lat="43.61004" lon="6.55961">
        <ele>386.7</ele>
        <time>2019-02-17T13:45:24Z</time>
      </trkpt>
      <trkpt lat="43.60994" lon="6.55963">
        <ele>386.8</ele>
        <time>2019-02-17T13:45:32Z</time>
      </trkpt>
      <trkpt lat="43.60985" lon="6.55966">
        <ele>387</ele>
        <time>2019-02-17T13:45:40Z</time>
      </trkpt>
      <trkpt lat="43.60975" lon="6.55968">
        <ele>387.2</ele>
        <time>2019-02-17T13:45:47Z</time>
      </trkpt>
      <trkpt lat="43.60966" lon="6.55973">
        <ele>387.6</ele>
        <time>2019-02-17T13:45:54Z</time>
      </trkpt>
      <trkpt lat="43.60958" lon="6.55979">
        <ele>388</ele>
        <time>2019-02-17T13:46:02Z</time>
      </trkpt>
      <trkpt lat="43.60949" lon="6.55986">
        <ele>388.1</ele>
        <time>2019-02-17T13:46:09Z</time>
      </trkpt>
      <trkpt lat="43.60942" lon="6.55993">
        <ele>387.9</ele>
        <time>2019-02-17T13:46:17Z</time>
      </trkpt>
      <trkpt lat="43.60934" lon="6.56002">
        <ele>388.1</ele>
        <time>2019-02-17T13:46:26Z</time>
      </trkpt>
      <trkpt lat="43.60925" lon="6.56009">
        <ele>388.3</ele>
        <time>2019-02-17T13:46:34Z</time>
      </trkpt>
      <trkpt lat="43.60918" lon="6.56016">
        <ele>388.6</ele>
        <time>2019-02-17T13:46:41Z</time>
      </trkpt>
      <trkpt lat="43.6091" lon="6.56025">
        <ele>388.9</ele>
        <time>2019-02-17T13:46:49Z</time>
      </trkpt>
      <trkpt lat="43.60901" lon="6.5603">
        <ele>389.1</ele>
        <time>2019-02-17T13:46:57Z</time>
      </trkpt>
      <trkpt lat="43.60894" lon="6.56038">
        <ele>389.5</ele>
        <time>2019-02-17T13:47:05Z</time>
      </trkpt>
      <trkpt lat="43.60886" lon="6.56047">
        <ele>389.8</ele>
        <time>2019-02-17T13:47:14Z</time>
      </trkpt>
      <trkpt lat="43.60879" lon="6.56055">
        <ele>390.4</ele>
        <time>2019-02-17T13:47:23Z</time>
      </trkpt>
      <trkpt lat="43.6087" lon="6.56061">
        <ele>390.4</ele>
        <time>2019-02-17T13:47:31Z</time>
      </trkpt>
      <trkpt lat="43.60861" lon="6.56067">
        <ele>390.9</ele>
        <time>2019-02-17T13:47:39Z</time>
      </trkpt>
      <trkpt lat="43.60852" lon="6.56072">
        <ele>391.1</ele>
        <time>2019-02-17T13:47:47Z</time>
      </trkpt>
      <trkpt lat="43.60843" lon="6.56076">
        <ele>391.2</ele>
        <time>2019-02-17T13:47:54Z</time>
      </trkpt>
      <trkpt lat="43.60835" lon="6.56082">
        <ele>391.7</ele>
        <time>2019-02-17T13:48:02Z</time>
      </trkpt>
      <trkpt lat="43.60826" lon="6.56088">
        <ele>392</ele>
        <time>2019-02-17T13:48:11Z</time>
      </trkpt>
      <trkpt lat="43.60817" lon="6.56092">
        <ele>392</ele>
        <time>2019-02-17T13:48:19Z</time>
      </trkpt>
      <trkpt lat="43.60808" lon="6.56096">
        <ele>392.2</ele>
        <time>2019-02-17T13:48:26Z</time>
      </trkpt>
      <trkpt lat="43.60799" lon="6.56102">
        <ele>392.8</ele>
        <time>2019-02-17T13:48:34Z</time>
      </trkpt>
      <trkpt lat="43.60791" lon="6.56109">
        <ele>393.1</ele>
        <time>2019-02-17T13:48:42Z</time>
      </trkpt>
      <trkpt lat="43.60783" lon="6.56115">
        <ele>393.3</ele>
        <time>2019-02-17T13:48:50Z</time>
      </trkpt>
      <trkpt lat="43.60776" lon="6.56124">
        <ele>393.5</ele>
        <time>2019-02-17T13:48:57Z</time>
      </trkpt>
      <trkpt lat="43.60768" lon="6.56132">
        <ele>394</ele>
        <time>2019-02-17T13:49:05Z</time>
      </trkpt>
      <trkpt lat="43.6076" lon="6.5614">
        <ele>394.4</ele>
        <time>2019-02-17T13:49:12Z</time>
      </trkpt>
      <trkpt lat="43.60754" lon="6.5615">
        <ele>394.5</ele>
        <time>2019-02-17T13:49:20Z</time>
      </trkpt>
      <trkpt lat="43.60747" lon="6.56161">
        <ele>394.7</ele>
        <time>2019-02-17T13:49:28Z</time>
      </trkpt>
      <trkpt lat="43.60739" lon="6.56169">
        <ele>394.9</ele>
        <time>2019-02-17T13:49:36Z</time>
      </trkpt>
      <trkpt lat="43.6073" lon="6.56176">
        <ele>395.4</ele>
        <time>2019-02-17T13:49:44Z</time>
      </trkpt>
      <trkpt lat="43.60722" lon="6.56183">
        <ele>395.9</ele>
        <time>2019-02-17T13:49:53Z</time>
      </trkpt>
      <trkpt lat="43.60714" lon="6.56192">
        <ele>396.2</ele>
        <time>2019-02-17T13:50:02Z</time>
      </trkpt>
      <trkpt lat="43.60706" lon="6.562">
        <ele>396.5</ele>
        <time>2019-02-17T13:50:11Z</time>
      </trkpt>
      <trkpt lat="43.60697" lon="6.56207">
        <ele>397.1</ele>
        <time>2019-02-17T13:50:20Z</time>
      </trkpt>
      <trkpt lat="43.60688" lon="6.5621">
        <ele>397.4</ele>
        <time>2019-02-17T13:50:28Z</time>
      </trkpt>
      <trkpt lat="43.60678" lon="6.56211">
        <ele>397.2</ele>
        <time>2019-02-17T13:50:36Z</time>
      </trkpt>
      <trkpt lat="43.60669" lon="6.56214">
        <ele>397.7</ele>
        <time>2019-02-17T13:50:44Z</time>
      </trkpt>
      <trkpt lat="43.6066" lon="6.56217">
        <ele>397.6</ele>
        <time>2019-02-17T13:50:52Z</time>
      </trkpt>
      <trkpt lat="43.6065" lon="6.56218">
        <ele>398</ele>
        <time>2019-02-17T13:51:03Z</time>
      </trkpt>
      <trkpt lat="43.60641" lon="6.56218">
        <ele>398.4</ele>
        <time>2019-02-17T13:51:16Z</time>
      </trkpt>
      <trkpt lat="43.60631" lon="6.5622">
        <ele>398.7</ele>
        <time>2019-02-17T13:51:24Z</time>
      </trkpt>
      <trkpt lat="43.60622" lon="6.56223">
        <ele>398.9</ele>
        <time>2019-02-17T13:51:37Z</time>
      </trkpt>
      <trkpt lat="43.60612" lon="6.56226">
        <ele>399.4</ele>
        <time>2019-02-17T13:51:45Z</time>
      </trkpt>
      <trkpt lat="43.60603" lon="6.56228">
        <ele>398.8</ele>
        <time>2019-02-17T13:51:53Z</time>
      </trkpt>
      <trkpt lat="43.60594" lon="6.56232">
        <ele>399.5</ele>
        <time>2019-02-17T13:52:00Z</time>
      </trkpt>
      <trkpt lat="43.60585" lon="6.56237">
        <ele>399.5</ele>
        <time>2019-02-17T13:52:07Z</time>
      </trkpt>
      <trkpt lat="43.60576" lon="6.56243">
        <ele>400</ele>
        <time>2019-02-17T13:52:15Z</time>
      </trkpt>
      <trkpt lat="43.60567" lon="6.56248">
        <ele>400.2</ele>
        <time>2019-02-17T13:52:23Z</time>
      </trkpt>
      <trkpt lat="43.60558" lon="6.56252">
        <ele>400.5</ele>
        <time>2019-02-17T13:52:33Z</time>
      </trkpt>
      <trkpt lat="43.6055" lon="6.5626">
        <ele>400.5</ele>
        <time>2019-02-17T13:52:43Z</time>
      </trkpt>
      <trkpt lat="43.60543" lon="6.56269">
        <ele>400.6</ele>
        <time>2019-02-17T13:52:51Z</time>
      </trkpt>
      <trkpt lat="43.60536" lon="6.56278">
        <ele>400.9</ele>
        <time>2019-02-17T13:52:59Z</time>
      </trkpt>
      <trkpt lat="43.60529" lon="6.56287">
        <ele>401.5</ele>
        <time>2019-02-17T13:53:07Z</time>
      </trkpt>
      <trkpt lat="43.60523" lon="6.56297">
        <ele>401.5</ele>
        <time>2019-02-17T13:53:16Z</time>
      </trkpt>
      <trkpt lat="43.60516" lon="6.56307">
        <ele>402</ele>
        <time>2019-02-17T13:53:25Z</time>
      </trkpt>
      <trkpt lat="43.60509" lon="6.56316">
        <ele>401.7</ele>
        <time>2019-02-17T13:53:33Z</time>
      </trkpt>
      <trkpt lat="43.60503" lon="6.56326">
        <ele>402.2</ele>
        <time>2019-02-17T13:53:41Z</time>
      </trkpt>
      <trkpt lat="43.60496" lon="6.56334">
        <ele>402.7</ele>
        <time>2019-02-17T13:53:49Z</time>
      </trkpt>
      <trkpt lat="43.60489" lon="6.56341">
        <ele>403.2</ele>
        <time>2019-02-17T13:53:57Z</time>
      </trkpt>
      <trkpt lat="43.60484" lon="6.56352">
        <ele>403.5</ele>
        <time>2019-02-17T13:54:06Z</time>
      </trkpt>
      <trkpt lat="43.60479" lon="6.56363">
        <ele>403.8</ele>
        <time>2019-02-17T13:54:15Z</time>
      </trkpt>
      <trkpt lat="43.60473" lon="6.56375">
        <ele>404.1</ele>
        <time>2019-02-17T13:54:26Z</time>
      </trkpt>
      <trkpt lat="43.60467" lon="6.56385">
        <ele>404.7</ele>
        <time>2019-02-17T13:54:33Z</time>
      </trkpt>
      <trkpt lat="43.6046" lon="6.56394">
        <ele>404.8</ele>
        <time>2019-02-17T13:54:42Z</time>
      </trkpt>
      <trkpt lat="43.60454" lon="6.56405">
        <ele>405</ele>
        <time>2019-02-17T13:54:51Z</time>
      </trkpt>
      <trkpt lat="43.60446" lon="6.56414">
        <ele>405.1</ele>
        <time>2019-02-17T13:54:59Z</time>
      </trkpt>
      <trkpt lat="43.60439" lon="6.56421">
        <ele>405.7</ele>
        <time>2019-02-17T13:55:08Z</time>
      </trkpt>
      <trkpt lat="43.60432" lon="6.56431">
        <ele>406</ele>
        <time>2019-02-17T13:55:16Z</time>
      </trkpt>
      <trkpt lat="43.60424" lon="6.56439">
        <ele>405.8</ele>
        <time>2019-02-17T13:55:26Z</time>
      </trkpt>
      <trkpt lat="43.60417" lon="6.56447">
        <ele>406</ele>
        <time>2019-02-17T13:55:34Z</time>
      </trkpt>
      <trkpt lat="43.60409" lon="6.56456">
        <ele>405.8</ele>
        <time>2019-02-17T13:55:42Z</time>
      </trkpt>
      <trkpt lat="43.60401" lon="6.56465">
        <ele>405.6</ele>
        <time>2019-02-17T13:55:50Z</time>
      </trkpt>
      <trkpt lat="43.60395" lon="6.56475">
        <ele>405.5</ele>
        <time>2019-02-17T13:55:58Z</time>
      </trkpt>
      <trkpt lat="43.60386" lon="6.5648">
        <ele>405.6</ele>
        <time>2019-02-17T13:56:05Z</time>
      </trkpt>
      <trkpt lat="43.60378" lon="6.56486">
        <ele>405.6</ele>
        <time>2019-02-17T13:56:15Z</time>
      </trkpt>
      <trkpt lat="43.60368" lon="6.56486">
        <ele>406.1</ele>
        <time>2019-02-17T13:56:28Z</time>
      </trkpt>
      <trkpt lat="43.60358" lon="6.5649">
        <ele>406</ele>
        <time>2019-02-17T13:56:36Z</time>
      </trkpt>
      <trkpt lat="43.60348" lon="6.56491">
        <ele>406.1</ele>
        <time>2019-02-17T13:56:43Z</time>
      </trkpt>
      <trkpt lat="43.6034" lon="6.56498">
        <ele>406.1</ele>
        <time>2019-02-17T13:56:51Z</time>
      </trkpt>
      <trkpt lat="43.60331" lon="6.56502">
        <ele>405.8</ele>
        <time>2019-02-17T13:56:58Z</time>
      </trkpt>
      <trkpt lat="43.60322" lon="6.56507">
        <ele>405.9</ele>
        <time>2019-02-17T13:57:07Z</time>
      </trkpt>
      <trkpt lat="43.60313" lon="6.56512">
        <ele>405.8</ele>
        <time>2019-02-17T13:57:13Z</time>
      </trkpt>
      <trkpt lat="43.60305" lon="6.56519">
        <ele>405.8</ele>
        <time>2019-02-17T13:57:20Z</time>
      </trkpt>
      <trkpt lat="43.60297" lon="6.56525">
        <ele>406</ele>
        <time>2019-02-17T13:57:26Z</time>
      </trkpt>
      <trkpt lat="43.60289" lon="6.56534">
        <ele>406.3</ele>
        <time>2019-02-17T13:57:34Z</time>
      </trkpt>
      <trkpt lat="43.60281" lon="6.56542">
        <ele>406.6</ele>
        <time>2019-02-17T13:57:42Z</time>
      </trkpt>
      <trkpt lat="43.60273" lon="6.56549">
        <ele>406.7</ele>
        <time>2019-02-17T13:57:50Z</time>
      </trkpt>
      <trkpt lat="43.60265" lon="6.56555">
        <ele>407.6</ele>
        <time>2019-02-17T13:57:59Z</time>
      </trkpt>
      <trkpt lat="43.60257" lon="6.56564">
        <ele>408.1</ele>
        <time>2019-02-17T13:58:08Z</time>
      </trkpt>
      <trkpt lat="43.60247" lon="6.56566">
        <ele>408.9</ele>
        <time>2019-02-17T13:58:17Z</time>
      </trkpt>
      <trkpt lat="43.60239" lon="6.56571">
        <ele>409.8</ele>
        <time>2019-02-17T13:58:27Z</time>
      </trkpt>
      <trkpt lat="43.60232" lon="6.56579">
        <ele>412.4</ele>
        <time>2019-02-17T13:58:38Z</time>
      </trkpt>
      <trkpt lat="43.60224" lon="6.56582">
        <ele>414.3</ele>
        <time>2019-02-17T13:58:50Z</time>
      </trkpt>
    </trkseg>
  </trk>
</gpx>